Time,TemperatureF,DewpointF,PressureIn,WindDirection,WindDirectionDegrees,WindSpeedMPH,WindSpeedGustMPH,Humidity,HourlyPrecipIn,Conditions,Clouds,dailyrainin,SoftwareType,DateUTC
2013-07-08 00:00:00,72.0,71.4,29.85,SW,236,0.0,0.0,98,0.00,,CLR,0.00,VWS V14.01,2013-07-08 04:00:00,
2013-07-08 00:01:00,72.0,71.4,29.85,SW,236,0.0,0.0,98,0.00,,CLR,0.00,VWS V14.01,2013-07-08 04:01:00,
2013-07-08 00:02:00,72.0,71.4,29.86,SW,236,0.0,0.0,98,0.00,,CLR,0.00,VWS V14.01,2013-07-08 04:02:00,
2013-07-08 00:03:00,72.0,71.4,29.86,SW,236,0.0,0.0,98,0.00,,CLR,0.00,VWS V14.01,2013-07-08 04:03:00,
2013-07-08 00:04:00,72.0,71.4,29.85,SW,236,0.0,0.0,98,0.00,,CLR,0.00,VWS V14.01,2013-07-08 04:04:00,
2013-07-08 00:05:00,72.0,71.4,29.85,SW,235,0.0,0.0,98,0.00,,CLR,0.00,VWS V14.01,2013-07-08 04:05:00,
2013-07-08 00:06:00,72.0,71.4,29.86,SW,235,0.0,0.0,98,0.00,,CLR,0.00,VWS V14.01,2013-07-08 04:06:00,
2013-07-08 00:07:00,72.0,71.4,29.85,SW,235,0.0,0.0,98,0.00,,CLR,0.00,VWS V14.01,2013-07-08 04:07:00,
2013-07-08 00:08:00,72.0,71.4,29.86,SW,236,0.0,0.0,98,0.00,,CLR,0.00,VWS V14.01,2013-07-08 04:08:00,
2013-07-08 00:09:00,72.0,71.4,29.86,SW,236,0.0,0.0,98,0.00,,CLR,0.00,VWS V14.01,2013-07-08 04:09:00,
2013-07-08 00:10:00,72.0,71.4,29.86,SW,236,0.0,0.0,98,0.00,,CLR,0.00,VWS V14.01,2013-07-08 04:10:00,
2013-07-08 00:11:00,72.0,71.4,29.86,SW,236,0.0,0.0,98,0.00,,CLR,0.00,VWS V14.01,2013-07-08 04:11:00,
2013-07-08 00:12:00,72.0,71.4,29.86,SW,236,0.0,0.0,98,0.00,,CLR,0.00,VWS V14.01,2013-07-08 04:12:00,
2013-07-08 00:13:00,72.0,71.4,29.86,SW,236,0.0,0.0,98,0.00,,CLR,0.00,VWS V14.01,2013-07-08 04:13:00,
2013-07-08 00:14:00,72.0,71.4,29.86,SW,235,0.0,0.0,98,0.00,,CLR,0.00,VWS V14.01,2013-07-08 04:14:00,
2013-07-08 00:15:00,72.0,71.4,29.86,SW,236,0.0,0.0,98,0.00,,CLR,0.00,VWS V14.01,2013-07-08 04:15:00,
2013-07-08 00:16:00,72.0,71.4,29.86,SW,235,0.0,0.0,98,0.00,,CLR,0.00,VWS V14.01,2013-07-08 04:16:00,
2013-07-08 00:17:00,72.0,71.4,29.86,SW,236,0.0,0.0,98,0.00,,CLR,0.00,VWS V14.01,2013-07-08 04:17:00,
2013-07-08 00:18:00,72.0,71.4,29.86,SW,235,0.0,0.0,98,0.00,,CLR,0.00,VWS V14.01,2013-07-08 04:18:00,
2013-07-08 00:19:00,72.1,71.5,29.86,SW,235,0.0,0.0,98,0.00,,CLR,0.00,VWS V14.01,2013-07-08 04:19:00,
2013-07-08 00:20:00,72.1,71.5,29.86,SW,236,0.0,0.0,98,0.00,,CLR,0.00,VWS V14.01,2013-07-08 04:20:00,
2013-07-08 00:21:00,72.1,71.5,29.86,SW,236,0.0,0.0,98,0.00,,CLR,0.00,VWS V14.01,2013-07-08 04:21:00,
2013-07-08 00:22:00,72.1,71.5,29.86,SW,236,0.0,0.0,98,0.00,,CLR,0.00,VWS V14.01,2013-07-08 04:22:00,
2013-07-08 00:23:00,72.1,71.5,29.86,SW,236,0.0,0.0,98,0.00,,CLR,0.00,VWS V14.01,2013-07-08 04:23:00,
2013-07-08 00:24:00,72.0,71.4,29.86,SW,235,0.0,0.0,98,0.00,,CLR,0.00,VWS V14.01,2013-07-08 04:24:00,
2013-07-08 00:25:00,73.3,71.0,29.85,West,275,0.0,0.0,93,0.00,,,0.00,weatherlink.com 1.10,2013-07-08 04:25:00,
2013-07-08 00:26:00,72.1,71.5,29.86,SW,236,0.0,0.0,98,0.00,,CLR,0.00,VWS V14.01,2013-07-08 04:26:00,
2013-07-08 00:27:00,72.1,71.5,29.86,SW,236,0.0,0.0,98,0.00,,CLR,0.00,VWS V14.01,2013-07-08 04:27:00,
2013-07-08 00:28:00,72.1,71.5,29.86,SW,235,0.0,0.0,98,0.00,,CLR,0.00,VWS V14.01,2013-07-08 04:28:00,
2013-07-08 00:29:00,72.1,71.5,29.86,SW,236,0.0,0.0,98,0.00,,CLR,0.00,VWS V14.01,2013-07-08 04:29:00,
2013-07-08 00:30:00,72.1,71.5,29.86,SW,236,0.0,0.0,98,0.00,,CLR,0.00,VWS V14.01,2013-07-08 04:30:00,
2013-07-08 00:31:00,72.1,71.5,29.86,SW,236,0.0,0.0,98,0.00,,CLR,0.00,VWS V14.01,2013-07-08 04:31:00,
2013-07-08 00:32:00,72.1,71.5,29.86,SW,236,0.0,0.0,98,0.00,,CLR,0.00,VWS V14.01,2013-07-08 04:32:00,
2013-07-08 00:33:00,72.1,71.5,29.87,SW,235,0.0,0.0,98,0.00,,CLR,0.00,VWS V14.01,2013-07-08 04:33:00,
2013-07-08 00:34:00,72.2,71.6,29.87,SW,236,0.0,0.0,98,0.00,,CLR,0.00,VWS V14.01,2013-07-08 04:34:00,
2013-07-08 00:35:00,72.2,71.6,29.87,SW,235,0.0,0.0,98,0.00,,CLR,0.00,VWS V14.01,2013-07-08 04:35:00,
2013-07-08 00:36:00,72.2,71.6,29.87,SW,235,0.0,0.0,98,0.00,,CLR,0.00,VWS V14.01,2013-07-08 04:36:00,
2013-07-08 00:37:00,72.2,71.9,29.87,SW,234,0.0,0.0,99,0.00,,CLR,0.00,VWS V14.01,2013-07-08 04:37:00,
2013-07-08 00:38:00,72.2,71.9,29.87,SW,236,0.0,0.0,99,0.00,,CLR,0.00,VWS V14.01,2013-07-08 04:38:00,
2013-07-08 00:39:00,72.3,72.0,29.87,SW,234,0.0,0.0,99,0.00,,CLR,0.00,VWS V14.01,2013-07-08 04:39:00,
2013-07-08 00:40:00,72.3,72.0,29.87,SW,236,0.0,0.0,99,0.00,,CLR,0.00,VWS V14.01,2013-07-08 04:40:00,
2013-07-08 00:41:00,73.0,71.0,29.85,West,275,0.0,0.0,94,0.00,,,0.00,weatherlink.com 1.10,2013-07-08 04:41:00,
2013-07-08 00:42:00,72.3,72.0,29.87,SW,235,0.0,0.0,99,0.00,,CLR,0.00,VWS V14.01,2013-07-08 04:42:00,
2013-07-08 00:43:00,72.3,72.0,29.87,SW,236,0.0,0.0,99,0.00,,CLR,0.00,VWS V14.01,2013-07-08 04:43:00,
2013-07-08 00:44:00,72.4,72.1,29.87,SW,236,0.0,0.0,99,0.00,,CLR,0.00,VWS V14.01,2013-07-08 04:44:00,
2013-07-08 00:45:00,72.4,72.1,29.87,SW,236,0.0,0.0,99,0.00,,CLR,0.00,VWS V14.01,2013-07-08 04:45:00,
2013-07-08 00:46:00,72.4,72.1,29.87,SW,236,0.0,0.0,99,0.00,,CLR,0.00,VWS V14.01,2013-07-08 04:46:00,
2013-07-08 00:47:00,72.5,72.2,29.87,SW,236,0.0,0.0,99,0.00,,CLR,0.00,VWS V14.01,2013-07-08 04:47:00,
2013-07-08 00:48:00,72.5,72.2,29.87,SW,236,0.0,0.0,99,0.00,,CLR,0.00,VWS V14.01,2013-07-08 04:48:00,
2013-07-08 00:49:00,72.6,72.3,29.87,SW,236,0.0,0.0,99,0.00,,CLR,0.00,VWS V14.01,2013-07-08 04:49:00,
2013-07-08 00:50:00,72.6,72.3,29.87,SW,236,0.0,0.0,99,0.00,,CLR,0.00,VWS V14.01,2013-07-08 04:50:00,
2013-07-08 00:51:00,72.7,72.4,29.87,SW,235,0.0,0.0,99,0.00,,CLR,0.00,VWS V14.01,2013-07-08 04:51:00,
2013-07-08 00:52:00,72.7,72.4,29.87,SW,235,0.0,0.0,99,0.00,,CLR,0.00,VWS V14.01,2013-07-08 04:52:00,
2013-07-08 00:53:00,72.7,72.4,29.87,SW,235,0.0,0.0,99,0.00,,CLR,0.00,VWS V14.01,2013-07-08 04:53:00,
2013-07-08 00:54:00,72.8,72.5,29.87,SW,236,0.0,0.0,99,0.00,,CLR,0.00,VWS V14.01,2013-07-08 04:54:00,
2013-07-08 00:55:00,72.8,72.5,29.87,SW,236,0.0,0.0,99,0.00,,CLR,0.00,VWS V14.01,2013-07-08 04:55:00,
2013-07-08 00:56:00,72.9,72.6,29.87,SW,236,0.0,0.0,99,0.00,,CLR,0.00,VWS V14.01,2013-07-08 04:56:00,
2013-07-08 00:57:00,73.0,72.7,29.87,SW,236,0.0,0.0,99,0.00,,CLR,0.00,VWS V14.01,2013-07-08 04:57:00,
2013-07-08 00:58:00,72.7,71.0,29.85,West,275,0.0,0.0,95,0.00,,,0.00,weatherlink.com 1.10,2013-07-08 04:58:00,
2013-07-08 00:59:00,73.0,72.7,29.87,SW,235,0.0,0.0,99,0.00,,CLR,0.00,VWS V14.01,2013-07-08 04:59:00,
2013-07-08 01:00:00,73.1,72.8,29.87,SW,235,0.0,0.0,99,0.00,,CLR,0.00,VWS V14.01,2013-07-08 05:00:00,
2013-07-08 01:01:00,73.1,72.8,29.87,SW,236,0.0,0.0,99,0.00,,CLR,0.00,VWS V14.01,2013-07-08 05:01:00,
2013-07-08 01:02:00,73.2,72.9,29.87,SW,236,0.0,0.0,99,0.00,,CLR,0.00,VWS V14.01,2013-07-08 05:02:00,
2013-07-08 01:03:00,73.3,73.0,29.87,WSW,238,0.0,0.0,99,0.00,,CLR,0.00,VWS V14.01,2013-07-08 05:03:00,
2013-07-08 01:04:00,73.3,73.0,29.87,WSW,238,0.0,0.0,99,0.00,,CLR,0.00,VWS V14.01,2013-07-08 05:04:00,
2013-07-08 01:05:00,73.4,73.1,29.87,WSW,238,0.0,0.0,99,0.00,,CLR,0.00,VWS V14.01,2013-07-08 05:05:00,
2013-07-08 01:06:00,73.5,73.2,29.87,WSW,238,0.0,0.0,99,0.00,,CLR,0.00,VWS V14.01,2013-07-08 05:06:00,
2013-07-08 01:07:00,73.5,73.2,29.87,WSW,238,0.0,0.0,99,0.00,,CLR,0.00,VWS V14.01,2013-07-08 05:07:00,
2013-07-08 01:08:00,73.6,73.3,29.87,WSW,238,0.0,0.0,99,0.00,,CLR,0.00,VWS V14.01,2013-07-08 05:08:00,
2013-07-08 01:09:00,73.7,73.4,29.87,WSW,238,0.0,0.0,99,0.00,,CLR,0.00,VWS V14.01,2013-07-08 05:09:00,
2013-07-08 01:10:00,73.7,73.4,29.87,WSW,238,0.0,0.0,99,0.00,,CLR,0.00,VWS V14.01,2013-07-08 05:10:00,
2013-07-08 01:11:00,73.9,73.6,29.86,WSW,237,0.0,0.0,99,0.00,,CLR,0.00,VWS V14.01,2013-07-08 05:11:00,
2013-07-08 01:12:00,74.0,73.4,29.86,WSW,238,0.0,0.0,98,0.00,,CLR,0.00,VWS V14.01,2013-07-08 05:12:00,
2013-07-08 01:13:00,74.0,73.4,29.86,WSW,238,0.0,0.0,98,0.00,,CLR,0.00,VWS V14.01,2013-07-08 05:13:00,
2013-07-08 01:14:00,72.4,71.0,29.85,West,277,0.0,0.0,96,0.00,,,0.00,weatherlink.com 1.10,2013-07-08 05:14:00,
2013-07-08 01:15:00,74.2,73.6,29.86,WSW,238,0.0,0.0,98,0.00,,CLR,0.00,VWS V14.01,2013-07-08 05:15:00,
2013-07-08 01:16:00,74.4,73.8,29.86,WSW,238,0.0,0.0,98,0.00,,CLR,0.00,VWS V14.01,2013-07-08 05:16:00,
2013-07-08 01:17:00,74.5,73.9,29.86,WSW,237,0.0,0.0,98,0.00,,CLR,0.00,VWS V14.01,2013-07-08 05:17:00,
2013-07-08 01:18:00,74.7,74.1,29.86,WSW,238,0.0,0.0,98,0.00,,CLR,0.00,VWS V14.01,2013-07-08 05:18:00,
2013-07-08 01:19:00,74.8,74.2,29.86,WSW,238,0.0,0.0,98,0.00,,CLR,0.00,VWS V14.01,2013-07-08 05:19:00,
2013-07-08 01:20:00,74.9,74.3,29.86,WSW,237,0.0,0.0,98,0.00,,CLR,0.00,VWS V14.01,2013-07-08 05:20:00,
2013-07-08 01:21:00,75.0,74.4,29.86,WSW,238,0.0,0.0,98,0.00,,CLR,0.00,VWS V14.01,2013-07-08 05:21:00,
2013-07-08 01:22:00,75.2,74.6,29.86,WSW,237,0.0,0.0,98,0.00,,CLR,0.00,VWS V14.01,2013-07-08 05:22:00,
2013-07-08 01:23:00,75.4,74.8,29.87,WSW,237,0.0,0.0,98,0.00,,CLR,0.00,VWS V14.01,2013-07-08 05:23:00,
2013-07-08 01:24:00,75.5,74.9,29.86,WSW,238,0.0,0.0,98,0.00,,CLR,0.00,VWS V14.01,2013-07-08 05:24:00,
2013-07-08 01:25:00,75.6,74.7,29.86,WSW,237,0.0,0.0,97,0.00,,CLR,0.00,VWS V14.01,2013-07-08 05:25:00,
2013-07-08 01:26:00,75.7,74.8,29.86,WSW,238,0.0,0.0,97,0.00,,CLR,0.00,VWS V14.01,2013-07-08 05:26:00,
2013-07-08 01:27:00,75.8,74.9,29.86,WSW,238,0.0,0.0,97,0.00,,CLR,0.00,VWS V14.01,2013-07-08 05:27:00,
2013-07-08 01:28:00,75.9,75.0,29.86,WSW,238,0.0,0.0,97,0.00,,CLR,0.00,VWS V14.01,2013-07-08 05:28:00,
2013-07-08 01:29:00,76.1,74.9,29.86,WSW,238,0.0,0.0,96,0.00,,CLR,0.00,VWS V14.01,2013-07-08 05:29:00,
2013-07-08 01:30:00,76.2,75.0,29.86,SW,236,0.0,0.0,96,0.00,,CLR,0.00,VWS V14.01,2013-07-08 05:30:00,
2013-07-08 01:31:00,72.5,71.0,29.86,West,277,0.0,0.0,96,0.00,,,0.00,weatherlink.com 1.10,2013-07-08 05:31:00,
2013-07-08 01:32:00,76.4,75.2,29.86,SW,236,0.0,0.0,96,0.00,,CLR,0.00,VWS V14.01,2013-07-08 05:32:00,
2013-07-08 01:33:00,76.6,75.4,29.86,SW,236,0.0,0.0,96,0.00,,CLR,0.00,VWS V14.01,2013-07-08 05:33:00,
2013-07-08 01:34:00,76.8,75.6,29.86,SW,236,0.0,0.0,96,0.00,,CLR,0.00,VWS V14.01,2013-07-08 05:34:00,
2013-07-08 01:35:00,76.9,75.4,29.86,SW,236,0.0,0.0,95,0.00,,CLR,0.00,VWS V14.01,2013-07-08 05:35:00,
2013-07-08 01:36:00,76.9,75.4,29.86,SW,236,0.0,0.0,95,0.00,,CLR,0.00,VWS V14.01,2013-07-08 05:36:00,
2013-07-08 01:37:00,77.0,75.1,29.86,SW,236,0.0,0.0,94,0.00,,CLR,0.00,VWS V14.01,2013-07-08 05:37:00,
2013-07-08 01:38:00,77.0,75.1,29.86,SW,236,0.0,0.0,94,0.00,,CLR,0.00,VWS V14.01,2013-07-08 05:38:00,
2013-07-08 01:39:00,77.0,75.1,29.86,SW,236,0.0,0.0,94,0.00,,CLR,0.00,VWS V14.01,2013-07-08 05:39:00,
2013-07-08 01:40:00,77.0,75.1,29.86,WSW,238,0.0,0.0,94,0.00,,CLR,0.00,VWS V14.01,2013-07-08 05:40:00,
2013-07-08 01:41:00,77.1,74.9,29.86,WSW,238,0.0,0.0,93,0.00,,CLR,0.00,VWS V14.01,2013-07-08 05:41:00,
2013-07-08 01:42:00,77.1,74.9,29.86,WSW,238,0.0,0.0,93,0.00,,CLR,0.00,VWS V14.01,2013-07-08 05:42:00,
2013-07-08 01:43:00,77.2,75.0,29.86,WSW,238,0.0,0.0,93,0.00,,CLR,0.00,VWS V14.01,2013-07-08 05:43:00,
2013-07-08 01:44:00,77.3,75.1,29.86,WNW,283,0.0,0.0,93,0.00,,CLR,0.00,VWS V14.01,2013-07-08 05:44:00,
2013-07-08 01:45:00,77.3,74.8,29.86,WNW,283,0.0,0.0,92,0.00,,CLR,0.00,VWS V14.01,2013-07-08 05:45:00,
2013-07-08 01:46:00,77.4,74.9,29.86,WNW,283,0.0,0.0,92,0.00,,CLR,0.00,VWS V14.01,2013-07-08 05:46:00,
2013-07-08 01:47:00,72.5,71.0,29.86,West,277,0.0,0.0,96,0.00,,,0.00,weatherlink.com 1.10,2013-07-08 05:47:00,
2013-07-08 01:48:00,77.5,75.0,29.87,West,275,0.0,0.0,92,0.00,,CLR,0.00,VWS V14.01,2013-07-08 05:48:00,
2013-07-08 01:49:00,77.6,75.1,29.86,West,276,0.0,0.0,92,0.00,,CLR,0.00,VWS V14.01,2013-07-08 05:49:00,
2013-07-08 01:50:00,77.7,75.2,29.87,West,276,0.0,0.0,92,0.00,,CLR,0.00,VWS V14.01,2013-07-08 05:50:00,
2013-07-08 01:51:00,78.0,75.5,29.86,West,277,0.0,0.0,92,0.00,,CLR,0.00,VWS V14.01,2013-07-08 05:51:00,
2013-07-08 01:52:00,78.1,75.6,29.87,West,276,0.0,0.0,92,0.00,,CLR,0.00,VWS V14.01,2013-07-08 05:52:00,
2013-07-08 01:53:00,78.3,75.5,29.87,West,275,0.0,0.0,91,0.00,,CLR,0.00,VWS V14.01,2013-07-08 05:53:00,
2013-07-08 01:54:00,78.4,75.6,29.87,WNW,283,0.0,0.0,91,0.00,,CLR,0.00,VWS V14.01,2013-07-08 05:54:00,
2013-07-08 01:55:00,78.5,75.7,29.87,NW,316,0.0,0.0,91,0.00,,CLR,0.00,VWS V14.01,2013-07-08 05:55:00,
2013-07-08 01:56:00,78.6,75.8,29.87,NNE,13,0.0,0.0,91,0.00,,CLR,0.00,VWS V14.01,2013-07-08 05:56:00,
2013-07-08 01:57:00,78.8,75.6,29.87,West,281,0.0,0.0,90,0.00,,CLR,0.00,VWS V14.01,2013-07-08 05:57:00,
2013-07-08 01:58:00,78.9,75.7,29.87,West,281,0.0,0.0,90,0.00,,CLR,0.00,VWS V14.01,2013-07-08 05:58:00,
2013-07-08 01:59:00,79.0,75.8,29.87,WNW,283,0.0,0.0,90,0.00,,CLR,0.00,VWS V14.01,2013-07-08 05:59:00,
2013-07-08 02:00:00,79.0,75.5,29.87,WSW,247,0.0,0.0,89,0.00,,CLR,0.00,VWS V14.01,2013-07-08 06:00:00,
2013-07-08 02:01:00,79.1,75.6,29.87,WSW,245,0.0,0.0,89,0.00,,CLR,0.00,VWS V14.01,2013-07-08 06:01:00,
2013-07-08 02:02:00,79.1,75.6,29.87,North,360,2.0,3.0,89,0.00,,CLR,0.00,VWS V14.01,2013-07-08 06:02:00,
2013-07-08 02:03:00,72.5,71.0,29.86,West,277,0.0,0.0,96,0.00,,,0.00,weatherlink.com 1.10,2013-07-08 06:03:00,
2013-07-08 02:04:00,79.1,75.6,29.87,North,353,0.0,3.0,89,0.00,,CLR,0.00,VWS V14.01,2013-07-08 06:04:00,
2013-07-08 02:05:00,79.1,75.6,29.87,North,353,0.0,2.0,89,0.00,,CLR,0.00,VWS V14.01,2013-07-08 06:05:00,
2013-07-08 02:06:00,79.1,75.6,29.87,East,91,0.0,1.0,89,0.00,,CLR,0.00,VWS V14.01,2013-07-08 06:06:00,
2013-07-08 02:07:00,79.3,76.1,29.87,East,91,0.0,1.0,90,0.00,,CLR,0.00,VWS V14.01,2013-07-08 06:07:00,
2013-07-08 02:08:00,79.4,76.2,29.87,East,90,0.0,1.0,90,0.00,,CLR,0.00,VWS V14.01,2013-07-08 06:08:00,
2013-07-08 02:09:00,79.5,76.0,29.87,NE,34,0.0,0.0,89,0.00,,CLR,0.00,VWS V14.01,2013-07-08 06:09:00,
2013-07-08 02:10:00,79.6,75.7,29.87,WNW,302,0.0,0.0,88,0.00,,CLR,0.00,VWS V14.01,2013-07-08 06:10:00,
2013-07-08 02:11:00,79.6,75.7,29.88,NNW,338,0.0,0.0,88,0.00,,CLR,0.00,VWS V14.01,2013-07-08 06:11:00,
2013-07-08 02:12:00,79.6,75.7,29.88,NNW,339,0.0,0.0,88,0.00,,CLR,0.00,VWS V14.01,2013-07-08 06:12:00,
2013-07-08 02:13:00,79.6,75.7,29.88,NNW,338,0.0,0.0,88,0.00,,CLR,0.00,VWS V14.01,2013-07-08 06:13:00,
2013-07-08 02:14:00,79.6,75.7,29.88,NNW,340,0.0,0.0,88,0.00,,CLR,0.00,VWS V14.01,2013-07-08 06:14:00,
2013-07-08 02:15:00,79.6,75.7,29.88,SW,235,0.0,2.0,88,0.00,,CLR,0.00,VWS V14.01,2013-07-08 06:15:00,
2013-07-08 02:16:00,79.6,75.7,29.88,SSW,212,0.0,2.0,88,0.00,,CLR,0.00,VWS V14.01,2013-07-08 06:16:00,
2013-07-08 02:17:00,79.6,75.7,29.88,SSW,213,0.0,2.0,88,0.00,,CLR,0.00,VWS V14.01,2013-07-08 06:17:00,
2013-07-08 02:18:00,79.6,75.4,29.88,West,279,0.0,1.0,87,0.00,,CLR,0.00,VWS V14.01,2013-07-08 06:18:00,
2013-07-08 02:19:00,79.5,75.3,29.88,NW,311,0.0,1.0,87,0.00,,CLR,0.00,VWS V14.01,2013-07-08 06:19:00,
2013-07-08 02:20:00,72.3,71.0,29.86,West,277,0.0,0.0,96,0.00,,,0.00,weatherlink.com 1.10,2013-07-08 06:20:00,
2013-07-08 02:21:00,79.5,75.6,29.88,NW,310,0.0,1.0,88,0.00,,CLR,0.00,VWS V14.01,2013-07-08 06:21:00,
2013-07-08 02:22:00,79.5,75.6,29.88,NW,318,0.0,1.0,88,0.00,,CLR,0.00,VWS V14.01,2013-07-08 06:22:00,
2013-07-08 02:23:00,79.5,75.6,29.88,NW,318,0.0,0.0,88,0.00,,CLR,0.00,VWS V14.01,2013-07-08 06:23:00,
2013-07-08 02:24:00,79.6,75.7,29.88,NW,317,0.0,0.0,88,0.00,,CLR,0.00,VWS V14.01,2013-07-08 06:24:00,
2013-07-08 02:25:00,79.7,75.8,29.88,NW,318,0.0,0.0,88,0.00,,CLR,0.00,VWS V14.01,2013-07-08 06:25:00,
2013-07-08 02:26:00,79.9,76.0,29.88,NW,305,1.0,1.0,88,0.00,,CLR,0.00,VWS V14.01,2013-07-08 06:26:00,
2013-07-08 02:27:00,79.9,75.7,29.88,West,273,0.0,2.0,87,0.00,,CLR,0.00,VWS V14.01,2013-07-08 06:27:00,
2013-07-08 02:28:00,80.0,75.8,29.88,West,269,0.0,2.0,87,0.00,,CLR,0.00,VWS V14.01,2013-07-08 06:28:00,
2013-07-08 02:29:00,80.1,76.2,29.88,West,271,0.0,2.0,88,0.00,,CLR,0.00,VWS V14.01,2013-07-08 06:29:00,
2013-07-08 02:30:00,80.1,75.9,29.88,West,271,0.0,2.0,87,0.00,,CLR,0.00,VWS V14.01,2013-07-08 06:30:00,
2013-07-08 02:31:00,80.2,76.0,29.88,West,270,1.0,1.0,87,0.00,,CLR,0.00,VWS V14.01,2013-07-08 06:31:00,
2013-07-08 02:32:00,80.3,76.1,29.88,SW,216,0.0,1.0,87,0.00,,CLR,0.00,VWS V14.01,2013-07-08 06:32:00,
2013-07-08 02:33:00,80.3,76.1,29.88,NE,44,1.0,1.0,87,0.00,,CLR,0.00,VWS V14.01,2013-07-08 06:33:00,
2013-07-08 02:34:00,80.3,75.7,29.88,NW,322,1.0,1.0,86,0.00,,CLR,0.00,VWS V14.01,2013-07-08 06:34:00,
2013-07-08 02:35:00,80.3,75.7,29.88,West,259,0.0,1.0,86,0.00,,CLR,0.00,VWS V14.01,2013-07-08 06:35:00,
2013-07-08 02:36:00,80.2,75.6,29.88,WSW,250,1.0,1.0,86,0.00,,CLR,0.00,VWS V14.01,2013-07-08 06:36:00,
2013-07-08 02:37:00,72.2,71.0,29.86,West,277,0.0,0.0,97,0.00,,,0.00,weatherlink.com 1.10,2013-07-08 06:37:00,
2013-07-08 02:38:00,80.2,76.0,29.88,WSW,252,0.0,1.0,87,0.00,,CLR,0.00,VWS V14.01,2013-07-08 06:38:00,
2013-07-08 02:39:00,80.1,75.5,29.88,NNE,26,1.0,1.0,86,0.00,,CLR,0.00,VWS V14.01,2013-07-08 06:39:00,
2013-07-08 02:40:00,80.0,75.4,29.88,NNW,327,0.0,1.0,86,0.00,,CLR,0.00,VWS V14.01,2013-07-08 06:40:00,
2013-07-08 02:41:00,80.0,75.4,29.88,NNW,327,0.0,1.0,86,0.00,,CLR,0.00,VWS V14.01,2013-07-08 06:41:00,
2013-07-08 02:42:00,80.0,75.8,29.88,NNW,328,0.0,1.0,87,0.00,,CLR,0.00,VWS V14.01,2013-07-08 06:42:00,
2013-07-08 02:43:00,80.1,75.9,29.88,NW,324,0.0,1.0,87,0.00,,CLR,0.00,VWS V14.01,2013-07-08 06:43:00,
2013-07-08 02:44:00,80.2,76.0,29.88,NNW,328,0.0,0.0,87,0.00,,CLR,0.00,VWS V14.01,2013-07-08 06:44:00,
2013-07-08 02:45:00,80.2,76.0,29.88,NNW,328,0.0,1.0,87,0.00,,CLR,0.00,VWS V14.01,2013-07-08 06:45:00,
2013-07-08 02:46:00,80.3,75.7,29.88,NNW,328,0.0,1.0,86,0.00,,CLR,0.00,VWS V14.01,2013-07-08 06:46:00,
2013-07-08 02:47:00,80.5,75.9,29.88,NNW,328,0.0,1.0,86,0.00,,CLR,0.00,VWS V14.01,2013-07-08 06:47:00,
2013-07-08 02:48:00,80.6,76.0,29.88,WSW,238,1.0,1.0,86,0.00,,CLR,0.00,VWS V14.01,2013-07-08 06:48:00,
2013-07-08 02:49:00,80.7,75.8,29.88,West,259,4.0,4.0,85,0.00,,CLR,0.00,VWS V14.01,2013-07-08 06:49:00,
2013-07-08 02:50:00,80.7,75.4,29.88,NW,321,2.0,4.0,84,0.00,,CLR,0.00,VWS V14.01,2013-07-08 06:50:00,
2013-07-08 02:51:00,80.6,75.3,29.88,WNW,300,0.0,4.0,84,0.00,,CLR,0.00,VWS V14.01,2013-07-08 06:51:00,
2013-07-08 02:52:00,80.6,75.7,29.88,NW,304,0.0,4.0,85,0.00,,CLR,0.00,VWS V14.01,2013-07-08 06:52:00,
2013-07-08 02:53:00,72.1,71.0,29.85,West,277,0.0,0.0,97,0.00,,,0.00,weatherlink.com 1.10,2013-07-08 06:53:00,
2013-07-08 02:54:00,80.6,76.0,29.88,SW,222,2.0,2.0,86,0.00,,CLR,0.00,VWS V14.01,2013-07-08 06:54:00,
2013-07-08 02:55:00,80.5,75.2,29.88,NW,314,0.0,2.0,84,0.00,,CLR,0.00,VWS V14.01,2013-07-08 06:55:00,
2013-07-08 02:56:00,80.5,75.2,29.88,NNW,338,2.0,2.0,84,0.00,,CLR,0.00,VWS V14.01,2013-07-08 06:56:00,
2013-07-08 02:57:00,80.4,75.1,29.88,ENE,58,2.0,2.0,84,0.00,,CLR,0.00,VWS V14.01,2013-07-08 06:57:00,
2013-07-08 02:58:00,80.3,75.0,29.88,NE,34,1.0,2.0,84,0.00,,CLR,0.00,VWS V14.01,2013-07-08 06:58:00,
2013-07-08 02:59:00,80.3,75.0,29.88,NNE,30,1.0,2.0,84,0.00,,CLR,0.00,VWS V14.01,2013-07-08 06:59:00,
2013-07-08 03:00:00,80.2,75.3,29.88,NNE,29,0.0,2.0,85,0.00,,CLR,0.00,VWS V14.01,2013-07-08 07:00:00,
2013-07-08 03:01:00,80.2,75.3,29.88,NNE,28,0.0,2.0,85,0.00,,CLR,0.00,VWS V14.01,2013-07-08 07:01:00,
2013-07-08 03:02:00,80.3,75.4,29.88,NNE,30,0.0,2.0,85,0.00,,CLR,0.00,VWS V14.01,2013-07-08 07:02:00,
2013-07-08 03:03:00,80.4,75.5,29.88,NNE,32,0.0,0.0,85,0.00,,CLR,0.00,VWS V14.01,2013-07-08 07:03:00,
2013-07-08 03:04:00,80.5,75.9,29.88,NNE,32,0.0,0.0,86,0.00,,CLR,0.00,VWS V14.01,2013-07-08 07:04:00,
2013-07-08 03:05:00,80.6,75.7,29.88,NNE,32,0.0,1.0,85,0.00,,CLR,0.00,VWS V14.01,2013-07-08 07:05:00,
2013-07-08 03:06:00,80.7,75.8,29.88,WSW,253,2.0,2.0,85,0.00,,CLR,0.00,VWS V14.01,2013-07-08 07:06:00,
2013-07-08 03:07:00,80.7,75.4,29.88,NE,53,2.0,2.0,84,0.00,,CLR,0.00,VWS V14.01,2013-07-08 07:07:00,
2013-07-08 03:08:00,80.7,75.4,29.88,NE,35,2.0,2.0,84,0.00,,CLR,0.00,VWS V14.01,2013-07-08 07:08:00,
2013-07-08 03:09:00,72.1,71.0,29.85,West,277,0.0,0.0,97,0.00,,,0.00,weatherlink.com 1.10,2013-07-08 07:09:00,
2013-07-08 03:10:00,80.8,75.5,29.88,NE,47,0.0,2.0,84,0.00,,CLR,0.00,VWS V14.01,2013-07-08 07:10:00,
2013-07-08 03:11:00,80.8,75.5,29.88,NE,47,0.0,2.0,84,0.00,,CLR,0.00,VWS V14.01,2013-07-08 07:11:00,
2013-07-08 03:12:00,80.9,74.9,29.88,NE,47,0.0,1.0,82,0.00,,CLR,0.00,VWS V14.01,2013-07-08 07:12:00,
2013-07-08 03:13:00,80.9,74.9,29.88,NE,48,0.0,1.0,82,0.00,,CLR,0.00,VWS V14.01,2013-07-08 07:13:00,
2013-07-08 03:14:00,81.0,75.3,29.88,NE,52,3.0,3.0,83,0.00,,CLR,0.00,VWS V14.01,2013-07-08 07:14:00,
2013-07-08 03:15:00,81.1,75.1,29.88,NE,49,1.0,3.0,82,0.00,,CLR,0.00,VWS V14.01,2013-07-08 07:15:00,
2013-07-08 03:16:00,81.1,75.4,29.88,NE,51,0.0,3.0,83,0.00,,CLR,0.00,VWS V14.01,2013-07-08 07:16:00,
2013-07-08 03:17:00,81.2,75.9,29.88,North,11,0.0,3.0,84,0.00,,CLR,0.00,VWS V14.01,2013-07-08 07:17:00,
2013-07-08 03:18:00,81.2,75.2,29.88,NE,35,1.0,2.0,82,0.00,,CLR,0.00,VWS V14.01,2013-07-08 07:18:00,
2013-07-08 03:19:00,81.2,75.2,29.88,NE,45,1.0,2.0,82,0.00,,CLR,0.00,VWS V14.01,2013-07-08 07:19:00,
2013-07-08 03:20:00,81.2,74.8,29.88,East,82,1.0,2.0,81,0.00,,CLR,0.00,VWS V14.01,2013-07-08 07:20:00,
2013-07-08 03:21:00,81.2,75.2,29.88,NE,48,1.0,2.0,82,0.00,,CLR,0.00,VWS V14.01,2013-07-08 07:21:00,
2013-07-08 03:22:00,81.3,75.3,29.88,NE,35,0.0,2.0,82,0.00,,CLR,0.00,VWS V14.01,2013-07-08 07:22:00,
2013-07-08 03:23:00,81.3,74.9,29.88,ENE,66,1.0,2.0,81,0.00,,CLR,0.00,VWS V14.01,2013-07-08 07:23:00,
2013-07-08 03:24:00,81.3,74.9,29.88,NE,48,0.0,2.0,81,0.00,,CLR,0.00,VWS V14.01,2013-07-08 07:24:00,
2013-07-08 03:25:00,72.1,71.0,29.85,West,276,0.0,0.0,97,0.00,,,0.00,weatherlink.com 1.10,2013-07-08 07:25:00,
2013-07-08 03:26:00,81.4,75.4,29.88,NE,48,0.0,2.0,82,0.00,,CLR,0.00,VWS V14.01,2013-07-08 07:26:00,
2013-07-08 03:27:00,81.4,75.7,29.88,ENE,60,2.0,2.0,83,0.00,,CLR,0.00,VWS V14.01,2013-07-08 07:27:00,
2013-07-08 03:28:00,81.4,75.4,29.88,ENE,61,0.0,2.0,82,0.00,,CLR,0.00,VWS V14.01,2013-07-08 07:28:00,
2013-07-08 03:29:00,81.5,75.8,29.88,NE,51,2.0,2.0,83,0.00,,CLR,0.00,VWS V14.01,2013-07-08 07:29:00,
2013-07-08 03:30:00,81.5,75.1,29.88,NNE,32,2.0,3.0,81,0.00,,CLR,0.00,VWS V14.01,2013-07-08 07:30:00,
2013-07-08 03:31:00,81.5,74.7,29.88,NNE,25,6.0,6.0,80,0.00,,CLR,0.00,VWS V14.01,2013-07-08 07:31:00,
2013-07-08 03:32:00,81.5,75.1,29.88,ENE,76,2.0,6.0,81,0.00,,CLR,0.00,VWS V14.01,2013-07-08 07:32:00,
2013-07-08 03:33:00,81.5,75.1,29.88,NNW,330,0.0,6.0,81,0.00,,CLR,0.00,VWS V14.01,2013-07-08 07:33:00,
2013-07-08 03:34:00,81.5,75.1,29.88,NE,42,0.0,6.0,81,0.00,,CLR,0.00,VWS V14.01,2013-07-08 07:34:00,
2013-07-08 03:35:00,81.5,75.1,29.88,WNW,288,1.0,4.0,81,0.00,,CLR,0.00,VWS V14.01,2013-07-08 07:35:00,
2013-07-08 03:36:00,81.5,74.7,29.88,NE,39,2.0,4.0,80,0.00,,CLR,0.00,VWS V14.01,2013-07-08 07:36:00,
2013-07-08 03:37:00,81.3,74.2,29.88,NE,35,2.0,4.0,79,0.00,,CLR,0.00,VWS V14.01,2013-07-08 07:37:00,
2013-07-08 03:38:00,81.2,74.1,29.88,North,5,3.0,4.0,79,0.00,,CLR,0.00,VWS V14.01,2013-07-08 07:38:00,
2013-07-08 03:39:00,81.0,74.2,29.88,ENE,58,2.0,4.0,80,0.00,,CLR,0.00,VWS V14.01,2013-07-08 07:39:00,
2013-07-08 03:40:00,80.9,74.2,29.88,North,8,1.0,4.0,80,0.00,,CLR,0.00,VWS V14.01,2013-07-08 07:40:00,
2013-07-08 03:41:00,80.8,74.4,29.88,NNE,32,1.0,4.0,81,0.00,,CLR,0.00,VWS V14.01,2013-07-08 07:41:00,
2013-07-08 03:42:00,71.9,71.0,29.85,West,276,0.0,0.0,97,0.00,,,0.00,weatherlink.com 1.10,2013-07-08 07:42:00,
2013-07-08 03:43:00,80.7,74.3,29.88,NE,47,2.0,2.0,81,0.00,,CLR,0.00,VWS V14.01,2013-07-08 07:43:00,
2013-07-08 03:44:00,80.7,74.3,29.88,NE,46,1.0,3.0,81,0.00,,CLR,0.00,VWS V14.01,2013-07-08 07:44:00,
2013-07-08 03:45:00,80.7,74.7,29.88,NE,44,1.0,3.0,82,0.00,,CLR,0.00,VWS V14.01,2013-07-08 07:45:00,
2013-07-08 03:46:00,80.7,75.1,29.88,NE,44,0.0,3.0,83,0.00,,CLR,0.00,VWS V14.01,2013-07-08 07:46:00,
2013-07-08 03:47:00,80.7,75.1,29.88,NNE,30,2.0,2.0,83,0.00,,CLR,0.00,VWS V14.01,2013-07-08 07:47:00,
2013-07-08 03:48:00,80.7,74.7,29.88,North,349,1.0,2.0,82,0.00,,CLR,0.00,VWS V14.01,2013-07-08 07:48:00,
2013-07-08 03:49:00,80.7,75.1,29.88,North,359,2.0,2.0,83,0.00,,CLR,0.00,VWS V14.01,2013-07-08 07:49:00,
2013-07-08 03:50:00,80.7,74.7,29.88,NW,307,2.0,2.0,82,0.00,,CLR,0.00,VWS V14.01,2013-07-08 07:50:00,
2013-07-08 03:51:00,80.7,74.7,29.89,NE,43,1.0,2.0,82,0.00,,CLR,0.00,VWS V14.01,2013-07-08 07:51:00,
2013-07-08 03:52:00,80.6,74.6,29.88,NE,41,2.0,2.0,82,0.00,,CLR,0.00,VWS V14.01,2013-07-08 07:52:00,
2013-07-08 03:53:00,80.6,74.2,29.88,NE,36,1.0,2.0,81,0.00,,CLR,0.00,VWS V14.01,2013-07-08 07:53:00,
2013-07-08 03:54:00,80.6,74.6,29.89,NE,39,0.0,2.0,82,0.00,,CLR,0.00,VWS V14.01,2013-07-08 07:54:00,
2013-07-08 03:55:00,80.7,74.7,29.89,NE,36,1.0,2.0,82,0.00,,CLR,0.00,VWS V14.01,2013-07-08 07:55:00,
2013-07-08 03:56:00,80.7,74.7,29.88,South,169,0.0,2.0,82,0.00,,CLR,0.00,VWS V14.01,2013-07-08 07:56:00,
2013-07-08 03:57:00,80.8,74.8,29.88,NE,53,1.0,2.0,82,0.00,,CLR,0.00,VWS V14.01,2013-07-08 07:57:00,
2013-07-08 03:58:00,80.8,74.4,29.89,NNW,345,1.0,2.0,81,0.00,,CLR,0.00,VWS V14.01,2013-07-08 07:58:00,
2013-07-08 03:59:00,71.9,71.0,29.85,West,276,0.0,0.0,98,0.00,,,0.00,weatherlink.com 1.10,2013-07-08 07:59:00,
2013-07-08 04:00:00,80.7,74.7,29.88,NNW,346,0.0,2.0,82,0.00,,CLR,0.00,VWS V14.01,2013-07-08 08:00:00,
2013-07-08 04:01:00,80.7,74.3,29.89,NNW,345,1.0,2.0,81,0.00,,CLR,0.00,VWS V14.01,2013-07-08 08:01:00,
2013-07-08 04:02:00,80.7,74.3,29.89,North,359,1.0,1.0,81,0.00,,CLR,0.00,VWS V14.01,2013-07-08 08:02:00,
2013-07-08 04:03:00,80.7,74.7,29.89,NNE,24,1.0,2.0,82,0.00,,CLR,0.00,VWS V14.01,2013-07-08 08:03:00,
2013-07-08 04:04:00,80.7,75.1,29.89,NNE,23,0.0,2.0,83,0.00,,CLR,0.00,VWS V14.01,2013-07-08 08:04:00,
2013-07-08 04:05:00,80.7,75.1,29.89,NE,37,3.0,3.0,83,0.00,,CLR,0.00,VWS V14.01,2013-07-08 08:05:00,
2013-07-08 04:06:00,80.6,74.6,29.89,NE,37,1.0,3.0,82,0.00,,CLR,0.00,VWS V14.01,2013-07-08 08:06:00,
2013-07-08 04:07:00,80.5,74.5,29.89,NNE,24,1.0,3.0,82,0.00,,CLR,0.00,VWS V14.01,2013-07-08 08:07:00,
2013-07-08 04:08:00,80.5,74.5,29.89,NNE,24,0.0,3.0,82,0.00,,CLR,0.00,VWS V14.01,2013-07-08 08:08:00,
2013-07-08 04:09:00,80.4,74.4,29.89,NNE,23,1.0,1.0,82,0.00,,CLR,0.00,VWS V14.01,2013-07-08 08:09:00,
2013-07-08 04:10:00,80.4,74.0,29.89,NNE,16,1.0,1.0,81,0.00,,CLR,0.00,VWS V14.01,2013-07-08 08:10:00,
2013-07-08 04:11:00,80.3,73.9,29.89,NNE,16,0.0,1.0,81,0.00,,CLR,0.00,VWS V14.01,2013-07-08 08:11:00,
2013-07-08 04:12:00,80.3,74.3,29.89,NNE,15,0.0,1.0,82,0.00,,CLR,0.00,VWS V14.01,2013-07-08 08:12:00,
2013-07-08 04:13:00,80.3,74.7,29.89,NNE,15,0.0,1.0,83,0.00,,CLR,0.00,VWS V14.01,2013-07-08 08:13:00,
2013-07-08 04:14:00,80.4,74.8,29.89,NNE,15,0.0,1.0,83,0.00,,CLR,0.00,VWS V14.01,2013-07-08 08:14:00,
2013-07-08 04:15:00,71.9,71.0,29.85,West,277,0.0,0.0,98,0.00,,,0.00,weatherlink.com 1.10,2013-07-08 08:15:00,
2013-07-08 04:16:00,80.6,75.0,29.89,NNE,16,0.0,0.0,83,0.00,,CLR,0.00,VWS V14.01,2013-07-08 08:16:00,
2013-07-08 04:17:00,80.6,75.0,29.89,NNE,20,1.0,1.0,83,0.00,,CLR,0.00,VWS V14.01,2013-07-08 08:17:00,
2013-07-08 04:18:00,80.7,75.1,29.89,East,87,2.0,2.0,83,0.00,,CLR,0.00,VWS V14.01,2013-07-08 08:18:00,
2013-07-08 04:19:00,80.6,74.6,29.89,North,360,2.0,2.0,82,0.00,,CLR,0.00,VWS V14.01,2013-07-08 08:19:00,
2013-07-08 04:20:00,80.6,74.2,29.89,North,1,1.0,2.0,81,0.00,,CLR,0.00,VWS V14.01,2013-07-08 08:20:00,
2013-07-08 04:21:00,80.7,74.3,29.89,NNE,32,1.0,2.0,81,0.00,,CLR,0.00,VWS V14.01,2013-07-08 08:21:00,
2013-07-08 04:22:00,80.7,74.3,29.89,NNE,12,2.0,5.0,81,0.00,,CLR,0.00,VWS V14.01,2013-07-08 08:22:00,
2013-07-08 04:23:00,80.7,74.0,29.89,NE,37,1.0,5.0,80,0.00,,CLR,0.00,VWS V14.01,2013-07-08 08:23:00,
2013-07-08 04:24:00,80.6,74.2,29.89,North,358,1.0,5.0,81,0.00,,CLR,0.00,VWS V14.01,2013-07-08 08:24:00,
2013-07-08 04:25:00,80.6,74.2,29.89,NE,51,1.0,5.0,81,0.00,,CLR,0.00,VWS V14.01,2013-07-08 08:25:00,
2013-07-08 04:26:00,80.6,73.9,29.89,ENE,61,1.0,4.0,80,0.00,,CLR,0.00,VWS V14.01,2013-07-08 08:26:00,
2013-07-08 04:27:00,80.7,74.3,29.89,ENE,60,0.0,4.0,81,0.00,,CLR,0.00,VWS V14.01,2013-07-08 08:27:00,
2013-07-08 04:28:00,80.7,74.0,29.89,ENE,61,0.0,3.0,80,0.00,,CLR,0.00,VWS V14.01,2013-07-08 08:28:00,
2013-07-08 04:29:00,80.8,74.4,29.89,NNE,25,1.0,3.0,81,0.00,,CLR,0.00,VWS V14.01,2013-07-08 08:29:00,
2013-07-08 04:30:00,80.9,74.5,29.89,NNE,32,1.0,2.0,81,0.00,,CLR,0.00,VWS V14.01,2013-07-08 08:30:00,
2013-07-08 04:31:00,80.9,74.5,29.89,NNE,32,1.0,2.0,81,0.00,,CLR,0.00,VWS V14.01,2013-07-08 08:31:00,
2013-07-08 04:32:00,71.8,71.0,29.85,West,277,0.0,0.0,98,0.00,,,0.00,weatherlink.com 1.10,2013-07-08 08:32:00,
2013-07-08 04:33:00,80.9,73.8,29.89,NNE,25,2.0,2.0,79,0.00,,CLR,0.00,VWS V14.01,2013-07-08 08:33:00,
2013-07-08 04:34:00,80.9,74.2,29.89,NNE,32,1.0,2.0,80,0.00,,CLR,0.00,VWS V14.01,2013-07-08 08:34:00,
2013-07-08 04:35:00,80.9,74.2,29.89,ENE,61,0.0,2.0,80,0.00,,CLR,0.00,VWS V14.01,2013-07-08 08:35:00,
2013-07-08 04:36:00,80.9,74.2,29.89,NE,53,2.0,2.0,80,0.00,,CLR,0.00,VWS V14.01,2013-07-08 08:36:00,
2013-07-08 04:37:00,81.0,73.5,29.89,NNE,27,0.0,2.0,78,0.00,,CLR,0.00,VWS V14.01,2013-07-08 08:37:00,
2013-07-08 04:38:00,81.0,73.9,29.89,NE,47,2.0,2.0,79,0.00,,CLR,0.00,VWS V14.01,2013-07-08 08:38:00,
2013-07-08 04:39:00,81.1,73.6,29.89,NE,37,4.0,4.0,78,0.00,,CLR,0.00,VWS V14.01,2013-07-08 08:39:00,
2013-07-08 04:40:00,81.0,72.7,29.89,NNE,27,2.0,4.0,76,0.00,,CLR,0.00,VWS V14.01,2013-07-08 08:40:00,
2013-07-08 04:41:00,81.0,73.1,29.89,NE,54,2.0,4.0,77,0.00,,CLR,0.00,VWS V14.01,2013-07-08 08:41:00,
2013-07-08 04:42:00,81.0,73.5,29.89,NNE,17,2.0,4.0,78,0.00,,CLR,0.00,VWS V14.01,2013-07-08 08:42:00,
2013-07-08 04:43:00,81.1,73.6,29.89,NE,39,2.0,3.0,78,0.00,,CLR,0.00,VWS V14.01,2013-07-08 08:43:00,
2013-07-08 04:44:00,81.1,72.8,29.89,NE,39,2.0,3.0,76,0.00,,CLR,0.00,VWS V14.01,2013-07-08 08:44:00,
2013-07-08 04:45:00,81.1,72.8,29.89,NE,50,3.0,3.0,76,0.00,,CLR,0.00,VWS V14.01,2013-07-08 08:45:00,
2013-07-08 04:46:00,81.2,73.3,29.89,NNE,15,1.0,3.0,77,0.00,,CLR,0.00,VWS V14.01,2013-07-08 08:46:00,
2013-07-08 04:47:00,81.2,74.1,29.89,NNW,329,3.0,4.0,79,0.00,,CLR,0.00,VWS V14.01,2013-07-08 08:47:00,
2013-07-08 04:48:00,71.9,71.0,29.85,West,276,0.0,0.0,98,0.00,,,0.00,weatherlink.com 1.10,2013-07-08 08:48:00,
2013-07-08 04:49:00,81.3,73.0,29.89,ENE,61,1.0,4.0,76,0.00,,CLR,0.00,VWS V14.01,2013-07-08 08:49:00,
2013-07-08 04:50:00,81.4,73.9,29.89,NNE,32,1.0,4.0,78,0.00,,CLR,0.00,VWS V14.01,2013-07-08 08:50:00,
2013-07-08 04:51:00,81.5,74.0,29.89,NNE,32,1.0,3.0,78,0.00,,CLR,0.00,VWS V14.01,2013-07-08 08:51:00,
2013-07-08 04:52:00,81.5,74.0,29.89,NNW,348,1.0,3.0,78,0.00,,CLR,0.00,VWS V14.01,2013-07-08 08:52:00,
2013-07-08 04:53:00,81.6,73.7,29.89,ENE,68,1.0,3.0,77,0.00,,CLR,0.00,VWS V14.01,2013-07-08 08:53:00,
2013-07-08 04:54:00,81.6,73.7,29.89,NNE,22,1.0,3.0,77,0.00,,CLR,0.00,VWS V14.01,2013-07-08 08:54:00,
2013-07-08 04:55:00,81.7,73.4,29.89,ENE,60,0.0,3.0,76,0.00,,CLR,0.00,VWS V14.01,2013-07-08 08:55:00,
2013-07-08 04:56:00,81.7,73.4,29.89,ENE,63,1.0,3.0,76,0.00,,CLR,0.00,VWS V14.01,2013-07-08 08:56:00,
2013-07-08 04:57:00,81.8,73.5,29.89,East,95,1.0,2.0,76,0.00,,CLR,0.00,VWS V14.01,2013-07-08 08:57:00,
2013-07-08 04:58:00,81.9,74.0,29.89,East,93,1.0,2.0,77,0.00,,CLR,0.00,VWS V14.01,2013-07-08 08:58:00,
2013-07-08 04:59:00,82.0,74.1,29.89,East,91,0.0,2.0,77,0.00,,CLR,0.00,VWS V14.01,2013-07-08 08:59:00,
2013-07-08 05:00:00,82.1,73.4,29.89,NNE,22,2.0,2.0,75,0.00,,CLR,0.00,VWS V14.01,2013-07-08 09:00:00,
2013-07-08 05:01:00,82.2,73.5,29.89,East,94,1.0,2.0,75,0.00,,CLR,0.00,VWS V14.01,2013-07-08 09:01:00,
2013-07-08 05:02:00,82.2,73.1,29.89,ENE,70,0.0,2.0,74,0.00,,CLR,0.00,VWS V14.01,2013-07-08 09:02:00,
2013-07-08 05:03:00,82.2,72.7,29.89,East,79,0.0,2.0,73,0.00,,CLR,0.00,VWS V14.01,2013-07-08 09:03:00,
2013-07-08 05:04:00,71.9,72.0,29.85,SW,236,0.0,0.0,99,0.00,,,0.00,weatherlink.com 1.10,2013-07-08 09:04:00,
2013-07-08 05:05:00,82.3,72.8,29.89,East,95,1.0,1.0,73,0.00,,CLR,0.00,VWS V14.01,2013-07-08 09:05:00,
2013-07-08 05:06:00,82.4,73.3,29.89,East,94,1.0,1.0,74,0.00,,CLR,0.00,VWS V14.01,2013-07-08 09:06:00,
2013-07-08 05:07:00,82.4,72.9,29.89,East,94,1.0,1.0,73,0.00,,CLR,0.00,VWS V14.01,2013-07-08 09:07:00,
2013-07-08 05:08:00,82.4,72.9,29.89,NE,46,0.0,2.0,73,0.00,,CLR,0.00,VWS V14.01,2013-07-08 09:08:00,
2013-07-08 05:09:00,82.4,73.3,29.89,NE,45,0.0,2.0,74,0.00,,CLR,0.00,VWS V14.01,2013-07-08 09:09:00,
2013-07-08 05:10:00,82.5,73.4,29.89,NE,44,0.0,2.0,74,0.00,,CLR,0.00,VWS V14.01,2013-07-08 09:10:00,
2013-07-08 05:11:00,82.5,73.4,29.89,NE,55,1.0,3.0,74,0.00,,CLR,0.00,VWS V14.01,2013-07-08 09:11:00,
2013-07-08 05:12:00,82.5,73.4,29.89,NE,51,1.0,3.0,74,0.00,,CLR,0.00,VWS V14.01,2013-07-08 09:12:00,
2013-07-08 05:13:00,82.5,74.6,29.89,NE,51,0.0,3.0,77,0.00,,CLR,0.00,VWS V14.01,2013-07-08 09:13:00,
2013-07-08 05:14:00,82.5,74.6,29.89,NE,51,1.0,3.0,77,0.00,,CLR,0.00,VWS V14.01,2013-07-08 09:14:00,
2013-07-08 05:15:00,82.6,74.3,29.89,NE,49,1.0,2.0,76,0.00,,CLR,0.00,VWS V14.01,2013-07-08 09:15:00,
2013-07-08 05:16:00,82.6,74.3,29.89,NE,49,0.0,2.0,76,0.00,,CLR,0.00,VWS V14.01,2013-07-08 09:16:00,
2013-07-08 05:17:00,82.7,74.8,29.89,NE,49,1.0,2.0,77,0.00,,CLR,0.00,VWS V14.01,2013-07-08 09:17:00,
2013-07-08 05:18:00,82.8,74.9,29.89,NE,54,0.0,1.0,77,0.00,,CLR,0.00,VWS V14.01,2013-07-08 09:18:00,
2013-07-08 05:19:00,82.9,74.9,29.89,East,82,1.0,1.0,77,0.00,,CLR,0.00,VWS V14.01,2013-07-08 09:19:00,
2013-07-08 05:20:00,72.2,72.0,29.85,SW,236,0.0,0.0,98,0.00,,,0.00,weatherlink.com 1.10,2013-07-08 09:20:00,
2013-07-08 05:21:00,82.9,73.4,29.89,NNE,19,2.0,2.0,73,0.00,,CLR,0.00,VWS V14.01,2013-07-08 09:21:00,
2013-07-08 05:22:00,82.9,73.4,29.89,East,91,1.0,2.0,73,0.00,,CLR,0.00,VWS V14.01,2013-07-08 09:22:00,
2013-07-08 05:23:00,82.9,73.4,29.89,East,90,0.0,2.0,73,0.00,,CLR,0.00,VWS V14.01,2013-07-08 09:23:00,
2013-07-08 05:24:00,83.0,73.9,29.89,North,11,2.0,2.0,74,0.00,,CLR,0.00,VWS V14.01,2013-07-08 09:24:00,
2013-07-08 05:25:00,83.0,72.6,29.89,NNE,29,1.0,3.0,71,0.00,,CLR,0.00,VWS V14.01,2013-07-08 09:25:00,
2013-07-08 05:26:00,83.0,73.5,29.89,WNW,283,2.0,3.0,73,0.00,,CLR,0.00,VWS V14.01,2013-07-08 09:26:00,
2013-07-08 05:27:00,83.0,73.9,29.89,NW,304,0.0,3.0,74,0.00,,CLR,0.00,VWS V14.01,2013-07-08 09:27:00,
2013-07-08 05:28:00,83.1,74.4,29.89,NW,307,0.0,2.0,75,0.00,,CLR,0.00,VWS V14.01,2013-07-08 09:28:00,
2013-07-08 05:29:00,83.1,74.8,29.89,North,355,1.0,2.0,76,0.00,,CLR,0.00,VWS V14.01,2013-07-08 09:29:00,
2013-07-08 05:30:00,83.1,73.6,29.89,NNW,344,1.0,3.0,73,0.00,,CLR,0.00,VWS V14.01,2013-07-08 09:30:00,
2013-07-08 05:31:00,83.2,73.2,29.89,NW,308,0.0,3.0,72,0.00,,CLR,0.00,VWS V14.01,2013-07-08 09:31:00,
2013-07-08 05:32:00,83.3,74.2,29.89,NE,43,2.0,3.0,74,0.00,,CLR,0.00,VWS V14.01,2013-07-08 09:32:00,
2013-07-08 05:33:00,83.3,72.9,29.89,SE,124,1.0,3.0,71,0.00,,CLR,0.00,VWS V14.01,2013-07-08 09:33:00,
2013-07-08 05:34:00,83.4,73.0,29.89,ENE,72,2.0,3.0,71,0.00,,CLR,0.00,VWS V14.01,2013-07-08 09:34:00,
2013-07-08 05:35:00,83.4,73.4,29.89,ENE,59,1.0,3.0,72,0.00,,CLR,0.00,VWS V14.01,2013-07-08 09:35:00,
2013-07-08 05:36:00,83.6,73.6,29.89,NE,39,1.0,3.0,72,0.00,,CLR,0.00,VWS V14.01,2013-07-08 09:36:00,
2013-07-08 05:37:00,72.0,71.0,29.86,SW,236,0.0,0.0,98,0.00,,,0.00,weatherlink.com 1.10,2013-07-08 09:37:00,
2013-07-08 05:38:00,83.8,73.8,29.89,ENE,65,1.0,2.0,72,0.00,,CLR,0.00,VWS V14.01,2013-07-08 09:38:00,
2013-07-08 05:39:00,83.9,73.1,29.89,North,8,2.0,2.0,70,0.00,,CLR,0.00,VWS V14.01,2013-07-08 09:39:00,
2013-07-08 05:40:00,84.0,73.2,29.89,ENE,71,1.0,3.0,70,0.00,,CLR,0.00,VWS V14.01,2013-07-08 09:40:00,
2013-07-08 05:41:00,84.0,73.2,29.89,ENE,63,1.0,3.0,70,0.00,,CLR,0.00,VWS V14.01,2013-07-08 09:41:00,
2013-07-08 05:42:00,84.2,74.2,29.89,ENE,68,1.0,3.0,72,0.00,,CLR,0.00,VWS V14.01,2013-07-08 09:42:00,
2013-07-08 05:43:00,84.4,73.6,29.89,ESE,112,1.0,3.0,70,0.00,,CLR,0.00,VWS V14.01,2013-07-08 09:43:00,
2013-07-08 05:44:00,84.6,73.7,29.89,East,91,1.0,1.0,70,0.00,,CLR,0.00,VWS V14.01,2013-07-08 09:44:00,
2013-07-08 05:45:00,84.7,73.4,29.89,ENE,73,0.0,1.0,69,0.00,,CLR,0.00,VWS V14.01,2013-07-08 09:45:00,
2013-07-08 05:46:00,84.8,73.5,29.89,ENE,72,0.0,1.0,69,0.00,,CLR,0.00,VWS V14.01,2013-07-08 09:46:00,
2013-07-08 05:47:00,84.9,73.2,29.89,ENE,60,0.0,1.0,68,0.00,,CLR,0.00,VWS V14.01,2013-07-08 09:47:00,
2013-07-08 05:48:00,85.0,73.3,29.89,NE,53,0.0,1.0,68,0.00,,CLR,0.00,VWS V14.01,2013-07-08 09:48:00,
2013-07-08 05:49:00,85.0,74.1,29.89,NE,53,0.0,0.0,70,0.00,,CLR,0.00,VWS V14.01,2013-07-08 09:49:00,
2013-07-08 05:50:00,85.0,73.7,29.89,WNW,293,0.0,0.0,69,0.00,,CLR,0.00,VWS V14.01,2013-07-08 09:50:00,
2013-07-08 05:51:00,85.1,74.6,29.89,East,91,1.0,1.0,71,0.00,,CLR,0.00,VWS V14.01,2013-07-08 09:51:00,
2013-07-08 05:52:00,85.3,74.8,29.89,ESE,118,0.0,2.0,71,0.00,,CLR,0.00,VWS V14.01,2013-07-08 09:52:00,
2013-07-08 05:53:00,72.0,71.0,29.86,SW,236,0.0,0.0,98,0.00,,,0.00,weatherlink.com 1.10,2013-07-08 09:53:00,
2013-07-08 05:54:00,85.6,74.7,29.89,ESE,105,2.0,2.0,70,0.00,,CLR,0.00,VWS V14.01,2013-07-08 09:54:00,
2013-07-08 05:55:00,85.8,74.9,29.89,SE,139,4.0,4.0,70,0.00,,CLR,0.00,VWS V14.01,2013-07-08 09:55:00,
2013-07-08 05:56:00,85.9,73.7,29.89,SE,124,0.0,4.0,67,0.00,,CLR,0.00,VWS V14.01,2013-07-08 09:56:00,
2013-07-08 05:57:00,86.1,74.8,29.89,East,100,2.0,4.0,69,0.00,,CLR,0.00,VWS V14.01,2013-07-08 09:57:00,
2013-07-08 05:58:00,86.2,74.0,29.89,NE,51,0.0,4.0,67,0.00,,CLR,0.00,VWS V14.01,2013-07-08 09:58:00,
2013-07-08 05:59:00,86.3,74.5,29.89,East,84,1.0,2.0,68,0.00,,CLR,0.00,VWS V14.01,2013-07-08 09:59:00,
2013-07-08 06:00:00,86.3,73.6,29.89,ENE,68,1.0,2.0,66,0.00,,CLR,0.00,VWS V14.01,2013-07-08 10:00:00,
2013-07-08 06:01:00,86.3,73.2,29.89,ESE,117,2.0,2.0,65,0.00,,CLR,0.00,VWS V14.01,2013-07-08 10:01:00,
2013-07-08 06:02:00,86.3,73.2,29.89,SE,134,5.0,5.0,65,0.00,,CLR,0.00,VWS V14.01,2013-07-08 10:02:00,
2013-07-08 06:03:00,86.3,72.7,29.89,SE,141,2.0,5.0,64,0.00,,CLR,0.00,VWS V14.01,2013-07-08 10:03:00,
2013-07-08 06:04:00,86.3,73.2,29.89,SE,131,0.0,5.0,65,0.00,,CLR,0.00,VWS V14.01,2013-07-08 10:04:00,
2013-07-08 06:05:00,86.3,73.2,29.89,SE,129,0.0,5.0,65,0.00,,CLR,0.00,VWS V14.01,2013-07-08 10:05:00,
2013-07-08 06:06:00,86.3,73.6,29.89,North,10,2.0,2.0,66,0.00,,CLR,0.00,VWS V14.01,2013-07-08 10:06:00,
2013-07-08 06:07:00,86.3,73.6,29.89,NE,46,1.0,2.0,66,0.00,,CLR,0.00,VWS V14.01,2013-07-08 10:07:00,
2013-07-08 06:08:00,86.3,73.2,29.89,ENE,58,0.0,2.0,65,0.00,,CLR,0.00,VWS V14.01,2013-07-08 10:08:00,
2013-07-08 06:09:00,86.3,72.7,29.89,SSW,197,1.0,2.0,64,0.00,,CLR,0.00,VWS V14.01,2013-07-08 10:09:00,
2013-07-08 06:10:00,72.2,72.0,29.87,SW,235,0.0,0.0,98,0.00,,,0.00,weatherlink.com 1.10,2013-07-08 10:10:00,
2013-07-08 06:11:00,86.3,73.6,29.89,SE,141,2.0,4.0,66,0.00,,CLR,0.00,VWS V14.01,2013-07-08 10:11:00,
2013-07-08 06:12:00,86.3,73.2,29.89,SE,125,3.0,4.0,65,0.00,,CLR,0.00,VWS V14.01,2013-07-08 10:12:00,
2013-07-08 06:13:00,86.3,74.1,29.89,ESE,106,1.0,4.0,67,0.00,,CLR,0.00,VWS V14.01,2013-07-08 10:13:00,
2013-07-08 06:14:00,86.4,73.7,29.89,ESE,113,1.0,3.0,66,0.00,,CLR,0.00,VWS V14.01,2013-07-08 10:14:00,
2013-07-08 06:15:00,86.4,73.2,29.89,ESE,105,2.0,3.0,65,0.00,,CLR,0.00,VWS V14.01,2013-07-08 10:15:00,
2013-07-08 06:16:00,86.4,72.8,29.89,ENE,72,1.0,2.0,64,0.00,,CLR,0.00,VWS V14.01,2013-07-08 10:16:00,
2013-07-08 06:17:00,86.3,72.2,29.89,ENE,72,1.0,2.0,63,0.00,,CLR,0.00,VWS V14.01,2013-07-08 10:17:00,
2013-07-08 06:18:00,86.3,73.6,29.89,East,81,2.0,2.0,66,0.00,,CLR,0.00,VWS V14.01,2013-07-08 10:18:00,
2013-07-08 06:19:00,86.3,72.2,29.89,East,98,0.0,2.0,63,0.00,,CLR,0.00,VWS V14.01,2013-07-08 10:19:00,
2013-07-08 06:20:00,86.3,72.2,29.89,East,98,0.0,2.0,63,0.00,,CLR,0.00,VWS V14.01,2013-07-08 10:20:00,
2013-07-08 06:21:00,86.5,72.4,29.89,ESE,117,1.0,2.0,63,0.00,,CLR,0.00,VWS V14.01,2013-07-08 10:21:00,
2013-07-08 06:22:00,86.7,72.6,29.89,ESE,121,0.0,2.0,63,0.00,,CLR,0.00,VWS V14.01,2013-07-08 10:22:00,
2013-07-08 06:23:00,86.9,73.7,29.89,SE,132,0.0,2.0,65,0.00,,CLR,0.00,VWS V14.01,2013-07-08 10:23:00,
2013-07-08 06:24:00,87.1,73.4,29.89,SSE,150,0.0,2.0,64,0.00,,CLR,0.00,VWS V14.01,2013-07-08 10:24:00,
2013-07-08 06:25:00,87.3,73.2,29.89,SSE,147,3.0,3.0,63,0.00,,CLR,0.00,VWS V14.01,2013-07-08 10:25:00,
2013-07-08 06:26:00,87.4,74.2,29.89,SE,125,9.0,9.0,65,0.00,,CLR,0.00,VWS V14.01,2013-07-08 10:26:00,
2013-07-08 06:27:00,72.7,72.0,29.87,SW,236,0.0,0.0,99,0.00,,,0.00,weatherlink.com 1.10,2013-07-08 10:27:00,
2013-07-08 06:28:00,86.7,74.9,29.89,SW,222,3.0,10.0,68,0.00,,CLR,0.00,VWS V14.01,2013-07-08 10:28:00,
2013-07-08 06:29:00,86.3,75.8,29.89,SSE,151,3.0,10.0,71,0.00,,CLR,0.00,VWS V14.01,2013-07-08 10:29:00,
2013-07-08 06:30:00,86.0,76.3,29.89,ESE,113,1.0,8.0,73,0.00,,CLR,0.00,VWS V14.01,2013-07-08 10:30:00,
2013-07-08 06:31:00,85.8,75.7,29.89,NE,39,2.0,8.0,72,0.00,,CLR,0.00,VWS V14.01,2013-07-08 10:31:00,
2013-07-08 06:32:00,85.7,75.6,29.90,East,94,2.0,8.0,72,0.00,,CLR,0.00,VWS V14.01,2013-07-08 10:32:00,
2013-07-08 06:33:00,85.7,76.1,29.90,NE,56,2.0,4.0,73,0.00,,CLR,0.00,VWS V14.01,2013-07-08 10:33:00,
2013-07-08 06:34:00,85.5,75.9,29.90,ENE,69,2.0,4.0,73,0.00,,CLR,0.00,VWS V14.01,2013-07-08 10:34:00,
2013-07-08 06:35:00,85.3,75.7,29.90,NNE,19,2.0,4.0,73,0.00,,CLR,0.00,VWS V14.01,2013-07-08 10:35:00,
2013-07-08 06:36:00,85.0,75.0,29.89,ESE,111,2.0,6.0,72,0.00,,CLR,0.00,VWS V14.01,2013-07-08 10:36:00,
2013-07-08 06:37:00,84.8,75.2,29.90,North,1,2.0,6.0,73,0.00,,CLR,0.00,VWS V14.01,2013-07-08 10:37:00,
2013-07-08 06:38:00,84.6,75.0,29.89,East,94,1.0,6.0,73,0.00,,CLR,0.00,VWS V14.01,2013-07-08 10:38:00,
2013-07-08 06:39:00,84.6,75.4,29.90,East,84,1.0,6.0,74,0.00,,CLR,0.00,VWS V14.01,2013-07-08 10:39:00,
2013-07-08 06:40:00,84.5,75.3,29.90,ESE,121,5.0,9.0,74,0.00,,CLR,0.00,VWS V14.01,2013-07-08 10:40:00,
2013-07-08 06:41:00,84.5,75.3,29.90,SE,128,3.0,9.0,74,0.00,,CLR,0.00,VWS V14.01,2013-07-08 10:41:00,
2013-07-08 06:42:00,84.6,75.8,29.89,ESE,111,1.0,9.0,75,0.00,,CLR,0.00,VWS V14.01,2013-07-08 10:42:00,
2013-07-08 06:43:00,73.5,73.0,29.87,WSW,238,0.0,0.0,99,0.00,,,0.00,weatherlink.com 1.10,2013-07-08 10:43:00,
2013-07-08 06:44:00,84.8,76.0,29.89,NE,49,3.0,5.0,75,0.00,,CLR,0.00,VWS V14.01,2013-07-08 10:44:00,
2013-07-08 06:45:00,84.9,76.1,29.89,East,98,2.0,5.0,75,0.00,,CLR,0.00,VWS V14.01,2013-07-08 10:45:00,
2013-07-08 06:46:00,85.0,76.2,29.90,NNE,25,1.0,5.0,75,0.00,,CLR,0.00,VWS V14.01,2013-07-08 10:46:00,
2013-07-08 06:47:00,85.0,75.8,29.90,NE,46,2.0,3.0,74,0.00,,CLR,0.00,VWS V14.01,2013-07-08 10:47:00,
2013-07-08 06:48:00,84.8,75.2,29.90,SE,125,7.0,10.0,73,0.00,,CLR,0.00,VWS V14.01,2013-07-08 10:48:00,
2013-07-08 06:49:00,84.6,75.0,29.90,SE,132,6.0,10.0,73,0.00,,CLR,0.00,VWS V14.01,2013-07-08 10:49:00,
2013-07-08 06:50:00,84.2,75.0,29.90,SSE,153,1.0,10.0,74,0.00,,CLR,0.00,VWS V14.01,2013-07-08 10:50:00,
2013-07-08 06:51:00,84.1,75.3,29.90,ESE,121,3.0,10.0,75,0.00,,CLR,0.00,VWS V14.01,2013-07-08 10:51:00,
2013-07-08 06:52:00,83.9,75.1,29.90,SE,143,4.0,7.0,75,0.00,,CLR,0.00,VWS V14.01,2013-07-08 10:52:00,
2013-07-08 06:53:00,83.8,75.0,29.90,ESE,120,4.0,7.0,75,0.00,,CLR,0.00,VWS V14.01,2013-07-08 10:53:00,
2013-07-08 06:54:00,83.5,74.8,29.90,ESE,106,2.0,7.0,75,0.00,,CLR,0.00,VWS V14.01,2013-07-08 10:54:00,
2013-07-08 06:55:00,83.4,75.1,29.90,SSE,148,3.0,7.0,76,0.00,,CLR,0.00,VWS V14.01,2013-07-08 10:55:00,
2013-07-08 06:56:00,83.2,74.5,29.90,ESE,114,2.0,7.0,75,0.00,,CLR,0.00,VWS V14.01,2013-07-08 10:56:00,
2013-07-08 06:57:00,83.2,74.8,29.90,East,79,1.0,4.0,76,0.00,,CLR,0.00,VWS V14.01,2013-07-08 10:57:00,
2013-07-08 06:58:00,83.1,74.8,29.90,NW,316,1.0,4.0,76,0.00,,CLR,0.00,VWS V14.01,2013-07-08 10:58:00,
2013-07-08 06:59:00,75.4,75.0,29.86,WSW,238,0.0,0.0,98,0.00,,,0.00,weatherlink.com 1.10,2013-07-08 10:59:00,
2013-07-08 07:00:00,83.1,74.8,29.90,SSE,151,3.0,6.0,76,0.00,,CLR,0.00,VWS V14.01,2013-07-08 11:00:00,
2013-07-08 07:01:00,83.1,75.2,29.90,SE,129,0.0,6.0,77,0.00,,CLR,0.00,VWS V14.01,2013-07-08 11:01:00,
2013-07-08 07:02:00,83.2,75.2,29.90,SSE,158,0.0,6.0,77,0.00,,CLR,0.00,VWS V14.01,2013-07-08 11:02:00,
2013-07-08 07:03:00,83.3,75.3,29.90,NE,39,2.0,4.0,77,0.00,,CLR,0.00,VWS V14.01,2013-07-08 11:03:00,
2013-07-08 07:04:00,83.4,75.1,29.90,East,100,0.0,2.0,76,0.00,,CLR,0.00,VWS V14.01,2013-07-08 11:04:00,
2013-07-08 07:05:00,83.6,76.0,29.90,ENE,77,1.0,2.0,78,0.00,,CLR,0.00,VWS V14.01,2013-07-08 11:05:00,
2013-07-08 07:06:00,83.9,75.9,29.90,East,101,4.0,4.0,77,0.00,,CLR,0.00,VWS V14.01,2013-07-08 11:06:00,
2013-07-08 07:07:00,84.0,75.2,29.90,ENE,77,3.0,5.0,75,0.00,,CLR,0.00,VWS V14.01,2013-07-08 11:07:00,
2013-07-08 07:08:00,84.1,75.7,29.90,ESE,117,1.0,5.0,76,0.00,,CLR,0.00,VWS V14.01,2013-07-08 11:08:00,
2013-07-08 07:09:00,84.3,75.9,29.90,ESE,103,0.0,5.0,76,0.00,,CLR,0.00,VWS V14.01,2013-07-08 11:09:00,
2013-07-08 07:10:00,84.6,76.2,29.90,East,81,0.0,5.0,76,0.00,,CLR,0.00,VWS V14.01,2013-07-08 11:10:00,
2013-07-08 07:11:00,84.7,75.5,29.90,NNE,28,3.0,6.0,74,0.00,,CLR,0.00,VWS V14.01,2013-07-08 11:11:00,
2013-07-08 07:12:00,84.7,75.5,29.90,ESE,113,2.0,6.0,74,0.00,,CLR,0.00,VWS V14.01,2013-07-08 11:12:00,
2013-07-08 07:13:00,84.8,75.6,29.90,NNE,23,3.0,6.0,74,0.00,,CLR,0.00,VWS V14.01,2013-07-08 11:13:00,
2013-07-08 07:14:00,84.7,75.1,29.90,East,86,3.0,6.0,73,0.00,,CLR,0.00,VWS V14.01,2013-07-08 11:14:00,
2013-07-08 07:15:00,77.0,75.0,29.86,WSW,238,0.0,0.0,94,0.00,,,0.00,weatherlink.com 1.10,2013-07-08 11:15:00,
2013-07-08 07:16:00,84.7,75.5,29.90,SSE,149,2.0,3.0,74,0.00,,CLR,0.00,VWS V14.01,2013-07-08 11:16:00,
2013-07-08 07:17:00,84.8,75.2,29.90,NNW,346,2.0,4.0,73,0.00,,CLR,0.00,VWS V14.01,2013-07-08 11:17:00,
2013-07-08 07:18:00,84.8,75.2,29.90,ENE,68,1.0,5.0,73,0.00,,CLR,0.00,VWS V14.01,2013-07-08 11:18:00,
2013-07-08 07:19:00,84.8,75.2,29.90,East,93,3.0,5.0,73,0.00,,CLR,0.00,VWS V14.01,2013-07-08 11:19:00,
2013-07-08 07:20:00,84.8,75.2,29.90,East,96,3.0,5.0,73,0.00,,CLR,0.00,VWS V14.01,2013-07-08 11:20:00,
2013-07-08 07:21:00,84.8,74.8,29.90,ESE,116,1.0,5.0,72,0.00,,CLR,0.00,VWS V14.01,2013-07-08 11:21:00,
2013-07-08 07:22:00,84.8,75.6,29.90,NE,39,2.0,4.0,74,0.00,,CLR,0.00,VWS V14.01,2013-07-08 11:22:00,
2013-07-08 07:23:00,84.8,75.2,29.90,SE,124,3.0,4.0,73,0.00,,CLR,0.00,VWS V14.01,2013-07-08 11:23:00,
2013-07-08 07:24:00,84.7,75.1,29.90,NE,37,6.0,6.0,73,0.00,,CLR,0.00,VWS V14.01,2013-07-08 11:24:00,
2013-07-08 07:25:00,84.5,74.5,29.90,ENE,68,2.0,6.0,72,0.00,,CLR,0.00,VWS V14.01,2013-07-08 11:25:00,
2013-07-08 07:26:00,84.2,74.6,29.90,NE,46,6.0,6.0,73,0.00,,CLR,0.00,VWS V14.01,2013-07-08 11:26:00,
2013-07-08 07:27:00,83.7,74.5,29.90,North,11,6.0,9.0,74,0.00,,CLR,0.00,VWS V14.01,2013-07-08 11:27:00,
2013-07-08 07:28:00,83.4,74.7,29.90,NE,37,2.0,9.0,75,0.00,,CLR,0.00,VWS V14.01,2013-07-08 11:28:00,
2013-07-08 07:29:00,83.0,74.3,29.90,NNE,19,7.0,11.0,75,0.00,,CLR,0.00,VWS V14.01,2013-07-08 11:29:00,
2013-07-08 07:30:00,82.8,74.5,29.90,NNW,348,4.0,11.0,76,0.00,,CLR,0.00,VWS V14.01,2013-07-08 11:30:00,
2013-07-08 07:31:00,82.5,74.2,29.90,ESE,105,1.0,11.0,76,0.00,,CLR,0.00,VWS V14.01,2013-07-08 11:31:00,
2013-07-08 07:32:00,82.3,74.4,29.90,ESE,103,1.0,11.0,77,0.00,,CLR,0.00,VWS V14.01,2013-07-08 11:32:00,
2013-07-08 07:33:00,78.8,76.0,29.87,West,281,0.0,0.0,90,0.00,,,0.00,weatherlink.com 1.10,2013-07-08 11:33:00,
2013-07-08 07:34:00,82.2,74.7,29.90,East,84,1.0,8.0,78,0.00,,CLR,0.00,VWS V14.01,2013-07-08 11:34:00,
2013-07-08 07:35:00,82.3,74.8,29.90,ESE,113,4.0,8.0,78,0.00,,CLR,0.00,VWS V14.01,2013-07-08 11:35:00,
2013-07-08 07:36:00,82.3,75.1,29.90,North,11,2.0,4.0,79,0.00,,CLR,0.00,VWS V14.01,2013-07-08 11:36:00,
2013-07-08 07:37:00,82.3,74.8,29.90,East,82,2.0,4.0,78,0.00,,CLR,0.00,VWS V14.01,2013-07-08 11:37:00,
2013-07-08 07:38:00,82.3,74.8,29.90,ENE,61,3.0,4.0,78,0.00,,CLR,0.00,VWS V14.01,2013-07-08 11:38:00,
2013-07-08 07:39:00,82.2,74.3,29.90,ESE,106,2.0,3.0,77,0.00,,CLR,0.00,VWS V14.01,2013-07-08 11:39:00,
2013-07-08 07:40:00,82.1,74.2,29.90,South,184,0.0,3.0,77,0.00,,CLR,0.00,VWS V14.01,2013-07-08 11:40:00,
2013-07-08 07:41:00,82.2,75.0,29.90,ENE,65,3.0,6.0,79,0.00,,CLR,0.00,VWS V14.01,2013-07-08 11:41:00,
2013-07-08 07:42:00,82.1,74.6,29.90,NE,36,4.0,6.0,78,0.00,,CLR,0.00,VWS V14.01,2013-07-08 11:42:00,
2013-07-08 07:43:00,82.0,74.1,29.90,SE,127,2.0,6.0,77,0.00,,CLR,0.00,VWS V14.01,2013-07-08 11:43:00,
2013-07-08 07:44:00,81.7,73.8,29.90,North,6,5.0,15.0,77,0.00,,CLR,0.00,VWS V14.01,2013-07-08 11:44:00,
2013-07-08 07:45:00,81.4,73.5,29.90,SE,142,4.0,15.0,77,0.00,,CLR,0.00,VWS V14.01,2013-07-08 11:45:00,
2013-07-08 07:46:00,81.3,73.8,29.90,ENE,61,2.0,15.0,78,0.00,,CLR,0.00,VWS V14.01,2013-07-08 11:46:00,
2013-07-08 07:47:00,81.2,73.3,29.90,NNE,12,4.0,15.0,77,0.00,,CLR,0.00,VWS V14.01,2013-07-08 11:47:00,
2013-07-08 07:48:00,79.6,76.0,29.88,NNW,338,0.0,1.0,88,0.00,,,0.00,weatherlink.com 1.10,2013-07-08 11:48:00,
2013-07-08 07:49:00,81.1,73.2,29.90,East,91,3.0,5.0,77,0.00,,CLR,0.00,VWS V14.01,2013-07-08 11:49:00,
2013-07-08 07:50:00,81.1,73.6,29.90,SE,124,2.0,5.0,78,0.00,,CLR,0.00,VWS V14.01,2013-07-08 11:50:00,
2013-07-08 07:51:00,81.1,73.6,29.90,NNE,29,3.0,5.0,78,0.00,,CLR,0.00,VWS V14.01,2013-07-08 11:51:00,
2013-07-08 07:52:00,81.2,73.7,29.90,NE,48,1.0,5.0,78,0.00,,CLR,0.00,VWS V14.01,2013-07-08 11:52:00,
2013-07-08 07:53:00,81.4,74.3,29.90,NE,43,2.0,6.0,79,0.00,,CLR,0.00,VWS V14.01,2013-07-08 11:53:00,
2013-07-08 07:54:00,81.4,73.5,29.90,ESE,114,2.0,6.0,77,0.00,,CLR,0.00,VWS V14.01,2013-07-08 11:54:00,
2013-07-08 07:55:00,81.6,74.1,29.90,NE,37,2.0,6.0,78,0.00,,CLR,0.00,VWS V14.01,2013-07-08 11:55:00,
2013-07-08 07:56:00,81.7,74.2,29.90,North,349,7.0,7.0,78,0.00,,CLR,0.00,VWS V14.01,2013-07-08 11:56:00,
2013-07-08 07:57:00,81.9,74.0,29.90,ENE,58,2.0,7.0,77,0.00,,CLR,0.00,VWS V14.01,2013-07-08 11:57:00,
2013-07-08 07:58:00,81.9,74.0,29.90,East,80,1.0,7.0,77,0.00,,CLR,0.00,VWS V14.01,2013-07-08 11:58:00,
2013-07-08 07:59:00,82.0,74.1,29.90,NE,36,4.0,7.0,77,0.00,,CLR,0.00,VWS V14.01,2013-07-08 11:59:00,
2013-07-08 08:00:00,82.1,74.6,29.90,South,174,2.0,7.0,78,0.00,,CLR,0.00,VWS V14.01,2013-07-08 12:00:00,
2013-07-08 08:01:00,82.2,74.7,29.90,NNE,31,3.0,5.0,78,0.00,,CLR,0.00,VWS V14.01,2013-07-08 12:01:00,
2013-07-08 08:02:00,82.2,74.7,29.90,NNE,32,5.0,7.0,78,0.00,,CLR,0.00,VWS V14.01,2013-07-08 12:02:00,
2013-07-08 08:03:00,82.1,73.8,29.90,NNE,30,3.0,7.0,76,0.00,,CLR,0.00,VWS V14.01,2013-07-08 12:03:00,
2013-07-08 08:04:00,82.1,74.2,29.90,East,97,2.0,7.0,77,0.00,,CLR,0.00,VWS V14.01,2013-07-08 12:04:00,
2013-07-08 08:05:00,80.1,76.0,29.88,West,271,0.0,2.0,88,0.00,,,0.00,weatherlink.com 1.10,2013-07-08 12:05:00,
2013-07-08 08:06:00,82.1,73.8,29.90,NNE,23,2.0,4.0,76,0.00,,CLR,0.00,VWS V14.01,2013-07-08 12:06:00,
2013-07-08 08:07:00,82.0,73.7,29.90,NE,39,2.0,4.0,76,0.00,,CLR,0.00,VWS V14.01,2013-07-08 12:07:00,
2013-07-08 08:08:00,81.9,73.6,29.90,NE,37,6.0,8.0,76,0.00,,CLR,0.00,VWS V14.01,2013-07-08 12:08:00,
2013-07-08 08:09:00,81.6,73.7,29.90,ENE,68,2.0,8.0,77,0.00,,CLR,0.00,VWS V14.01,2013-07-08 12:09:00,
2013-07-08 08:10:00,81.3,73.4,29.90,NE,56,3.0,8.0,77,0.00,,CLR,0.00,VWS V14.01,2013-07-08 12:10:00,
2013-07-08 08:11:00,81.1,73.6,29.90,ENE,66,2.0,8.0,78,0.00,,CLR,0.00,VWS V14.01,2013-07-08 12:11:00,
2013-07-08 08:12:00,81.0,73.5,29.90,North,6,3.0,8.0,78,0.00,,CLR,0.00,VWS V14.01,2013-07-08 12:12:00,
2013-07-08 08:13:00,80.8,74.1,29.90,East,98,1.0,6.0,80,0.00,,CLR,0.00,VWS V14.01,2013-07-08 12:13:00,
2013-07-08 08:14:00,80.6,73.9,29.90,ENE,69,2.0,4.0,80,0.00,,CLR,0.00,VWS V14.01,2013-07-08 12:14:00,
2013-07-08 08:15:00,80.5,73.8,29.90,East,79,2.0,3.0,80,0.00,,CLR,0.00,VWS V14.01,2013-07-08 12:15:00,
2013-07-08 08:16:00,80.2,74.2,29.90,NNE,31,5.0,6.0,82,0.01,,CLR,0.01,VWS V14.01,2013-07-08 12:16:00,
2013-07-08 08:17:00,79.9,73.6,29.90,NNE,25,8.0,8.0,81,0.02,,CLR,0.02,VWS V14.01,2013-07-08 12:17:00,
2013-07-08 08:18:00,79.5,73.5,29.90,NNE,12,8.0,10.0,82,0.03,,CLR,0.03,VWS V14.01,2013-07-08 12:18:00,
2013-07-08 08:19:00,79.1,73.5,29.89,ENE,66,5.0,10.0,83,0.04,,CLR,0.04,VWS V14.01,2013-07-08 12:19:00,
2013-07-08 08:20:00,78.5,73.6,29.89,NE,53,5.0,10.0,85,0.08,,CLR,0.08,VWS V14.01,2013-07-08 12:20:00,
2013-07-08 08:21:00,80.3,76.0,29.88,NNW,327,0.0,1.0,86,0.00,,,0.00,weatherlink.com 1.10,2013-07-08 12:21:00,
2013-07-08 08:22:00,77.8,73.6,29.89,South,176,2.0,8.0,87,0.12,,CLR,0.12,VWS V14.01,2013-07-08 12:22:00,
2013-07-08 08:23:00,77.5,73.7,29.90,NW,319,1.0,5.0,88,0.12,,CLR,0.12,VWS V14.01,2013-07-08 12:23:00,
2013-07-08 08:24:00,77.3,73.5,29.90,ENE,75,2.0,5.0,88,0.12,,CLR,0.12,VWS V14.01,2013-07-08 12:24:00,
2013-07-08 08:25:00,77.0,73.5,29.90,SE,128,0.0,4.0,89,0.12,,CLR,0.12,VWS V14.01,2013-07-08 12:25:00,
2013-07-08 08:26:00,76.8,73.7,29.90,East,101,3.0,4.0,90,0.13,,CLR,0.13,VWS V14.01,2013-07-08 12:26:00,
2013-07-08 08:27:00,76.7,73.6,29.90,NE,46,1.0,4.0,90,0.13,,CLR,0.13,VWS V14.01,2013-07-08 12:27:00,
2013-07-08 08:28:00,76.6,73.8,29.90,ENE,68,5.0,5.0,91,0.13,,CLR,0.13,VWS V14.01,2013-07-08 12:28:00,
2013-07-08 08:29:00,76.4,73.2,29.90,SE,138,2.0,5.0,90,0.13,,CLR,0.13,VWS V14.01,2013-07-08 12:29:00,
2013-07-08 08:30:00,76.4,73.6,29.90,ESE,117,2.0,5.0,91,0.14,,CLR,0.14,VWS V14.01,2013-07-08 12:30:00,
2013-07-08 08:31:00,76.2,73.4,29.90,NNW,330,1.0,5.0,91,0.14,,CLR,0.14,VWS V14.01,2013-07-08 12:31:00,
2013-07-08 08:32:00,76.2,73.7,29.90,NW,314,1.0,5.0,92,0.14,,CLR,0.14,VWS V14.01,2013-07-08 12:32:00,
2013-07-08 08:33:00,76.2,73.7,29.90,NW,316,0.0,3.0,92,0.14,,CLR,0.14,VWS V14.01,2013-07-08 12:33:00,
2013-07-08 08:34:00,76.2,73.7,29.91,NW,316,0.0,3.0,92,0.14,,CLR,0.14,VWS V14.01,2013-07-08 12:34:00,
2013-07-08 08:35:00,76.2,74.0,29.91,ENE,60,1.0,2.0,93,0.14,,CLR,0.14,VWS V14.01,2013-07-08 12:35:00,
2013-07-08 08:36:00,76.2,74.0,29.90,NNE,14,1.0,2.0,93,0.14,,CLR,0.14,VWS V14.01,2013-07-08 12:36:00,
2013-07-08 08:37:00,76.2,74.0,29.90,NNE,23,3.0,3.0,93,0.14,,CLR,0.14,VWS V14.01,2013-07-08 12:37:00,
2013-07-08 08:38:00,76.2,74.0,29.90,NE,40,2.0,3.0,93,0.14,,CLR,0.14,VWS V14.01,2013-07-08 12:38:00,
2013-07-08 08:39:00,80.4,76.0,29.88,NNE,32,0.0,2.0,85,0.00,,,0.00,weatherlink.com 1.10,2013-07-08 12:39:00,
2013-07-08 08:40:00,76.5,74.7,29.90,North,5,2.0,3.0,94,0.14,,CLR,0.14,VWS V14.01,2013-07-08 12:40:00,
2013-07-08 08:41:00,76.5,74.7,29.90,NE,46,3.0,4.0,94,0.14,,CLR,0.14,VWS V14.01,2013-07-08 12:41:00,
2013-07-08 08:42:00,76.5,74.3,29.90,East,86,6.0,6.0,93,0.14,,CLR,0.14,VWS V14.01,2013-07-08 12:42:00,
2013-07-08 08:43:00,76.6,74.8,29.90,ENE,70,1.0,6.0,94,0.14,,CLR,0.14,VWS V14.01,2013-07-08 12:43:00,
2013-07-08 08:44:00,76.7,74.5,29.90,SE,127,3.0,6.0,93,0.14,,CLR,0.14,VWS V14.01,2013-07-08 12:44:00,
2013-07-08 08:45:00,76.7,74.2,29.90,ESE,113,1.0,6.0,92,0.14,,CLR,0.14,VWS V14.01,2013-07-08 12:45:00,
2013-07-08 08:46:00,76.9,74.7,29.90,ESE,120,2.0,3.0,93,0.14,,CLR,0.14,VWS V14.01,2013-07-08 12:46:00,
2013-07-08 08:47:00,77.1,75.2,29.90,SE,143,3.0,4.0,94,0.14,,CLR,0.14,VWS V14.01,2013-07-08 12:47:00,
2013-07-08 08:48:00,77.1,74.9,29.90,ENE,63,1.0,4.0,93,0.14,,CLR,0.14,VWS V14.01,2013-07-08 12:48:00,
2013-07-08 08:49:00,77.5,75.6,29.90,SSE,158,2.0,4.0,94,0.14,,CLR,0.14,VWS V14.01,2013-07-08 12:49:00,
2013-07-08 08:50:00,77.4,74.9,29.90,East,91,3.0,5.0,92,0.14,,CLR,0.14,VWS V14.01,2013-07-08 12:50:00,
2013-07-08 08:51:00,77.5,75.0,29.90,NE,39,1.0,5.0,92,0.14,,CLR,0.14,VWS V14.01,2013-07-08 12:51:00,
2013-07-08 08:52:00,77.6,75.1,29.90,SE,128,2.0,5.0,92,0.14,,CLR,0.14,VWS V14.01,2013-07-08 12:52:00,
2013-07-08 08:53:00,77.7,75.2,29.90,ENE,57,1.0,5.0,92,0.14,,CLR,0.14,VWS V14.01,2013-07-08 12:53:00,
2013-07-08 08:54:00,77.8,75.3,29.90,East,93,1.0,5.0,92,0.14,,CLR,0.14,VWS V14.01,2013-07-08 12:54:00,
2013-07-08 08:55:00,81.2,75.0,29.88,NE,46,1.0,2.0,82,0.00,,,0.00,weatherlink.com 1.10,2013-07-08 12:55:00,
2013-07-08 08:56:00,77.9,75.4,29.90,NE,48,3.0,5.0,92,0.14,,CLR,0.14,VWS V14.01,2013-07-08 12:56:00,
2013-07-08 08:57:00,78.0,75.2,29.89,ENE,63,1.0,4.0,91,0.14,,CLR,0.14,VWS V14.01,2013-07-08 12:57:00,
2013-07-08 08:58:00,78.0,75.2,29.89,NNE,23,5.0,5.0,91,0.14,,CLR,0.14,VWS V14.01,2013-07-08 12:58:00,
2013-07-08 08:59:00,78.0,74.8,29.90,North,10,5.0,5.0,90,0.14,,CLR,0.14,VWS V14.01,2013-07-08 12:59:00,
2013-07-08 09:00:00,77.9,74.7,29.90,ENE,67,2.0,5.0,90,0.14,,CLR,0.14,VWS V14.01,2013-07-08 13:00:00,
2013-07-08 09:01:00,78.0,74.8,29.90,NNE,30,4.0,5.0,90,0.14,,CLR,0.14,VWS V14.01,2013-07-08 13:01:00,
2013-07-08 09:02:00,78.0,74.8,29.90,East,97,1.0,5.0,90,0.14,,CLR,0.14,VWS V14.01,2013-07-08 13:02:00,
2013-07-08 09:03:00,78.0,74.8,29.90,NNE,15,2.0,4.0,90,0.14,,CLR,0.14,VWS V14.01,2013-07-08 13:03:00,
2013-07-08 09:04:00,78.2,75.0,29.90,SE,124,2.0,4.0,90,0.14,,CLR,0.14,VWS V14.01,2013-07-08 13:04:00,
2013-07-08 09:05:00,78.3,75.1,29.90,ESE,122,2.0,3.0,90,0.14,,CLR,0.14,VWS V14.01,2013-07-08 13:05:00,
2013-07-08 09:06:00,78.4,75.6,29.90,East,99,2.0,3.0,91,0.14,,CLR,0.14,VWS V14.01,2013-07-08 13:06:00,
2013-07-08 09:07:00,78.5,75.3,29.90,SE,130,0.0,3.0,90,0.14,,CLR,0.14,VWS V14.01,2013-07-08 13:07:00,
2013-07-08 09:08:00,78.9,76.1,29.90,ENE,75,3.0,4.0,91,0.14,,CLR,0.14,VWS V14.01,2013-07-08 13:08:00,
2013-07-08 09:09:00,79.0,75.2,29.90,East,91,3.0,5.0,88,0.14,,CLR,0.14,VWS V14.01,2013-07-08 13:09:00,
2013-07-08 09:10:00,79.2,75.7,29.90,ENE,77,1.0,5.0,89,0.14,,CLR,0.14,VWS V14.01,2013-07-08 13:10:00,
2013-07-08 09:11:00,81.5,75.0,29.88,West,278,1.0,6.0,81,0.00,,,0.00,weatherlink.com 1.10,2013-07-08 13:11:00,
2013-07-08 09:12:00,79.5,76.0,29.90,ENE,64,2.0,4.0,89,0.14,,CLR,0.14,VWS V14.01,2013-07-08 13:12:00,
2013-07-08 09:13:00,79.5,75.6,29.90,East,89,3.0,4.0,88,0.14,,CLR,0.14,VWS V14.01,2013-07-08 13:13:00,
2013-07-08 09:14:00,79.6,75.1,29.90,NNE,32,1.0,5.0,86,0.14,,CLR,0.14,VWS V14.01,2013-07-08 13:14:00,
2013-07-08 09:15:00,79.7,75.5,29.90,NE,50,3.0,5.0,87,0.14,,CLR,0.14,VWS V14.01,2013-07-08 13:15:00,
2013-07-08 09:16:00,79.7,75.5,29.90,East,101,5.0,5.0,87,0.14,,CLR,0.14,VWS V14.01,2013-07-08 13:16:00,
2013-07-08 09:17:00,79.8,74.9,29.90,ESE,122,2.0,5.0,85,0.14,,CLR,0.14,VWS V14.01,2013-07-08 13:17:00,
2013-07-08 09:18:00,79.9,75.3,29.90,ENE,68,2.0,5.0,86,0.14,,CLR,0.14,VWS V14.01,2013-07-08 13:18:00,
2013-07-08 09:19:00,80.0,75.4,29.90,SSE,152,0.0,5.0,86,0.14,,CLR,0.14,VWS V14.01,2013-07-08 13:19:00,
2013-07-08 09:20:00,80.2,76.0,29.90,ESE,120,2.0,3.0,87,0.14,,CLR,0.14,VWS V14.01,2013-07-08 13:20:00,
2013-07-08 09:21:00,80.4,75.8,29.90,ESE,121,2.0,3.0,86,0.14,,CLR,0.14,VWS V14.01,2013-07-08 13:21:00,
2013-07-08 09:22:00,80.6,75.7,29.90,East,96,1.0,2.0,85,0.14,,CLR,0.14,VWS V14.01,2013-07-08 13:22:00,
2013-07-08 09:23:00,80.7,76.5,29.90,East,86,2.0,3.0,87,0.14,,CLR,0.14,VWS V14.01,2013-07-08 13:23:00,
2013-07-08 09:24:00,80.9,76.7,29.90,SE,138,0.0,3.0,87,0.14,,CLR,0.14,VWS V14.01,2013-07-08 13:24:00,
2013-07-08 09:25:00,81.1,76.9,29.90,ENE,75,1.0,3.0,87,0.14,,CLR,0.14,VWS V14.01,2013-07-08 13:25:00,
2013-07-08 09:26:00,81.2,76.6,29.90,ENE,75,0.0,3.0,86,0.14,,CLR,0.14,VWS V14.01,2013-07-08 13:26:00,
2013-07-08 09:27:00,80.6,75.0,29.88,NNE,12,1.0,3.0,82,0.00,,,0.00,weatherlink.com 1.10,2013-07-08 13:27:00,
2013-07-08 09:28:00,81.2,75.9,29.90,East,88,5.0,5.0,84,0.14,,CLR,0.14,VWS V14.01,2013-07-08 13:28:00,
2013-07-08 09:29:00,81.2,75.9,29.90,ENE,63,3.0,7.0,84,0.14,,CLR,0.14,VWS V14.01,2013-07-08 13:29:00,
2013-07-08 09:30:00,81.2,75.6,29.90,West,266,1.0,7.0,83,0.00,,CLR,0.14,VWS V14.01,2013-07-08 13:30:00,
2013-07-08 09:31:00,81.3,76.0,29.90,ESE,118,1.0,7.0,84,0.00,,CLR,0.14,VWS V14.01,2013-07-08 13:31:00,
2013-07-08 09:32:00,81.4,76.8,29.90,ESE,121,6.0,6.0,86,0.00,,CLR,0.14,VWS V14.01,2013-07-08 13:32:00,
2013-07-08 09:33:00,81.5,75.8,29.90,East,86,2.0,6.0,83,0.00,,CLR,0.14,VWS V14.01,2013-07-08 13:33:00,
2013-07-08 09:35:00,81.6,76.7,29.90,ESE,110,3.0,6.0,85,0.00,,CLR,0.14,VWS V14.01,2013-07-08 13:35:00,
2013-07-08 09:36:00,81.7,76.4,29.90,ESE,120,0.0,6.0,84,0.00,,CLR,0.14,VWS V14.01,2013-07-08 13:36:00,
2013-07-08 09:37:00,81.7,76.0,29.90,NNE,19,2.0,4.0,83,0.00,,CLR,0.14,VWS V14.01,2013-07-08 13:37:00,
2013-07-08 09:38:00,81.8,76.5,29.89,ESE,120,2.0,3.0,84,0.00,,CLR,0.14,VWS V14.01,2013-07-08 13:38:00,
2013-07-08 09:39:00,81.8,76.5,29.90,ENE,68,3.0,4.0,84,0.00,,CLR,0.14,VWS V14.01,2013-07-08 13:39:00,
2013-07-08 09:40:00,81.9,75.5,29.90,ENE,76,1.0,4.0,81,0.00,,CLR,0.14,VWS V14.01,2013-07-08 13:40:00,
2013-07-08 09:41:00,81.9,75.5,29.90,NNE,29,2.0,4.0,81,0.00,,CLR,0.14,VWS V14.01,2013-07-08 13:41:00,
2013-07-08 09:42:00,82.0,76.0,29.89,ENE,58,1.0,4.0,82,0.00,,CLR,0.14,VWS V14.01,2013-07-08 13:42:00,
2013-07-08 09:43:00,82.0,76.0,29.90,NE,37,2.0,4.0,82,0.00,,CLR,0.14,VWS V14.01,2013-07-08 13:43:00,
2013-07-08 09:44:00,80.4,75.0,29.89,NNE,24,0.0,2.0,82,0.00,,,0.00,weatherlink.com 1.10,2013-07-08 13:44:00,
2013-07-08 09:45:00,82.1,76.1,29.90,South,190,0.0,2.0,82,0.00,,CLR,0.14,VWS V14.01,2013-07-08 13:45:00,
2013-07-08 09:46:00,82.3,76.6,29.89,East,84,0.0,2.0,83,0.00,,CLR,0.14,VWS V14.01,2013-07-08 13:46:00,
2013-07-08 09:47:00,82.5,76.4,29.90,East,101,2.0,4.0,82,0.00,,CLR,0.14,VWS V14.01,2013-07-08 13:47:00,
2013-07-08 09:48:00,82.5,76.4,29.90,ENE,77,1.0,4.0,82,0.00,,CLR,0.14,VWS V14.01,2013-07-08 13:48:00,
2013-07-08 09:49:00,82.6,75.8,29.90,NE,50,1.0,4.0,80,0.00,,CLR,0.14,VWS V14.01,2013-07-08 13:49:00,
2013-07-08 09:50:00,82.6,75.1,29.89,ESE,121,2.0,4.0,78,0.00,,CLR,0.14,VWS V14.01,2013-07-08 13:50:00,
2013-07-08 09:51:00,82.6,75.4,29.89,SE,125,2.0,4.0,79,0.00,,CLR,0.14,VWS V14.01,2013-07-08 13:51:00,
2013-07-08 09:52:00,82.6,75.8,29.89,ESE,108,1.0,4.0,80,0.00,,CLR,0.14,VWS V14.01,2013-07-08 13:52:00,
2013-07-08 09:53:00,82.7,75.9,29.89,ENE,58,1.0,4.0,80,0.00,,CLR,0.14,VWS V14.01,2013-07-08 13:53:00,
2013-07-08 09:54:00,82.7,75.2,29.89,ESE,106,5.0,6.0,78,0.00,,CLR,0.14,VWS V14.01,2013-07-08 13:54:00,
2013-07-08 09:55:00,82.8,75.6,29.89,ESE,106,0.0,6.0,79,0.00,,CLR,0.14,VWS V14.01,2013-07-08 13:55:00,
2013-07-08 09:56:00,82.8,76.0,29.89,East,94,1.0,6.0,80,0.00,,CLR,0.14,VWS V14.01,2013-07-08 13:56:00,
2013-07-08 09:57:00,83.0,76.6,29.89,NNE,15,2.0,6.0,81,0.00,,CLR,0.14,VWS V14.01,2013-07-08 13:57:00,
2013-07-08 09:58:00,83.0,75.1,29.89,ESE,115,2.0,6.0,77,0.00,,CLR,0.14,VWS V14.01,2013-07-08 13:58:00,
2013-07-08 09:59:00,83.0,75.1,29.89,East,101,0.0,6.0,77,0.00,,CLR,0.14,VWS V14.01,2013-07-08 13:59:00,
2013-07-08 10:00:00,80.6,74.0,29.89,NE,43,1.0,4.0,80,0.00,,,0.00,weatherlink.com 1.10,2013-07-08 14:00:00,
2013-07-08 10:01:00,83.0,75.4,29.89,ESE,113,2.0,6.0,78,0.00,,CLR,0.14,VWS V14.01,2013-07-08 14:01:00,
2013-07-08 10:02:00,83.0,75.4,29.89,NNE,22,4.0,4.0,78,0.00,,CLR,0.14,VWS V14.01,2013-07-08 14:02:00,
2013-07-08 10:03:00,83.1,75.5,29.89,North,359,3.0,4.0,78,0.00,,CLR,0.14,VWS V14.01,2013-07-08 14:03:00,
2013-07-08 10:04:00,83.1,75.5,29.89,SE,138,3.0,4.0,78,0.00,,CLR,0.14,VWS V14.01,2013-07-08 14:04:00,
2013-07-08 10:05:00,83.1,75.5,29.89,North,4,0.0,4.0,78,0.00,,CLR,0.14,VWS V14.01,2013-07-08 14:05:00,
2013-07-08 10:06:00,83.2,76.4,29.89,East,96,3.0,5.0,80,0.00,,CLR,0.14,VWS V14.01,2013-07-08 14:06:00,
2013-07-08 10:07:00,83.3,76.1,29.89,ESE,117,0.0,5.0,79,0.00,,CLR,0.14,VWS V14.01,2013-07-08 14:07:00,
2013-07-08 10:08:00,83.4,75.8,29.89,ENE,77,1.0,5.0,78,0.00,,CLR,0.14,VWS V14.01,2013-07-08 14:08:00,
2013-07-08 10:09:00,83.4,76.2,29.89,East,80,1.0,5.0,79,0.00,,CLR,0.14,VWS V14.01,2013-07-08 14:09:00,
2013-07-08 10:10:00,83.5,75.9,29.89,SSE,166,5.0,5.0,78,0.00,,CLR,0.14,VWS V14.01,2013-07-08 14:10:00,
2013-07-08 10:11:00,83.6,76.0,29.89,SE,135,6.0,6.0,78,0.00,,CLR,0.14,VWS V14.01,2013-07-08 14:11:00,
2013-07-08 10:12:00,83.5,75.1,29.89,SSE,166,4.0,7.0,76,0.00,,CLR,0.14,VWS V14.01,2013-07-08 14:12:00,
2013-07-08 10:13:00,83.4,75.4,29.89,East,94,3.0,7.0,77,0.00,,CLR,0.14,VWS V14.01,2013-07-08 14:13:00,
2013-07-08 10:14:00,83.4,75.1,29.89,ENE,76,1.0,7.0,76,0.00,,CLR,0.14,VWS V14.01,2013-07-08 14:14:00,
2013-07-08 10:15:00,83.4,75.1,29.89,North,359,3.0,7.0,76,0.00,,CLR,0.14,VWS V14.01,2013-07-08 14:15:00,
2013-07-08 10:16:00,83.3,74.9,29.89,ENE,63,4.0,5.0,76,0.00,,CLR,0.14,VWS V14.01,2013-07-08 14:16:00,
2013-07-08 10:17:00,81.0,74.0,29.89,North,359,1.0,3.0,78,0.00,,,0.00,weatherlink.com 1.10,2013-07-08 14:17:00,
2013-07-08 10:18:00,83.2,75.2,29.89,NE,51,3.0,5.0,77,0.00,,CLR,0.14,VWS V14.01,2013-07-08 14:18:00,
2013-07-08 10:19:00,83.2,75.6,29.89,ESE,106,3.0,5.0,78,0.00,,CLR,0.14,VWS V14.01,2013-07-08 14:19:00,
2013-07-08 10:20:00,83.3,75.7,29.89,North,360,0.0,5.0,78,0.00,,CLR,0.14,VWS V14.01,2013-07-08 14:20:00,
2013-07-08 10:21:00,83.4,75.8,29.89,ENE,75,2.0,5.0,78,0.00,,CLR,0.14,VWS V14.01,2013-07-08 14:21:00,
2013-07-08 10:22:00,83.4,75.4,29.89,ENE,65,2.0,5.0,77,0.00,,CLR,0.14,VWS V14.01,2013-07-08 14:22:00,
2013-07-08 10:23:00,83.3,75.3,29.89,NNE,12,2.0,4.0,77,0.00,,CLR,0.14,VWS V14.01,2013-07-08 14:23:00,
2013-07-08 10:24:00,83.3,75.3,29.89,ENE,72,6.0,6.0,77,0.00,,CLR,0.14,VWS V14.01,2013-07-08 14:24:00,
2013-07-08 10:25:00,83.2,74.8,29.89,ESE,110,7.0,7.0,76,0.00,,CLR,0.14,VWS V14.01,2013-07-08 14:25:00,
2013-07-08 10:26:00,83.2,74.8,29.89,SSE,153,3.0,7.0,76,0.00,,CLR,0.14,VWS V14.01,2013-07-08 14:26:00,
2013-07-08 10:27:00,83.2,74.8,29.89,NE,49,2.0,7.0,76,0.00,,CLR,0.14,VWS V14.01,2013-07-08 14:27:00,
2013-07-08 10:28:00,83.1,75.2,29.89,SSW,200,3.0,7.0,77,0.00,,CLR,0.14,VWS V14.01,2013-07-08 14:28:00,
2013-07-08 10:29:00,83.2,75.2,29.88,WNW,285,1.0,6.0,77,0.00,,CLR,0.14,VWS V14.01,2013-07-08 14:29:00,
2013-07-08 10:30:00,83.3,75.3,29.88,East,93,1.0,3.0,77,0.00,,CLR,0.14,VWS V14.01,2013-07-08 14:30:00,
2013-07-08 10:31:00,83.3,75.7,29.88,ESE,117,0.0,3.0,78,0.00,,CLR,0.14,VWS V14.01,2013-07-08 14:31:00,
2013-07-08 10:32:00,83.4,75.4,29.88,SE,129,6.0,7.0,77,0.00,,CLR,0.14,VWS V14.01,2013-07-08 14:32:00,
2013-07-08 10:33:00,81.9,74.0,29.89,East,91,0.0,3.0,77,0.00,,,0.00,weatherlink.com 1.10,2013-07-08 14:33:00,
2013-07-08 10:34:00,83.2,75.2,29.88,NE,49,1.0,7.0,77,0.00,,CLR,0.14,VWS V14.01,2013-07-08 14:34:00,
2013-07-08 10:35:00,83.2,75.6,29.88,SSE,162,0.0,7.0,78,0.00,,CLR,0.14,VWS V14.01,2013-07-08 14:35:00,
2013-07-08 10:36:00,83.2,75.2,29.89,East,80,1.0,5.0,77,0.00,,CLR,0.14,VWS V14.01,2013-07-08 14:36:00,
2013-07-08 10:37:00,83.2,75.2,29.89,SSE,166,0.0,5.0,77,0.00,,CLR,0.14,VWS V14.01,2013-07-08 14:37:00,
2013-07-08 10:38:00,83.1,75.2,29.89,ENE,63,1.0,3.0,77,0.00,,CLR,0.14,VWS V14.01,2013-07-08 14:38:00,
2013-07-08 10:39:00,83.2,75.2,29.89,WNW,285,1.0,2.0,77,0.00,,CLR,0.14,VWS V14.01,2013-07-08 14:39:00,
2013-07-08 10:40:00,83.2,74.8,29.89,ESE,120,1.0,2.0,76,0.00,,CLR,0.14,VWS V14.01,2013-07-08 14:40:00,
2013-07-08 10:41:00,83.2,75.6,29.89,ESE,115,0.0,2.0,78,0.00,,CLR,0.14,VWS V14.01,2013-07-08 14:41:00,
2013-07-08 10:42:00,83.2,74.8,29.89,ESE,105,5.0,6.0,76,0.00,,CLR,0.14,VWS V14.01,2013-07-08 14:42:00,
2013-07-08 10:43:00,83.2,75.6,29.89,SW,215,2.0,6.0,78,0.00,,CLR,0.14,VWS V14.01,2013-07-08 14:43:00,
2013-07-08 10:44:00,83.2,75.2,29.89,South,176,3.0,6.0,77,0.00,,CLR,0.14,VWS V14.01,2013-07-08 14:44:00,
2013-07-08 10:45:00,83.2,75.2,29.89,ESE,123,1.0,6.0,77,0.00,,CLR,0.14,VWS V14.01,2013-07-08 14:45:00,
2013-07-08 10:46:00,83.1,75.5,29.89,South,169,7.0,8.0,78,0.00,,CLR,0.14,VWS V14.01,2013-07-08 14:46:00,
2013-07-08 10:47:00,83.0,74.7,29.89,ESE,108,1.0,8.0,76,0.00,,CLR,0.14,VWS V14.01,2013-07-08 14:47:00,
2013-07-08 10:48:00,82.9,74.6,29.89,South,170,2.0,8.0,76,0.00,,CLR,0.14,VWS V14.01,2013-07-08 14:48:00,
2013-07-08 10:49:00,82.8,74.5,29.89,ESE,122,2.0,8.0,76,0.00,,CLR,0.14,VWS V14.01,2013-07-08 14:49:00,
2013-07-08 10:50:00,82.5,75.0,29.89,NE,51,1.0,3.0,77,0.00,,,0.00,weatherlink.com 1.10,2013-07-08 14:50:00,
2013-07-08 10:51:00,82.7,74.8,29.89,NNE,30,2.0,7.0,77,0.00,,CLR,0.14,VWS V14.01,2013-07-08 14:51:00,
2013-07-08 10:52:00,82.7,74.4,29.89,East,89,6.0,7.0,76,0.00,,CLR,0.14,VWS V14.01,2013-07-08 14:52:00,
2013-07-08 10:53:00,82.5,74.6,29.89,NNW,343,2.0,7.0,77,0.00,,CLR,0.14,VWS V14.01,2013-07-08 14:53:00,
2013-07-08 10:54:00,82.5,74.9,29.89,ENE,68,4.0,7.0,78,0.00,,CLR,0.14,VWS V14.01,2013-07-08 14:54:00,
2013-07-08 10:55:00,82.4,74.1,29.89,East,94,4.0,6.0,76,0.00,,CLR,0.14,VWS V14.01,2013-07-08 14:55:00,
2013-07-08 10:56:00,82.3,73.6,29.89,NE,41,2.0,5.0,75,0.00,,CLR,0.14,VWS V14.01,2013-07-08 14:56:00,
2013-07-08 10:57:00,82.2,73.9,29.89,NE,53,2.0,5.0,76,0.00,,CLR,0.14,VWS V14.01,2013-07-08 14:57:00,
2013-07-08 10:58:00,82.1,73.8,29.89,NNE,22,3.0,5.0,76,0.00,,CLR,0.14,VWS V14.01,2013-07-08 14:58:00,
2013-07-08 10:59:00,81.9,73.6,29.89,NE,46,2.0,5.0,76,0.00,,CLR,0.14,VWS V14.01,2013-07-08 14:59:00,
2013-07-08 11:00:00,81.6,73.7,29.89,NE,34,2.0,5.0,77,0.00,,CLR,0.14,VWS V14.01,2013-07-08 15:00:00,
2013-07-08 11:01:00,81.5,73.6,29.89,East,94,0.0,5.0,77,0.00,,CLR,0.14,VWS V14.01,2013-07-08 15:01:00,
2013-07-08 11:02:00,81.4,73.9,29.89,East,92,1.0,4.0,78,0.00,,CLR,0.14,VWS V14.01,2013-07-08 15:02:00,
2013-07-08 11:03:00,81.4,73.9,29.89,ENE,76,2.0,4.0,78,0.00,,CLR,0.14,VWS V14.01,2013-07-08 15:03:00,
2013-07-08 11:04:00,81.3,74.2,29.89,SE,141,4.0,4.0,79,0.00,,CLR,0.14,VWS V14.01,2013-07-08 15:04:00,
2013-07-08 11:05:00,81.3,74.2,29.89,East,100,3.0,4.0,79,0.00,,CLR,0.14,VWS V14.01,2013-07-08 15:05:00,
2013-07-08 11:06:00,81.2,73.7,29.90,ESE,123,8.0,8.0,78,0.00,,CLR,0.14,VWS V14.01,2013-07-08 15:06:00,
2013-07-08 11:07:00,83.2,73.0,29.89,NW,308,0.0,3.0,72,0.00,,,0.00,weatherlink.com 1.10,2013-07-08 15:07:00,
2013-07-08 11:08:00,81.0,73.5,29.89,WSW,246,3.0,8.0,78,0.00,,CLR,0.14,VWS V14.01,2013-07-08 15:08:00,
2013-07-08 11:09:00,80.9,73.4,29.89,SSE,154,2.0,8.0,78,0.00,,CLR,0.14,VWS V14.01,2013-07-08 15:09:00,
2013-07-08 11:10:00,80.8,73.3,29.89,SE,124,1.0,6.0,78,0.00,,CLR,0.14,VWS V14.01,2013-07-08 15:10:00,
2013-07-08 11:11:00,80.8,73.7,29.90,NE,39,2.0,6.0,79,0.00,,CLR,0.14,VWS V14.01,2013-07-08 15:11:00,
2013-07-08 11:12:00,80.7,73.2,29.90,ENE,77,2.0,4.0,78,0.00,,CLR,0.14,VWS V14.01,2013-07-08 15:12:00,
2013-07-08 11:13:00,80.6,73.1,29.90,East,85,1.0,4.0,78,0.00,,CLR,0.14,VWS V14.01,2013-07-08 15:13:00,
2013-07-08 11:14:00,80.5,73.0,29.90,ESE,115,0.0,4.0,78,0.00,,CLR,0.14,VWS V14.01,2013-07-08 15:14:00,
2013-07-08 11:15:00,80.4,73.3,29.90,South,181,2.0,4.0,79,0.00,,CLR,0.14,VWS V14.01,2013-07-08 15:15:00,
2013-07-08 11:16:00,80.4,72.9,29.90,ENE,68,1.0,4.0,78,0.00,,CLR,0.14,VWS V14.01,2013-07-08 15:16:00,
2013-07-08 11:17:00,80.2,72.7,29.90,SE,137,2.0,4.0,78,0.00,,CLR,0.14,VWS V14.01,2013-07-08 15:17:00,
2013-07-08 11:18:00,80.2,73.1,29.90,NNE,21,3.0,4.0,79,0.00,,CLR,0.14,VWS V14.01,2013-07-08 15:18:00,
2013-07-08 11:19:00,80.2,72.7,29.90,East,97,4.0,8.0,78,0.00,,CLR,0.14,VWS V14.01,2013-07-08 15:19:00,
2013-07-08 11:20:00,80.1,73.0,29.90,SSE,156,0.0,8.0,79,0.00,,CLR,0.14,VWS V14.01,2013-07-08 15:20:00,
2013-07-08 11:21:00,80.1,73.0,29.90,East,101,1.0,8.0,79,0.00,,CLR,0.14,VWS V14.01,2013-07-08 15:21:00,
2013-07-08 11:22:00,80.0,72.9,29.90,East,92,2.0,8.0,79,0.00,,CLR,0.14,VWS V14.01,2013-07-08 15:22:00,
2013-07-08 11:23:00,85.0,74.0,29.89,NE,53,0.0,3.0,70,0.00,,,0.00,weatherlink.com 1.10,2013-07-08 15:23:00,
2013-07-08 11:24:00,79.9,72.8,29.90,North,6,1.0,2.0,79,0.00,,CLR,0.14,VWS V14.01,2013-07-08 15:24:00,
2013-07-08 11:25:00,79.9,72.8,29.90,NNE,26,5.0,5.0,79,0.00,,CLR,0.14,VWS V14.01,2013-07-08 15:25:00,
2013-07-08 11:27:00,79.7,72.6,29.90,NNE,15,1.0,5.0,79,0.00,,CLR,0.14,VWS V14.01,2013-07-08 15:27:00,
2013-07-08 11:28:00,79.4,72.3,29.90,ESE,113,3.0,5.0,79,0.00,,CLR,0.14,VWS V14.01,2013-07-08 15:28:00,
2013-07-08 11:29:00,79.4,72.3,29.90,SSE,153,2.0,4.0,79,0.00,,CLR,0.14,VWS V14.01,2013-07-08 15:29:00,
2013-07-08 11:30:00,79.3,72.6,29.90,NNE,16,4.0,4.0,80,0.00,,CLR,0.14,VWS V14.01,2013-07-08 15:30:00,
2013-07-08 11:31:00,79.2,72.1,29.90,NE,39,2.0,4.0,79,0.00,,CLR,0.14,VWS V14.01,2013-07-08 15:31:00,
2013-07-08 11:32:00,79.0,72.3,29.90,East,97,2.0,4.0,80,0.00,,CLR,0.14,VWS V14.01,2013-07-08 15:32:00,
2013-07-08 11:33:00,78.9,72.2,29.90,East,79,1.0,4.0,80,0.00,,CLR,0.14,VWS V14.01,2013-07-08 15:33:00,
2013-07-08 11:34:00,78.8,72.1,29.90,ENE,58,4.0,4.0,80,0.00,,CLR,0.14,VWS V14.01,2013-07-08 15:34:00,
2013-07-08 11:35:00,78.7,72.0,29.90,SE,126,1.0,4.0,80,0.00,,CLR,0.14,VWS V14.01,2013-07-08 15:35:00,
2013-07-08 11:36:00,78.6,71.9,29.90,NE,51,2.0,4.0,80,0.00,,CLR,0.14,VWS V14.01,2013-07-08 15:36:00,
2013-07-08 11:37:00,78.5,71.8,29.90,SSE,158,0.0,4.0,80,0.00,,CLR,0.14,VWS V14.01,2013-07-08 15:37:00,
2013-07-08 11:38:00,78.4,72.1,29.90,ESE,113,0.0,4.0,81,0.00,,CLR,0.14,VWS V14.01,2013-07-08 15:38:00,
2013-07-08 11:39:00,86.3,73.0,29.89,SE,134,0.0,5.0,65,0.00,,,0.00,weatherlink.com 1.10,2013-07-08 15:39:00,
2013-07-08 11:40:00,78.3,72.0,29.90,ENE,68,2.0,7.0,81,0.00,,CLR,0.14,VWS V14.01,2013-07-08 15:40:00,
2013-07-08 11:41:00,78.1,71.8,29.90,North,359,1.0,7.0,81,0.00,,CLR,0.14,VWS V14.01,2013-07-08 15:41:00,
2013-07-08 11:42:00,77.9,72.0,29.90,East,98,1.0,7.0,82,0.00,,CLR,0.14,VWS V14.01,2013-07-08 15:42:00,
2013-07-08 11:43:00,77.8,72.2,29.90,NNE,17,2.0,7.0,83,0.00,,CLR,0.14,VWS V14.01,2013-07-08 15:43:00,
2013-07-08 11:44:00,77.7,72.1,29.90,NE,47,2.0,6.0,83,0.00,,CLR,0.14,VWS V14.01,2013-07-08 15:44:00,
2013-07-08 11:45:00,77.5,72.3,29.90,NE,39,1.0,3.0,84,0.00,,CLR,0.14,VWS V14.01,2013-07-08 15:45:00,
2013-07-08 11:46:00,77.4,71.8,29.90,NNE,15,4.0,5.0,83,0.00,,CLR,0.14,VWS V14.01,2013-07-08 15:46:00,
2013-07-08 11:48:00,77.0,71.8,29.90,NNE,15,6.0,6.0,84,0.00,,CLR,0.14,VWS V14.01,2013-07-08 15:48:00,
2013-07-08 11:49:00,76.7,71.5,29.90,NE,36,2.0,9.0,84,0.00,,CLR,0.14,VWS V14.01,2013-07-08 15:49:00,
2013-07-08 11:50:00,76.6,71.4,29.90,NE,39,2.0,9.0,84,0.01,,CLR,0.15,VWS V14.01,2013-07-08 15:50:00,
2013-07-08 11:51:00,76.4,71.6,29.90,NE,44,3.0,9.0,85,0.01,,CLR,0.15,VWS V14.01,2013-07-08 15:51:00,
2013-07-08 11:52:00,76.2,71.0,29.90,NE,49,4.0,6.0,84,0.01,,CLR,0.15,VWS V14.01,2013-07-08 15:52:00,
2013-07-08 11:53:00,76.1,71.3,29.90,ENE,58,4.0,6.0,85,0.01,,CLR,0.15,VWS V14.01,2013-07-08 15:53:00,
2013-07-08 11:54:00,75.9,70.7,29.90,North,9,8.0,11.0,84,0.01,,CLR,0.15,VWS V14.01,2013-07-08 15:54:00,
2013-07-08 11:55:00,75.7,70.9,29.90,NNE,32,6.0,11.0,85,0.01,,CLR,0.15,VWS V14.01,2013-07-08 15:55:00,
2013-07-08 11:56:00,86.3,72.0,29.89,East,98,0.0,3.0,63,0.00,,,0.00,weatherlink.com 1.10,2013-07-08 15:56:00,
2013-07-08 11:57:00,75.3,70.8,29.90,NNE,32,8.0,10.0,86,0.01,,CLR,0.15,VWS V14.01,2013-07-08 15:57:00,
2013-07-08 11:58:00,75.1,70.6,29.90,NE,37,1.0,10.0,86,0.01,,CLR,0.15,VWS V14.01,2013-07-08 15:58:00,
2013-07-08 11:59:00,74.9,70.4,29.90,NNE,32,6.0,9.0,86,0.01,,CLR,0.15,VWS V14.01,2013-07-08 15:59:00,
2013-07-08 12:00:00,74.9,70.4,29.90,NNE,27,3.0,9.0,86,0.01,,CLR,0.15,VWS V14.01,2013-07-08 16:00:00,
2013-07-08 12:01:00,74.7,70.2,29.90,NE,54,6.0,8.0,86,0.01,,CLR,0.15,VWS V14.01,2013-07-08 16:01:00,
2013-07-08 12:02:00,74.6,70.1,29.90,NE,50,4.0,8.0,86,0.01,,CLR,0.15,VWS V14.01,2013-07-08 16:02:00,
2013-07-08 12:03:00,74.5,70.4,29.91,NE,47,10.0,10.0,87,0.01,,CLR,0.15,VWS V14.01,2013-07-08 16:03:00,
2013-07-08 12:04:00,74.3,70.2,29.91,NE,48,2.0,10.0,87,0.01,,CLR,0.15,VWS V14.01,2013-07-08 16:04:00,
2013-07-08 12:05:00,74.3,70.2,29.91,NE,55,3.0,10.0,87,0.01,,CLR,0.15,VWS V14.01,2013-07-08 16:05:00,
2013-07-08 12:06:00,74.1,70.0,29.91,NE,43,9.0,10.0,87,0.01,,CLR,0.15,VWS V14.01,2013-07-08 16:06:00,
2013-07-08 12:07:00,74.0,69.9,29.91,NE,42,5.0,10.0,87,0.01,,CLR,0.15,VWS V14.01,2013-07-08 16:07:00,
2013-07-08 12:08:00,73.9,69.8,29.91,NE,51,6.0,9.0,87,0.01,,CLR,0.15,VWS V14.01,2013-07-08 16:08:00,
2013-07-08 12:09:00,73.8,69.7,29.91,North,350,2.0,9.0,87,0.01,,CLR,0.15,VWS V14.01,2013-07-08 16:09:00,
2013-07-08 12:10:00,73.8,69.7,29.91,NE,35,5.0,8.0,87,0.01,,CLR,0.15,VWS V14.01,2013-07-08 16:10:00,
2013-07-08 12:11:00,85.1,75.0,29.89,WNW,285,1.0,8.0,72,0.00,,,0.00,weatherlink.com 1.10,2013-07-08 16:11:00,
2013-07-08 12:12:00,73.6,69.8,29.92,NNE,29,2.0,8.0,88,0.01,,CLR,0.15,VWS V14.01,2013-07-08 16:12:00,
2013-07-08 12:13:00,73.6,69.8,29.92,NNE,20,3.0,8.0,88,0.02,,CLR,0.16,VWS V14.01,2013-07-08 16:13:00,
2013-07-08 12:14:00,73.3,69.9,29.92,NNE,18,5.0,6.0,89,0.04,,CLR,0.18,VWS V14.01,2013-07-08 16:14:00,
2013-07-08 12:15:00,73.3,69.9,29.92,NNE,32,4.0,6.0,89,0.05,,CLR,0.19,VWS V14.01,2013-07-08 16:15:00,
2013-07-08 12:16:00,73.1,69.7,29.92,NE,54,2.0,6.0,89,0.05,,CLR,0.19,VWS V14.01,2013-07-08 16:16:00,
2013-07-08 12:17:00,72.9,69.8,29.92,ENE,72,1.0,6.0,90,0.06,,CLR,0.20,VWS V14.01,2013-07-08 16:17:00,
2013-07-08 12:18:00,72.7,69.3,29.92,NE,56,1.0,6.0,89,0.06,,CLR,0.20,VWS V14.01,2013-07-08 16:18:00,
2013-07-08 12:19:00,72.7,69.3,29.92,East,86,2.0,6.0,89,0.06,,CLR,0.20,VWS V14.01,2013-07-08 16:19:00,
2013-07-08 12:20:00,72.6,69.8,29.92,SE,129,1.0,6.0,91,0.07,,CLR,0.21,VWS V14.01,2013-07-08 16:20:00,
2013-07-08 12:21:00,72.5,69.7,29.92,ESE,118,2.0,6.0,91,0.07,,CLR,0.21,VWS V14.01,2013-07-08 16:21:00,
2013-07-08 12:22:00,72.4,69.6,29.92,SSW,196,0.0,5.0,91,0.08,,CLR,0.22,VWS V14.01,2013-07-08 16:22:00,
2013-07-08 12:23:00,72.3,69.8,29.92,ENE,72,2.0,3.0,92,0.09,,CLR,0.23,VWS V14.01,2013-07-08 16:23:00,
2013-07-08 12:24:00,72.2,69.8,29.92,East,80,1.0,4.0,92,0.10,,CLR,0.24,VWS V14.01,2013-07-08 16:24:00,
2013-07-08 12:25:00,72.1,69.7,29.92,ESE,105,0.0,4.0,92,0.10,,CLR,0.24,VWS V14.01,2013-07-08 16:25:00,
2013-07-08 12:26:00,72.0,69.6,29.92,East,83,0.0,4.0,92,0.10,,CLR,0.24,VWS V14.01,2013-07-08 16:26:00,
2013-07-08 12:27:00,71.9,69.4,29.92,SE,131,3.0,3.0,92,0.10,,CLR,0.24,VWS V14.01,2013-07-08 16:27:00,
2013-07-08 12:28:00,71.8,69.3,29.92,East,90,2.0,3.0,92,0.10,,CLR,0.24,VWS V14.01,2013-07-08 16:28:00,
2013-07-08 12:29:00,83.8,75.0,29.90,ESE,115,2.0,9.0,75,0.00,,,0.00,weatherlink.com 1.10,2013-07-08 16:29:00,
2013-07-08 12:30:00,71.6,69.5,29.92,ESE,115,1.0,5.0,93,0.11,,CLR,0.25,VWS V14.01,2013-07-08 16:30:00,
2013-07-08 12:31:00,71.6,69.5,29.92,ENE,66,1.0,5.0,93,0.11,,CLR,0.25,VWS V14.01,2013-07-08 16:31:00,
2013-07-08 12:32:00,71.5,69.4,29.92,ENE,75,2.0,5.0,93,0.11,,CLR,0.25,VWS V14.01,2013-07-08 16:32:00,
2013-07-08 12:33:00,71.4,69.3,29.92,ESE,105,1.0,4.0,93,0.11,,CLR,0.25,VWS V14.01,2013-07-08 16:33:00,
2013-07-08 12:34:00,71.3,69.5,29.92,NNE,25,3.0,3.0,94,0.11,,CLR,0.25,VWS V14.01,2013-07-08 16:34:00,
2013-07-08 12:35:00,71.3,69.5,29.92,NE,55,1.0,3.0,94,0.11,,CLR,0.25,VWS V14.01,2013-07-08 16:35:00,
2013-07-08 12:36:00,71.2,69.4,29.92,NNE,25,2.0,3.0,94,0.11,,CLR,0.25,VWS V14.01,2013-07-08 16:36:00,
2013-07-08 12:37:00,71.2,69.4,29.92,NE,49,1.0,3.0,94,0.11,,CLR,0.25,VWS V14.01,2013-07-08 16:37:00,
2013-07-08 12:38:00,71.1,69.3,29.92,NNE,20,3.0,3.0,94,0.11,,CLR,0.25,VWS V14.01,2013-07-08 16:38:00,
2013-07-08 12:39:00,71.1,69.3,29.93,NE,35,1.0,3.0,94,0.11,,CLR,0.25,VWS V14.01,2013-07-08 16:39:00,
2013-07-08 12:40:00,71.1,69.3,29.92,ENE,64,1.0,3.0,94,0.11,,CLR,0.25,VWS V14.01,2013-07-08 16:40:00,
2013-07-08 12:41:00,71.0,69.5,29.93,NE,37,2.0,3.0,95,0.11,,CLR,0.25,VWS V14.01,2013-07-08 16:41:00,
2013-07-08 12:42:00,71.0,69.5,29.93,NNW,333,2.0,4.0,95,0.11,,CLR,0.25,VWS V14.01,2013-07-08 16:42:00,
2013-07-08 12:43:00,70.9,69.4,29.93,NNE,28,2.0,4.0,95,0.11,,CLR,0.25,VWS V14.01,2013-07-08 16:43:00,
2013-07-08 12:44:00,70.9,69.4,29.93,NE,53,0.0,4.0,95,0.12,,CLR,0.26,VWS V14.01,2013-07-08 16:44:00,
2013-07-08 12:45:00,84.3,76.0,29.90,ESE,103,0.0,6.0,77,0.00,,,0.00,weatherlink.com 1.10,2013-07-08 16:45:00,
2013-07-08 12:46:00,70.9,69.4,29.93,ESE,103,0.0,3.0,95,0.12,,CLR,0.26,VWS V14.01,2013-07-08 16:46:00,
2013-07-08 12:47:00,70.9,69.4,29.93,East,90,2.0,3.0,95,0.12,,CLR,0.26,VWS V14.01,2013-07-08 16:47:00,
2013-07-08 12:48:00,70.9,69.4,29.93,SE,134,3.0,3.0,95,0.12,,CLR,0.26,VWS V14.01,2013-07-08 16:48:00,
2013-07-08 12:49:00,70.8,69.3,29.93,SSE,150,2.0,4.0,95,0.12,,CLR,0.26,VWS V14.01,2013-07-08 16:49:00,
2013-07-08 12:50:00,70.8,69.3,29.93,SE,136,2.0,4.0,95,0.12,,CLR,0.26,VWS V14.01,2013-07-08 16:50:00,
2013-07-08 12:51:00,70.8,69.3,29.93,ESE,122,4.0,4.0,95,0.12,,CLR,0.26,VWS V14.01,2013-07-08 16:51:00,
2013-07-08 12:52:00,70.8,69.3,29.93,ENE,75,2.0,4.0,95,0.13,,CLR,0.27,VWS V14.01,2013-07-08 16:52:00,
2013-07-08 12:53:00,70.8,69.3,29.93,SSW,211,0.0,4.0,95,0.13,,CLR,0.27,VWS V14.01,2013-07-08 16:53:00,
2013-07-08 12:54:00,70.8,69.6,29.93,ESE,103,1.0,4.0,96,0.13,,CLR,0.27,VWS V14.01,2013-07-08 16:54:00,
2013-07-08 12:55:00,70.9,69.7,29.93,East,97,2.0,3.0,96,0.13,,CLR,0.27,VWS V14.01,2013-07-08 16:55:00,
2013-07-08 12:56:00,70.9,69.7,29.93,East,80,1.0,3.0,96,0.14,,CLR,0.28,VWS V14.01,2013-07-08 16:56:00,
2013-07-08 12:57:00,70.9,69.7,29.92,ESE,103,1.0,3.0,96,0.15,,CLR,0.29,VWS V14.01,2013-07-08 16:57:00,
2013-07-08 12:58:00,71.0,69.8,29.92,ESE,104,1.0,4.0,96,0.15,,CLR,0.29,VWS V14.01,2013-07-08 16:58:00,
2013-07-08 12:59:00,71.0,69.8,29.92,ENE,75,3.0,4.0,96,0.16,,CLR,0.30,VWS V14.01,2013-07-08 16:59:00,
2013-07-08 13:00:00,71.1,69.9,29.93,East,96,4.0,4.0,96,0.15,,CLR,0.30,VWS V14.01,2013-07-08 17:00:00,
2013-07-08 13:01:00,84.4,74.0,29.90,ENE,66,1.0,8.0,72,0.00,,,0.00,weatherlink.com 1.10,2013-07-08 17:01:00,
2013-07-08 13:02:00,71.1,69.9,29.92,ENE,66,2.0,5.0,96,0.15,,CLR,0.30,VWS V14.01,2013-07-08 17:02:00,
2013-07-08 13:03:00,71.1,69.9,29.92,SE,141,2.0,5.0,96,0.15,,CLR,0.30,VWS V14.01,2013-07-08 17:03:00,
2013-07-08 13:04:00,71.2,70.0,29.92,SSE,162,1.0,5.0,96,0.15,,CLR,0.30,VWS V14.01,2013-07-08 17:04:00,
2013-07-08 13:05:00,71.2,70.0,29.92,ESE,103,6.0,8.0,96,0.15,,CLR,0.30,VWS V14.01,2013-07-08 17:05:00,
2013-07-08 13:06:00,71.2,70.0,29.92,SSE,158,1.0,8.0,96,0.15,,CLR,0.30,VWS V14.01,2013-07-08 17:06:00,
2013-07-08 13:07:00,71.2,70.0,29.92,SE,138,0.0,8.0,96,0.15,,CLR,0.30,VWS V14.01,2013-07-08 17:07:00,
2013-07-08 13:08:00,71.2,70.0,29.92,WNW,295,0.0,8.0,96,0.15,,CLR,0.30,VWS V14.01,2013-07-08 17:08:00,
2013-07-08 13:09:00,71.3,70.1,29.92,SE,143,2.0,2.0,96,0.15,,CLR,0.30,VWS V14.01,2013-07-08 17:09:00,
2013-07-08 13:10:00,71.3,70.1,29.92,ESE,103,1.0,2.0,96,0.15,,CLR,0.30,VWS V14.01,2013-07-08 17:10:00,
2013-07-08 13:11:00,71.3,70.1,29.93,SE,141,3.0,4.0,96,0.15,,CLR,0.30,VWS V14.01,2013-07-08 17:11:00,
2013-07-08 13:12:00,71.2,69.7,29.93,ESE,113,2.0,7.0,95,0.15,,CLR,0.30,VWS V14.01,2013-07-08 17:12:00,
2013-07-08 13:13:00,71.1,69.6,29.93,SE,137,3.0,7.0,95,0.15,,CLR,0.30,VWS V14.01,2013-07-08 17:13:00,
2013-07-08 13:14:00,71.1,69.9,29.93,SE,125,2.0,7.0,96,0.15,,CLR,0.30,VWS V14.01,2013-07-08 17:14:00,
2013-07-08 13:15:00,71.0,69.8,29.93,SE,143,6.0,7.0,96,0.15,,CLR,0.30,VWS V14.01,2013-07-08 17:15:00,
2013-07-08 13:16:00,70.9,69.4,29.93,ENE,78,9.0,10.0,95,0.11,,CLR,0.30,VWS V14.01,2013-07-08 17:16:00,
2013-07-08 13:17:00,82.2,75.0,29.90,SSE,160,3.0,6.0,78,0.00,,,0.00,weatherlink.com 1.10,2013-07-08 17:17:00,
2013-07-08 13:18:00,70.7,69.2,29.93,East,101,2.0,10.0,95,0.11,,CLR,0.30,VWS V14.01,2013-07-08 17:18:00,
2013-07-08 13:19:00,70.7,69.2,29.93,East,83,4.0,10.0,95,0.11,,CLR,0.30,VWS V14.01,2013-07-08 17:19:00,
2013-07-08 13:20:00,70.7,69.2,29.93,SSW,201,1.0,7.0,95,0.11,,CLR,0.30,VWS V14.01,2013-07-08 17:20:00,
2013-07-08 13:21:00,70.7,69.5,29.93,East,89,2.0,7.0,96,0.11,,CLR,0.30,VWS V14.01,2013-07-08 17:21:00,
2013-07-08 13:22:00,70.6,69.4,29.93,East,89,0.0,7.0,96,0.11,,CLR,0.30,VWS V14.01,2013-07-08 17:22:00,
2013-07-08 13:23:00,70.6,69.4,29.92,SSE,163,3.0,4.0,96,0.11,,CLR,0.30,VWS V14.01,2013-07-08 17:23:00,
2013-07-08 13:24:00,70.6,69.4,29.92,SE,127,1.0,4.0,96,0.11,,CLR,0.30,VWS V14.01,2013-07-08 17:24:00,
2013-07-08 13:25:00,70.6,69.4,29.92,SE,131,4.0,4.0,96,0.11,,CLR,0.30,VWS V14.01,2013-07-08 17:25:00,
2013-07-08 13:26:00,70.5,69.3,29.92,ESE,122,2.0,7.0,96,0.11,,CLR,0.30,VWS V14.01,2013-07-08 17:26:00,
2013-07-08 13:27:00,70.5,69.3,29.93,ENE,66,3.0,7.0,96,0.11,,CLR,0.30,VWS V14.01,2013-07-08 17:27:00,
2013-07-08 13:28:00,70.5,69.3,29.93,ESE,115,1.0,7.0,96,0.11,,CLR,0.30,VWS V14.01,2013-07-08 17:28:00,
2013-07-08 13:29:00,70.5,69.3,29.93,SE,131,5.0,7.0,96,0.11,,CLR,0.30,VWS V14.01,2013-07-08 17:29:00,
2013-07-08 13:30:00,70.5,69.3,29.93,South,169,2.0,5.0,96,0.11,,CLR,0.30,VWS V14.01,2013-07-08 17:30:00,
2013-07-08 13:31:00,70.5,69.3,29.93,SSE,150,2.0,5.0,96,0.05,,CLR,0.30,VWS V14.01,2013-07-08 17:31:00,
2013-07-08 13:32:00,70.5,69.3,29.93,SSE,152,1.0,5.0,96,0.05,,CLR,0.30,VWS V14.01,2013-07-08 17:32:00,
2013-07-08 13:33:00,70.5,69.3,29.93,ESE,117,2.0,5.0,96,0.05,,CLR,0.30,VWS V14.01,2013-07-08 17:33:00,
2013-07-08 13:34:00,70.5,69.3,29.93,ESE,117,3.0,3.0,96,0.05,,CLR,0.30,VWS V14.01,2013-07-08 17:34:00,
2013-07-08 13:35:00,70.5,69.3,29.93,East,94,1.0,3.0,96,0.05,,CLR,0.30,VWS V14.01,2013-07-08 17:35:00,
2013-07-08 13:36:00,70.4,69.2,29.93,SSE,150,3.0,4.0,96,0.05,,CLR,0.30,VWS V14.01,2013-07-08 17:36:00,
2013-07-08 13:37:00,70.4,69.2,29.93,NNE,27,1.0,4.0,96,0.05,,CLR,0.30,VWS V14.01,2013-07-08 17:37:00,
2013-07-08 13:38:00,70.4,69.2,29.93,SE,141,0.0,4.0,96,0.05,,CLR,0.30,VWS V14.01,2013-07-08 17:38:00,
2013-07-08 13:39:00,70.3,69.1,29.93,NNE,20,1.0,4.0,96,0.05,,CLR,0.30,VWS V14.01,2013-07-08 17:39:00,
2013-07-08 13:40:00,70.3,69.1,29.93,East,101,5.0,5.0,96,0.05,,CLR,0.30,VWS V14.01,2013-07-08 17:40:00,
2013-07-08 13:41:00,70.2,69.0,29.94,SE,129,4.0,5.0,96,0.05,,CLR,0.30,VWS V14.01,2013-07-08 17:41:00,
2013-07-08 13:42:00,70.1,68.9,29.94,East,94,3.0,8.0,96,0.05,,CLR,0.30,VWS V14.01,2013-07-08 17:42:00,
2013-07-08 13:43:00,70.1,68.9,29.94,ENE,67,2.0,8.0,96,0.05,,CLR,0.30,VWS V14.01,2013-07-08 17:43:00,
2013-07-08 13:44:00,70.1,68.9,29.94,NE,40,0.0,8.0,96,0.05,,CLR,0.30,VWS V14.01,2013-07-08 17:44:00,
2013-07-08 13:45:00,70.0,68.8,29.94,NE,42,0.0,5.0,96,0.05,,CLR,0.30,VWS V14.01,2013-07-08 17:45:00,
2013-07-08 13:46:00,70.0,68.8,29.94,ENE,60,2.0,2.0,96,0.04,,CLR,0.30,VWS V14.01,2013-07-08 17:46:00,
2013-07-08 13:47:00,70.0,68.8,29.94,East,94,0.0,2.0,96,0.04,,CLR,0.30,VWS V14.01,2013-07-08 17:47:00,
2013-07-08 13:48:00,70.0,68.8,29.94,NE,41,1.0,2.0,96,0.04,,CLR,0.30,VWS V14.01,2013-07-08 17:48:00,
2013-07-08 13:49:00,69.9,68.7,29.94,ESE,114,1.0,2.0,96,0.04,,CLR,0.30,VWS V14.01,2013-07-08 17:49:00,
2013-07-08 13:50:00,69.9,68.7,29.94,SE,129,0.0,2.0,96,0.04,,CLR,0.30,VWS V14.01,2013-07-08 17:50:00,
2013-07-08 13:51:00,80.5,74.0,29.90,NE,48,2.0,9.0,81,0.00,,,0.00,weatherlink.com 1.10,2013-07-08 17:51:00,
2013-07-08 13:52:00,69.9,69.0,29.95,SE,128,0.0,2.0,97,0.04,,CLR,0.30,VWS V14.01,2013-07-08 17:52:00,
2013-07-08 13:53:00,69.9,69.0,29.95,SE,129,0.0,2.0,97,0.04,,CLR,0.30,VWS V14.01,2013-07-08 17:53:00,
2013-07-08 13:54:00,69.9,69.0,29.95,SE,128,0.0,0.0,97,0.04,,CLR,0.30,VWS V14.01,2013-07-08 17:54:00,
2013-07-08 13:55:00,69.9,69.0,29.95,East,97,0.0,2.0,97,0.04,,CLR,0.30,VWS V14.01,2013-07-08 17:55:00,
2013-07-08 13:56:00,69.9,69.0,29.95,East,93,2.0,2.0,97,0.04,,CLR,0.30,VWS V14.01,2013-07-08 17:56:00,
2013-07-08 13:57:00,69.9,69.0,29.94,East,93,1.0,2.0,97,0.04,,CLR,0.30,VWS V14.01,2013-07-08 17:57:00,
2013-07-08 13:58:00,69.9,69.0,29.94,ESE,108,1.0,2.0,97,0.04,,CLR,0.30,VWS V14.01,2013-07-08 17:58:00,
2013-07-08 13:59:00,69.9,69.0,29.95,ESE,109,0.0,2.0,97,0.04,,CLR,0.30,VWS V14.01,2013-07-08 17:59:00,
2013-07-08 14:00:00,69.9,69.0,29.95,ESE,109,0.0,2.0,97,0.04,,CLR,0.30,VWS V14.01,2013-07-08 18:00:00,
2013-07-08 14:01:00,69.9,69.0,29.95,North,350,0.0,2.0,97,0.00,,CLR,0.30,VWS V14.01,2013-07-08 18:01:00,
2013-07-08 14:02:00,69.9,69.0,29.95,North,350,1.0,2.0,97,0.00,,CLR,0.30,VWS V14.01,2013-07-08 18:02:00,
2013-07-08 14:03:00,69.9,69.0,29.95,North,4,1.0,2.0,97,0.00,,CLR,0.30,VWS V14.01,2013-07-08 18:03:00,
2013-07-08 14:04:00,69.9,69.0,29.95,North,3,1.0,2.0,97,0.00,,CLR,0.30,VWS V14.01,2013-07-08 18:04:00,
2013-07-08 14:05:00,69.9,69.0,29.95,North,8,0.0,2.0,97,0.00,,CLR,0.30,VWS V14.01,2013-07-08 18:05:00,
2013-07-08 14:06:00,69.8,68.9,29.95,North,8,0.0,2.0,97,0.00,,CLR,0.30,VWS V14.01,2013-07-08 18:06:00,
2013-07-08 14:07:00,69.8,68.9,29.95,NNE,33,1.0,4.0,97,0.00,,CLR,0.30,VWS V14.01,2013-07-08 18:07:00,
2013-07-08 14:08:00,69.8,68.9,29.95,NNE,33,0.0,4.0,97,0.00,,CLR,0.30,VWS V14.01,2013-07-08 18:08:00,
2013-07-08 14:09:00,69.7,68.8,29.95,NE,42,0.0,4.0,97,0.00,,CLR,0.30,VWS V14.01,2013-07-08 18:09:00,
2013-07-08 14:10:00,69.7,68.8,29.95,NE,37,3.0,4.0,97,0.00,,CLR,0.30,VWS V14.01,2013-07-08 18:10:00,
2013-07-08 14:11:00,69.7,68.8,29.95,North,10,1.0,3.0,97,0.00,,CLR,0.30,VWS V14.01,2013-07-08 18:11:00,
2013-07-08 14:12:00,69.6,68.7,29.95,NE,35,1.0,3.0,97,0.00,,CLR,0.30,VWS V14.01,2013-07-08 18:12:00,
2013-07-08 14:13:00,69.6,68.7,29.95,NNE,27,3.0,4.0,97,0.00,,CLR,0.30,VWS V14.01,2013-07-08 18:13:00,
2013-07-08 14:14:00,69.6,68.7,29.95,NE,41,0.0,4.0,97,0.00,,CLR,0.30,VWS V14.01,2013-07-08 18:14:00,
2013-07-08 14:15:00,69.5,68.6,29.95,North,360,2.0,4.0,97,0.00,,CLR,0.30,VWS V14.01,2013-07-08 18:15:00,
2013-07-08 14:16:00,69.6,68.7,29.95,NE,41,1.0,4.0,97,0.00,,CLR,0.30,VWS V14.01,2013-07-08 18:16:00,
2013-07-08 14:17:00,69.5,68.6,29.95,ENE,61,1.0,3.0,97,0.00,,CLR,0.30,VWS V14.01,2013-07-08 18:17:00,
2013-07-08 14:18:00,69.5,68.6,29.95,ENE,57,0.0,3.0,97,0.00,,CLR,0.30,VWS V14.01,2013-07-08 18:18:00,
2013-07-08 14:19:00,69.5,68.6,29.95,NNE,32,1.0,3.0,97,0.00,,CLR,0.30,VWS V14.01,2013-07-08 18:19:00,
2013-07-08 14:20:00,69.4,68.5,29.95,NNE,33,1.0,4.0,97,0.00,,CLR,0.30,VWS V14.01,2013-07-08 18:20:00,
2013-07-08 14:21:00,69.4,68.5,29.95,NE,47,1.0,4.0,97,0.00,,CLR,0.30,VWS V14.01,2013-07-08 18:21:00,
2013-07-08 14:22:00,69.4,68.8,29.95,NE,49,1.0,4.0,98,0.00,,CLR,0.30,VWS V14.01,2013-07-08 18:22:00,
2013-07-08 14:23:00,69.4,68.8,29.95,NE,41,4.0,4.0,98,0.00,,CLR,0.30,VWS V14.01,2013-07-08 18:23:00,
2013-07-08 14:24:00,77.2,75.0,29.90,ENE,63,1.0,5.0,93,0.14,,,0.14,weatherlink.com 1.10,2013-07-08 18:24:00,
2013-07-08 14:25:00,69.3,68.4,29.95,NE,43,4.0,4.0,97,0.00,,CLR,0.30,VWS V14.01,2013-07-08 18:25:00,
2013-07-08 14:26:00,69.3,68.7,29.95,NE,36,2.0,4.0,98,0.00,,CLR,0.30,VWS V14.01,2013-07-08 18:26:00,
2013-07-08 14:27:00,69.2,68.3,29.95,NNE,33,1.0,4.0,97,0.00,,CLR,0.30,VWS V14.01,2013-07-08 18:27:00,
2013-07-08 14:28:00,69.2,68.6,29.95,ENE,69,1.0,5.0,98,0.00,,CLR,0.30,VWS V14.01,2013-07-08 18:28:00,
2013-07-08 14:29:00,69.1,68.5,29.96,East,97,0.0,5.0,98,0.00,,CLR,0.30,VWS V14.01,2013-07-08 18:29:00,
2013-07-08 14:30:00,69.1,68.5,29.96,ENE,77,0.0,5.0,98,0.00,,CLR,0.30,VWS V14.01,2013-07-08 18:30:00,
2013-07-08 14:31:00,69.1,68.5,29.96,NNE,29,1.0,5.0,98,0.00,,CLR,0.30,VWS V14.01,2013-07-08 18:31:00,
2013-07-08 14:32:00,69.0,68.4,29.96,NE,56,0.0,3.0,98,0.00,,CLR,0.30,VWS V14.01,2013-07-08 18:32:00,
2013-07-08 14:33:00,69.0,68.4,29.96,NNE,32,2.0,4.0,98,0.00,,CLR,0.30,VWS V14.01,2013-07-08 18:33:00,
2013-07-08 14:34:00,68.9,68.0,29.95,NNE,32,0.0,4.0,97,0.00,,CLR,0.30,VWS V14.01,2013-07-08 18:34:00,
2013-07-08 14:35:00,68.9,68.3,29.96,NE,47,1.0,4.0,98,0.00,,CLR,0.30,VWS V14.01,2013-07-08 18:35:00,
2013-07-08 14:36:00,68.9,68.3,29.96,ENE,60,2.0,4.0,98,0.00,,CLR,0.30,VWS V14.01,2013-07-08 18:36:00,
2013-07-08 14:37:00,68.8,68.2,29.96,ENE,58,1.0,2.0,98,0.00,,CLR,0.30,VWS V14.01,2013-07-08 18:37:00,
2013-07-08 14:38:00,68.8,68.2,29.96,NE,47,0.0,2.0,98,0.00,,CLR,0.30,VWS V14.01,2013-07-08 18:38:00,
2013-07-08 14:39:00,68.8,68.2,29.96,NE,45,1.0,2.0,98,0.00,,CLR,0.30,VWS V14.01,2013-07-08 18:39:00,
2013-07-08 14:40:00,68.8,68.2,29.96,NE,34,0.0,2.0,98,0.00,,CLR,0.30,VWS V14.01,2013-07-08 18:40:00,
2013-07-08 14:41:00,68.7,68.1,29.96,NNE,32,2.0,2.0,98,0.00,,CLR,0.30,VWS V14.01,2013-07-08 18:41:00,
2013-07-08 14:42:00,68.7,68.1,29.96,NE,42,1.0,3.0,98,0.00,,CLR,0.30,VWS V14.01,2013-07-08 18:42:00,
2013-07-08 14:43:00,68.7,68.1,29.96,NE,42,0.0,3.0,98,0.00,,CLR,0.30,VWS V14.01,2013-07-08 18:43:00,
2013-07-08 14:44:00,68.7,68.1,29.96,NNE,17,4.0,4.0,98,0.00,,CLR,0.30,VWS V14.01,2013-07-08 18:44:00,
2013-07-08 14:45:00,68.7,68.1,29.96,NNE,19,2.0,4.0,98,0.00,,CLR,0.30,VWS V14.01,2013-07-08 18:45:00,
2013-07-08 14:46:00,68.7,68.1,29.96,NNE,23,2.0,4.0,98,0.00,,CLR,0.30,VWS V14.01,2013-07-08 18:46:00,
2013-07-08 14:47:00,68.7,68.1,29.96,NNE,33,3.0,6.0,98,0.00,,CLR,0.30,VWS V14.01,2013-07-08 18:47:00,
2013-07-08 14:48:00,68.7,68.1,29.96,NE,37,0.0,6.0,98,0.00,,CLR,0.30,VWS V14.01,2013-07-08 18:48:00,
2013-07-08 14:49:00,68.6,68.0,29.96,NE,49,2.0,6.0,98,0.00,,CLR,0.30,VWS V14.01,2013-07-08 18:49:00,
2013-07-08 14:50:00,68.6,68.0,29.96,NE,46,1.0,6.0,98,0.00,,CLR,0.30,VWS V14.01,2013-07-08 18:50:00,
2013-07-08 14:51:00,68.6,68.0,29.96,NNE,23,0.0,3.0,98,0.00,,CLR,0.30,VWS V14.01,2013-07-08 18:51:00,
2013-07-08 14:52:00,68.6,68.0,29.96,NE,47,2.0,3.0,98,0.00,,CLR,0.30,VWS V14.01,2013-07-08 18:52:00,
2013-07-08 14:53:00,68.5,67.9,29.97,ENE,68,1.0,5.0,98,0.00,,CLR,0.30,VWS V14.01,2013-07-08 18:53:00,
2013-07-08 14:54:00,68.5,67.9,29.97,NE,46,1.0,5.0,98,0.00,,CLR,0.30,VWS V14.01,2013-07-08 18:54:00,
2013-07-08 14:55:00,68.5,67.9,29.97,NE,44,2.0,5.0,98,0.00,,CLR,0.30,VWS V14.01,2013-07-08 18:55:00,
2013-07-08 14:56:00,68.4,67.8,29.97,NNE,32,4.0,4.0,98,0.00,,CLR,0.30,VWS V14.01,2013-07-08 18:56:00,
2013-07-08 14:57:00,68.4,67.8,29.97,NNE,13,3.0,4.0,98,0.00,,CLR,0.30,VWS V14.01,2013-07-08 18:57:00,
2013-07-08 14:58:00,68.4,67.8,29.96,NE,34,2.0,4.0,98,0.00,,CLR,0.30,VWS V14.01,2013-07-08 18:58:00,
2013-07-08 14:59:00,68.4,67.8,29.96,NNE,32,0.0,4.0,98,0.00,,CLR,0.30,VWS V14.01,2013-07-08 18:59:00,
2013-07-08 15:00:00,68.3,67.7,29.96,NE,34,0.0,4.0,98,0.00,,CLR,0.30,VWS V14.01,2013-07-08 19:00:00,
2013-07-08 15:01:00,68.4,67.8,29.97,NE,49,2.0,4.0,98,0.00,,CLR,0.30,VWS V14.01,2013-07-08 19:01:00,
2013-07-08 15:02:00,68.4,67.8,29.97,East,91,0.0,2.0,98,0.00,,CLR,0.30,VWS V14.01,2013-07-08 19:02:00,
2013-07-08 15:03:00,68.4,67.8,29.97,NE,51,0.0,4.0,98,0.00,,CLR,0.30,VWS V14.01,2013-07-08 19:03:00,
2013-07-08 15:04:00,68.4,67.8,29.97,NE,51,1.0,4.0,98,0.00,,CLR,0.30,VWS V14.01,2013-07-08 19:04:00,
2013-07-08 15:05:00,68.3,67.7,29.97,NNE,15,3.0,4.0,98,0.00,,CLR,0.30,VWS V14.01,2013-07-08 19:05:00,
2013-07-08 15:06:00,68.3,67.7,29.97,NE,37,2.0,4.0,98,0.00,,CLR,0.30,VWS V14.01,2013-07-08 19:06:00,
2013-07-08 15:07:00,68.3,67.7,29.97,NE,47,2.0,4.0,98,0.00,,CLR,0.30,VWS V14.01,2013-07-08 19:07:00,
2013-07-08 15:08:00,68.3,67.7,29.97,NE,43,1.0,4.0,98,0.00,,CLR,0.30,VWS V14.01,2013-07-08 19:08:00,
2013-07-08 15:09:00,68.2,67.6,29.97,NE,43,5.0,5.0,98,0.00,,CLR,0.30,VWS V14.01,2013-07-08 19:09:00,
2013-07-08 15:10:00,68.2,67.6,29.97,NE,49,1.0,5.0,98,0.00,,CLR,0.30,VWS V14.01,2013-07-08 19:10:00,
2013-07-08 15:11:00,68.2,67.6,29.97,NE,47,0.0,5.0,98,0.00,,CLR,0.30,VWS V14.01,2013-07-08 19:11:00,
2013-07-08 15:12:00,81.7,77.0,29.90,NE,56,1.0,7.0,84,0.00,,,0.14,weatherlink.com 1.10,2013-07-08 19:12:00,
2013-07-08 15:13:00,68.2,67.6,29.97,NNE,31,1.0,4.0,98,0.00,,CLR,0.30,VWS V14.01,2013-07-08 19:13:00,
2013-07-08 15:14:00,68.1,67.5,29.97,NNE,30,1.0,4.0,98,0.00,,CLR,0.30,VWS V14.01,2013-07-08 19:14:00,
2013-07-08 15:15:00,68.1,67.5,29.97,NNE,33,2.0,4.0,98,0.00,,CLR,0.30,VWS V14.01,2013-07-08 19:15:00,
2013-07-08 15:16:00,68.1,67.5,29.97,NNE,25,1.0,3.0,98,0.00,,CLR,0.30,VWS V14.01,2013-07-08 19:16:00,
2013-07-08 15:17:00,68.0,67.4,29.97,NNE,25,0.0,3.0,98,0.00,,CLR,0.30,VWS V14.01,2013-07-08 19:17:00,
2013-07-08 15:18:00,68.0,67.4,29.97,NE,34,4.0,6.0,98,0.00,,CLR,0.30,VWS V14.01,2013-07-08 19:18:00,
2013-07-08 15:19:00,68.0,67.4,29.98,NE,40,1.0,6.0,98,0.00,,CLR,0.30,VWS V14.01,2013-07-08 19:19:00,
2013-07-08 15:20:00,68.0,67.4,29.98,NNE,20,2.0,6.0,98,0.00,,CLR,0.30,VWS V14.01,2013-07-08 19:20:00,
2013-07-08 15:21:00,67.9,67.3,29.98,NE,42,3.0,6.0,98,0.00,,CLR,0.30,VWS V14.01,2013-07-08 19:21:00,
2013-07-08 15:22:00,67.9,67.3,29.98,NNW,342,1.0,3.0,98,0.00,,CLR,0.30,VWS V14.01,2013-07-08 19:22:00,
2013-07-08 15:23:00,67.9,67.3,29.98,NNW,342,0.0,3.0,98,0.00,,CLR,0.30,VWS V14.01,2013-07-08 19:23:00,
2013-07-08 15:24:00,67.9,67.3,29.98,NNW,341,0.0,3.0,98,0.00,,CLR,0.30,VWS V14.01,2013-07-08 19:24:00,
2013-07-08 15:25:00,67.8,67.2,29.98,NE,49,2.0,4.0,98,0.00,,CLR,0.30,VWS V14.01,2013-07-08 19:25:00,
2013-07-08 15:26:00,67.8,67.2,29.98,NE,47,1.0,4.0,98,0.00,,CLR,0.30,VWS V14.01,2013-07-08 19:26:00,
2013-07-08 15:27:00,67.8,67.2,29.98,NNE,32,2.0,4.0,98,0.00,,CLR,0.30,VWS V14.01,2013-07-08 19:27:00,
2013-07-08 15:28:00,67.7,67.1,29.98,NNE,31,0.0,4.0,98,0.00,,CLR,0.30,VWS V14.01,2013-07-08 19:28:00,
2013-07-08 15:29:00,82.7,76.0,29.89,ENE,58,1.0,5.0,80,0.00,,,0.14,weatherlink.com 1.10,2013-07-08 19:29:00,
2013-07-08 15:30:00,67.8,67.2,29.98,NNE,30,1.0,3.0,98,0.00,,CLR,0.30,VWS V14.01,2013-07-08 19:30:00,
2013-07-08 15:31:00,67.8,67.2,29.98,NNE,30,0.0,2.0,98,0.00,,CLR,0.30,VWS V14.01,2013-07-08 19:31:00,
2013-07-08 15:32:00,67.8,67.2,29.99,NE,41,2.0,2.0,98,0.00,,CLR,0.30,VWS V14.01,2013-07-08 19:32:00,
2013-07-08 15:33:00,67.7,67.1,29.99,NE,34,0.0,3.0,98,0.00,,CLR,0.30,VWS V14.01,2013-07-08 19:33:00,
2013-07-08 15:34:00,67.7,67.1,29.99,NE,34,1.0,3.0,98,0.00,,CLR,0.30,VWS V14.01,2013-07-08 19:34:00,
2013-07-08 15:35:00,67.7,67.1,29.99,NE,34,0.0,3.0,98,0.00,,CLR,0.30,VWS V14.01,2013-07-08 19:35:00,
2013-07-08 15:36:00,67.7,67.1,29.99,NNE,33,2.0,3.0,98,0.00,,CLR,0.30,VWS V14.01,2013-07-08 19:36:00,
2013-07-08 15:37:00,67.7,67.1,29.99,NNE,32,1.0,2.0,98,0.00,,CLR,0.30,VWS V14.01,2013-07-08 19:37:00,
2013-07-08 15:38:00,67.7,67.1,29.99,NNE,32,0.0,2.0,98,0.00,,CLR,0.30,VWS V14.01,2013-07-08 19:38:00,
2013-07-08 15:40:00,67.7,67.4,29.99,NE,34,1.0,1.0,99,0.00,,CLR,0.30,VWS V14.01,2013-07-08 19:40:00,
2013-07-08 15:41:00,67.7,67.1,29.99,NE,41,0.0,1.0,98,0.00,,CLR,0.30,VWS V14.01,2013-07-08 19:41:00,
2013-07-08 15:42:00,67.6,67.0,29.99,NE,40,1.0,1.0,98,0.00,,CLR,0.30,VWS V14.01,2013-07-08 19:42:00,
2013-07-08 15:43:00,67.7,67.1,29.99,NE,40,1.0,2.0,98,0.00,,CLR,0.30,VWS V14.01,2013-07-08 19:43:00,
2013-07-08 15:44:00,67.6,67.0,29.99,NE,46,0.0,2.0,98,0.00,,CLR,0.30,VWS V14.01,2013-07-08 19:44:00,
2013-07-08 15:45:00,83.5,76.0,29.89,ESE,121,5.0,6.0,78,0.00,,,0.14,weatherlink.com 1.10,2013-07-08 19:45:00,
2013-07-08 15:46:00,67.6,67.0,29.99,NE,44,0.0,2.0,98,0.00,,CLR,0.30,VWS V14.01,2013-07-08 19:46:00,
2013-07-08 15:47:00,67.7,67.4,29.99,NE,44,0.0,1.0,99,0.00,,CLR,0.30,VWS V14.01,2013-07-08 19:47:00,
2013-07-08 15:48:00,67.7,67.4,29.99,NNE,32,1.0,1.0,99,0.00,,CLR,0.30,VWS V14.01,2013-07-08 19:48:00,
2013-07-08 15:49:00,67.7,67.4,29.99,NNE,13,2.0,2.0,99,0.00,,CLR,0.30,VWS V14.01,2013-07-08 19:49:00,
2013-07-08 15:50:00,67.7,67.4,29.99,North,8,0.0,2.0,99,0.00,,CLR,0.30,VWS V14.01,2013-07-08 19:50:00,
2013-07-08 15:51:00,67.7,67.4,29.99,ENE,59,2.0,2.0,99,0.00,,CLR,0.30,VWS V14.01,2013-07-08 19:51:00,
2013-07-08 15:52:00,67.7,67.4,29.99,NNE,21,0.0,2.0,99,0.00,,CLR,0.30,VWS V14.01,2013-07-08 19:52:00,
2013-07-08 15:53:00,67.6,67.3,29.99,ENE,59,0.0,2.0,99,0.00,,CLR,0.30,VWS V14.01,2013-07-08 19:53:00,
2013-07-08 15:54:00,67.7,67.4,29.99,ENE,59,0.0,2.0,99,0.00,,CLR,0.30,VWS V14.01,2013-07-08 19:54:00,
2013-07-08 15:55:00,67.6,67.3,29.99,ENE,59,0.0,2.0,99,0.00,,CLR,0.30,VWS V14.01,2013-07-08 19:55:00,
2013-07-08 15:56:00,67.7,67.4,29.99,ENE,59,0.0,1.0,99,0.00,,CLR,0.30,VWS V14.01,2013-07-08 19:56:00,
2013-07-08 15:57:00,67.7,67.4,29.99,ENE,59,0.0,1.0,99,0.00,,CLR,0.30,VWS V14.01,2013-07-08 19:57:00,
2013-07-08 15:58:00,67.7,67.4,29.99,ENE,59,0.0,1.0,99,0.00,,CLR,0.30,VWS V14.01,2013-07-08 19:58:00,
2013-07-08 15:59:00,67.7,67.4,29.99,ENE,59,0.0,1.0,99,0.00,,CLR,0.30,VWS V14.01,2013-07-08 19:59:00,
2013-07-08 16:00:00,67.7,67.4,29.99,ENE,59,0.0,0.0,99,0.00,,CLR,0.30,VWS V14.01,2013-07-08 20:00:00,
2013-07-08 16:01:00,67.7,67.4,29.99,ENE,60,0.0,0.0,99,0.00,,CLR,0.30,VWS V14.01,2013-07-08 20:01:00,
2013-07-08 16:02:00,83.2,75.0,29.89,SE,142,5.0,7.0,76,0.00,,,0.14,weatherlink.com 1.10,2013-07-08 20:02:00,
2013-07-08 16:03:00,67.7,67.4,30.00,ENE,59,0.0,1.0,99,0.00,,CLR,0.30,VWS V14.01,2013-07-08 20:03:00,
2013-07-08 16:04:00,67.7,67.4,30.00,ENE,59,0.0,1.0,99,0.00,,CLR,0.30,VWS V14.01,2013-07-08 20:04:00,
2013-07-08 16:05:00,67.7,67.4,29.99,ENE,59,1.0,1.0,99,0.00,,CLR,0.30,VWS V14.01,2013-07-08 20:05:00,
2013-07-08 16:06:00,67.7,67.4,29.99,ENE,57,2.0,2.0,99,0.00,,CLR,0.30,VWS V14.01,2013-07-08 20:06:00,
2013-07-08 16:07:00,67.7,67.4,29.99,ENE,57,1.0,2.0,99,0.00,,CLR,0.30,VWS V14.01,2013-07-08 20:07:00,
2013-07-08 16:08:00,67.6,67.0,29.99,ENE,57,0.0,2.0,98,0.00,,CLR,0.30,VWS V14.01,2013-07-08 20:08:00,
2013-07-08 16:09:00,67.6,67.3,29.99,ENE,57,0.0,2.0,99,0.00,,CLR,0.30,VWS V14.01,2013-07-08 20:09:00,
2013-07-08 16:10:00,67.6,67.3,29.99,ENE,57,0.0,1.0,99,0.00,,CLR,0.30,VWS V14.01,2013-07-08 20:10:00,
2013-07-08 16:11:00,67.6,67.3,29.99,ENE,57,0.0,1.0,99,0.00,,CLR,0.30,VWS V14.01,2013-07-08 20:11:00,
2013-07-08 16:12:00,67.6,67.3,29.99,ENE,57,1.0,1.0,99,0.00,,CLR,0.30,VWS V14.01,2013-07-08 20:12:00,
2013-07-08 16:13:00,67.7,67.4,29.99,ENE,57,1.0,1.0,99,0.00,,CLR,0.30,VWS V14.01,2013-07-08 20:13:00,
2013-07-08 16:14:00,67.7,67.4,29.99,ENE,57,1.0,1.0,99,0.00,,CLR,0.30,VWS V14.01,2013-07-08 20:14:00,
2013-07-08 16:15:00,67.7,67.4,29.99,ENE,57,1.0,1.0,99,0.00,,CLR,0.30,VWS V14.01,2013-07-08 20:15:00,
2013-07-08 16:16:00,67.6,67.3,29.99,ENE,57,0.0,1.0,99,0.00,,CLR,0.30,VWS V14.01,2013-07-08 20:16:00,
2013-07-08 16:17:00,67.7,67.4,29.99,ENE,57,0.0,1.0,99,0.00,,CLR,0.30,VWS V14.01,2013-07-08 20:17:00,
2013-07-08 16:18:00,67.7,67.4,29.99,NE,53,1.0,1.0,99,0.00,,CLR,0.30,VWS V14.01,2013-07-08 20:18:00,
2013-07-08 16:19:00,67.7,67.4,29.99,NE,53,1.0,1.0,99,0.00,,CLR,0.30,VWS V14.01,2013-07-08 20:19:00,
2013-07-08 16:20:00,67.7,67.4,29.99,NE,53,0.0,1.0,99,0.00,,CLR,0.30,VWS V14.01,2013-07-08 20:20:00,
2013-07-08 16:21:00,67.7,67.4,29.99,NE,54,1.0,1.0,99,0.00,,CLR,0.30,VWS V14.01,2013-07-08 20:21:00,
2013-07-08 16:22:00,67.7,67.4,29.99,NE,54,0.0,1.0,99,0.00,,CLR,0.30,VWS V14.01,2013-07-08 20:22:00,
2013-07-08 16:23:00,67.7,67.4,29.99,NE,53,0.0,1.0,99,0.00,,CLR,0.30,VWS V14.01,2013-07-08 20:23:00,
2013-07-08 16:24:00,67.7,67.4,29.99,NE,54,0.0,1.0,99,0.00,,CLR,0.30,VWS V14.01,2013-07-08 20:24:00,
2013-07-08 16:25:00,67.8,67.5,29.99,NE,54,0.0,1.0,99,0.00,,CLR,0.30,VWS V14.01,2013-07-08 20:25:00,
2013-07-08 16:26:00,67.7,67.4,29.99,NNE,23,2.0,2.0,99,0.00,,CLR,0.30,VWS V14.01,2013-07-08 20:26:00,
2013-07-08 16:27:00,67.7,67.4,29.99,NNE,25,1.0,2.0,99,0.00,,CLR,0.30,VWS V14.01,2013-07-08 20:27:00,
2013-07-08 16:28:00,67.6,67.3,29.99,NNE,25,0.0,2.0,99,0.00,,CLR,0.30,VWS V14.01,2013-07-08 20:28:00,
2013-07-08 16:29:00,67.6,67.3,29.99,NNE,25,0.0,2.0,99,0.00,,CLR,0.30,VWS V14.01,2013-07-08 20:29:00,
2013-07-08 16:30:00,67.7,67.4,29.99,NNE,25,0.0,1.0,99,0.00,,CLR,0.30,VWS V14.01,2013-07-08 20:30:00,
2013-07-08 16:31:00,67.7,67.4,29.99,NNE,25,0.0,1.0,99,0.00,,CLR,0.30,VWS V14.01,2013-07-08 20:31:00,
2013-07-08 16:32:00,67.7,67.4,29.99,NNE,25,0.0,1.0,99,0.00,,CLR,0.30,VWS V14.01,2013-07-08 20:32:00,
2013-07-08 16:33:00,67.7,67.4,29.99,NNE,23,0.0,1.0,99,0.00,,CLR,0.30,VWS V14.01,2013-07-08 20:33:00,
2013-07-08 16:34:00,67.7,67.4,29.99,NNE,23,0.0,1.0,99,0.00,,CLR,0.30,VWS V14.01,2013-07-08 20:34:00,
2013-07-08 16:35:00,67.7,67.4,29.99,NNE,25,0.0,1.0,99,0.00,,CLR,0.30,VWS V14.01,2013-07-08 20:35:00,
2013-07-08 16:36:00,67.6,67.3,29.99,NE,49,2.0,2.0,99,0.00,,CLR,0.30,VWS V14.01,2013-07-08 20:36:00,
2013-07-08 16:37:00,67.6,67.3,30.00,NNE,32,0.0,3.0,99,0.00,,CLR,0.30,VWS V14.01,2013-07-08 20:37:00,
2013-07-08 16:38:00,67.6,67.3,30.00,NNE,32,0.0,3.0,99,0.00,,CLR,0.30,VWS V14.01,2013-07-08 20:38:00,
2013-07-08 16:39:00,67.6,67.3,29.99,NNE,31,0.0,3.0,99,0.00,,CLR,0.30,VWS V14.01,2013-07-08 20:39:00,
2013-07-08 16:40:00,67.6,67.3,29.99,NNE,32,0.0,2.0,99,0.00,,CLR,0.30,VWS V14.01,2013-07-08 20:40:00,
2013-07-08 16:41:00,67.6,67.3,29.99,NNE,32,0.0,0.0,99,0.00,,CLR,0.30,VWS V14.01,2013-07-08 20:41:00,
2013-07-08 16:42:00,67.6,67.3,30.00,NE,34,0.0,0.0,99,0.00,,CLR,0.30,VWS V14.01,2013-07-08 20:42:00,
2013-07-08 16:43:00,67.6,67.3,29.99,ESE,111,0.0,0.0,99,0.00,,CLR,0.30,VWS V14.01,2013-07-08 20:43:00,
2013-07-08 16:44:00,67.5,67.2,29.99,ESE,117,0.0,0.0,99,0.00,,CLR,0.30,VWS V14.01,2013-07-08 20:44:00,
2013-07-08 16:45:00,67.5,67.2,29.99,SE,132,2.0,2.0,99,0.00,,CLR,0.30,VWS V14.01,2013-07-08 20:45:00,
2013-07-08 16:46:00,67.4,66.8,29.99,ESE,108,0.0,2.0,98,0.00,,CLR,0.30,VWS V14.01,2013-07-08 20:46:00,
2013-07-08 16:47:00,67.4,66.8,29.99,SE,136,0.0,2.0,98,0.00,,CLR,0.30,VWS V14.01,2013-07-08 20:47:00,
2013-07-08 16:48:00,67.3,66.7,29.99,SE,129,1.0,2.0,98,0.00,,CLR,0.30,VWS V14.01,2013-07-08 20:48:00,
2013-07-08 16:49:00,67.3,66.7,29.99,East,85,1.0,2.0,98,0.00,,CLR,0.30,VWS V14.01,2013-07-08 20:49:00,
2013-07-08 16:50:00,67.3,66.7,29.99,East,84,0.0,2.0,98,0.00,,CLR,0.30,VWS V14.01,2013-07-08 20:50:00,
2013-07-08 16:51:00,67.2,66.6,29.99,SE,129,1.0,2.0,98,0.00,,CLR,0.30,VWS V14.01,2013-07-08 20:51:00,
2013-07-08 16:52:00,67.2,66.6,29.99,ENE,58,1.0,2.0,98,0.00,,CLR,0.30,VWS V14.01,2013-07-08 20:52:00,
2013-07-08 16:53:00,67.2,66.6,29.99,ENE,58,0.0,2.0,98,0.00,,CLR,0.30,VWS V14.01,2013-07-08 20:53:00,
2013-07-08 16:54:00,67.1,66.5,29.99,ESE,120,0.0,2.0,98,0.00,,CLR,0.30,VWS V14.01,2013-07-08 20:54:00,
2013-07-08 16:55:00,67.1,66.5,29.99,ESE,120,0.0,2.0,98,0.00,,CLR,0.30,VWS V14.01,2013-07-08 20:55:00,
2013-07-08 16:56:00,67.0,66.4,29.99,ESE,120,1.0,1.0,98,0.00,,CLR,0.30,VWS V14.01,2013-07-08 20:56:00,
2013-07-08 16:58:00,67.0,66.4,29.99,SW,225,1.0,1.0,98,0.00,,CLR,0.30,VWS V14.01,2013-07-08 20:58:00,
2013-07-08 16:59:00,67.0,66.4,29.99,ESE,118,1.0,1.0,98,0.00,,CLR,0.30,VWS V14.01,2013-07-08 20:59:00,
2013-07-08 17:00:00,67.0,66.4,29.99,SE,134,1.0,1.0,98,0.00,,CLR,0.30,VWS V14.01,2013-07-08 21:00:00,
2013-07-08 17:01:00,66.9,66.3,29.99,ESE,122,3.0,3.0,98,0.00,,CLR,0.30,VWS V14.01,2013-07-08 21:01:00,
2013-07-08 17:02:00,66.9,66.3,29.99,SSW,194,0.0,3.0,98,0.00,,CLR,0.30,VWS V14.01,2013-07-08 21:02:00,
2013-07-08 17:03:00,66.9,66.3,30.00,SE,131,0.0,3.0,98,0.00,,CLR,0.30,VWS V14.01,2013-07-08 21:03:00,
2013-07-08 17:04:00,66.8,66.2,30.00,SE,131,0.0,3.0,98,0.00,,CLR,0.30,VWS V14.01,2013-07-08 21:04:00,
2013-07-08 17:05:00,66.9,66.3,30.00,SE,129,1.0,1.0,98,0.00,,CLR,0.30,VWS V14.01,2013-07-08 21:05:00,
2013-07-08 17:06:00,66.9,66.3,30.00,North,9,1.0,1.0,98,0.00,,CLR,0.30,VWS V14.01,2013-07-08 21:06:00,
2013-07-08 17:07:00,66.9,66.3,30.00,North,10,0.0,1.0,98,0.00,,CLR,0.30,VWS V14.01,2013-07-08 21:07:00,
2013-07-08 17:08:00,66.9,66.3,30.00,NE,34,1.0,2.0,98,0.00,,CLR,0.30,VWS V14.01,2013-07-08 21:08:00,
2013-07-08 17:09:00,66.8,66.5,30.00,NNE,22,2.0,2.0,99,0.00,,CLR,0.30,VWS V14.01,2013-07-08 21:09:00,
2013-07-08 17:10:00,66.8,66.5,30.00,North,1,2.0,2.0,99,0.00,,CLR,0.30,VWS V14.01,2013-07-08 21:10:00,
2013-07-08 17:11:00,66.8,66.5,30.00,North,5,0.0,2.0,99,0.00,,CLR,0.30,VWS V14.01,2013-07-08 21:11:00,
2013-07-08 17:12:00,66.8,66.2,30.00,ENE,73,0.0,2.0,98,0.00,,CLR,0.30,VWS V14.01,2013-07-08 21:12:00,
2013-07-08 17:13:00,66.7,66.1,30.00,East,91,0.0,2.0,98,0.00,,CLR,0.30,VWS V14.01,2013-07-08 21:13:00,
2013-07-08 17:14:00,66.7,66.1,30.00,East,91,1.0,1.0,98,0.00,,CLR,0.30,VWS V14.01,2013-07-08 21:14:00,
2013-07-08 17:15:00,66.7,66.1,30.00,East,91,0.0,1.0,98,0.00,,CLR,0.30,VWS V14.01,2013-07-08 21:15:00,
2013-07-08 17:16:00,66.7,66.1,30.00,ESE,120,3.0,3.0,98,0.00,,CLR,0.30,VWS V14.01,2013-07-08 21:16:00,
2013-07-08 17:17:00,66.6,66.0,30.00,ESE,107,1.0,3.0,98,0.00,,CLR,0.30,VWS V14.01,2013-07-08 21:17:00,
2013-07-08 17:18:00,66.6,66.0,30.00,ESE,105,1.0,3.0,98,0.00,,CLR,0.30,VWS V14.01,2013-07-08 21:18:00,
2013-07-08 17:19:00,66.5,65.9,30.00,East,98,1.0,3.0,98,0.00,,CLR,0.30,VWS V14.01,2013-07-08 21:19:00,
2013-07-08 17:20:00,66.5,65.9,30.00,NNE,13,2.0,2.0,98,0.00,,CLR,0.30,VWS V14.01,2013-07-08 21:20:00,
2013-07-08 17:21:00,66.4,65.8,30.00,NE,49,0.0,2.0,98,0.00,,CLR,0.30,VWS V14.01,2013-07-08 21:21:00,
2013-07-08 17:22:00,66.4,65.8,30.00,NE,54,0.0,2.0,98,0.00,,CLR,0.30,VWS V14.01,2013-07-08 21:22:00,
2013-07-08 17:23:00,66.4,65.8,30.00,NE,51,1.0,2.0,98,0.00,,CLR,0.30,VWS V14.01,2013-07-08 21:23:00,
2013-07-08 17:24:00,66.3,65.7,30.00,East,86,1.0,2.0,98,0.00,,CLR,0.30,VWS V14.01,2013-07-08 21:24:00,
2013-07-08 17:25:00,66.3,65.7,30.00,NE,54,0.0,3.0,98,0.00,,CLR,0.30,VWS V14.01,2013-07-08 21:25:00,
2013-07-08 17:26:00,66.3,65.7,30.00,NE,54,1.0,3.0,98,0.00,,CLR,0.30,VWS V14.01,2013-07-08 21:26:00,
2013-07-08 17:27:00,66.2,65.6,30.00,East,100,1.0,3.0,98,0.00,,CLR,0.30,VWS V14.01,2013-07-08 21:27:00,
2013-07-08 17:28:00,66.2,65.6,30.00,East,98,0.0,3.0,98,0.00,,CLR,0.30,VWS V14.01,2013-07-08 21:28:00,
2013-07-08 17:29:00,66.2,65.6,30.00,East,96,0.0,2.0,98,0.00,,CLR,0.30,VWS V14.01,2013-07-08 21:29:00,
2013-07-08 17:30:00,66.1,65.5,30.00,North,9,4.0,4.0,98,0.00,,CLR,0.30,VWS V14.01,2013-07-08 21:30:00,
2013-07-08 17:31:00,66.1,65.5,30.00,NE,36,2.0,5.0,98,0.00,,CLR,0.30,VWS V14.01,2013-07-08 21:31:00,
2013-07-08 17:32:00,66.0,65.4,30.00,NE,37,1.0,5.0,98,0.00,,CLR,0.30,VWS V14.01,2013-07-08 21:32:00,
2013-07-08 17:33:00,66.0,65.4,30.00,East,96,1.0,5.0,98,0.00,,CLR,0.30,VWS V14.01,2013-07-08 21:33:00,
2013-07-08 17:34:00,66.0,65.4,30.00,East,96,0.0,5.0,98,0.00,,CLR,0.30,VWS V14.01,2013-07-08 21:34:00,
2013-07-08 17:35:00,66.0,65.4,30.00,ESE,115,0.0,1.0,98,0.00,,CLR,0.30,VWS V14.01,2013-07-08 21:35:00,
2013-07-08 17:36:00,66.0,65.4,30.00,ESE,114,1.0,1.0,98,0.00,,CLR,0.30,VWS V14.01,2013-07-08 21:36:00,
2013-07-08 17:37:00,65.9,65.3,30.00,ENE,78,0.0,5.0,98,0.00,,CLR,0.30,VWS V14.01,2013-07-08 21:37:00,
2013-07-08 17:38:00,65.9,65.3,30.00,SE,132,1.0,5.0,98,0.00,,CLR,0.30,VWS V14.01,2013-07-08 21:38:00,
2013-07-08 17:39:00,65.8,65.2,30.00,ESE,112,1.0,5.0,98,0.00,,CLR,0.30,VWS V14.01,2013-07-08 21:39:00,
2013-07-08 17:40:00,65.8,65.2,30.00,SSE,148,0.0,3.0,98,0.00,,CLR,0.30,VWS V14.01,2013-07-08 21:40:00,
2013-07-08 17:41:00,65.8,65.2,30.00,SSE,148,0.0,3.0,98,0.00,,CLR,0.30,VWS V14.01,2013-07-08 21:41:00,
2013-07-08 17:42:00,65.7,65.1,30.00,ESE,110,0.0,1.0,98,0.00,,CLR,0.30,VWS V14.01,2013-07-08 21:42:00,
2013-07-08 17:43:00,65.7,65.1,30.00,ESE,105,0.0,1.0,98,0.00,,CLR,0.30,VWS V14.01,2013-07-08 21:43:00,
2013-07-08 17:44:00,65.7,65.1,30.00,NE,47,2.0,2.0,98,0.00,,CLR,0.30,VWS V14.01,2013-07-08 21:44:00,
2013-07-08 17:45:00,65.7,65.1,30.01,ENE,63,1.0,2.0,98,0.00,,CLR,0.30,VWS V14.01,2013-07-08 21:45:00,
2013-07-08 17:46:00,65.7,65.1,30.01,ENE,64,0.0,2.0,98,0.00,,CLR,0.30,VWS V14.01,2013-07-08 21:46:00,
2013-07-08 17:47:00,65.6,65.0,30.01,ENE,64,0.0,2.0,98,0.00,,CLR,0.30,VWS V14.01,2013-07-08 21:47:00,
2013-07-08 17:48:00,65.7,65.1,30.01,ENE,64,0.0,1.0,98,0.00,,CLR,0.30,VWS V14.01,2013-07-08 21:48:00,
2013-07-08 17:49:00,65.7,65.1,30.01,ESE,108,1.0,1.0,98,0.00,,CLR,0.30,VWS V14.01,2013-07-08 21:49:00,
2013-07-08 17:50:00,65.7,65.1,30.01,SE,129,1.0,3.0,98,0.00,,CLR,0.30,VWS V14.01,2013-07-08 21:50:00,
2013-07-08 17:51:00,65.6,65.0,30.01,ESE,105,1.0,3.0,98,0.00,,CLR,0.30,VWS V14.01,2013-07-08 21:51:00,
2013-07-08 17:52:00,65.6,65.0,30.01,SSE,163,0.0,3.0,98,0.00,,CLR,0.30,VWS V14.01,2013-07-08 21:52:00,
2013-07-08 17:53:00,65.6,65.0,30.01,SSE,158,0.0,2.0,98,0.00,,CLR,0.30,VWS V14.01,2013-07-08 21:53:00,
2013-07-08 17:54:00,65.6,65.0,30.01,SSE,165,0.0,1.0,98,0.00,,CLR,0.30,VWS V14.01,2013-07-08 21:54:00,
2013-07-08 17:55:00,65.6,65.0,30.01,SE,143,0.0,1.0,98,0.00,,CLR,0.30,VWS V14.01,2013-07-08 21:55:00,
2013-07-08 17:56:00,65.6,65.0,30.01,SE,143,0.0,1.0,98,0.00,,CLR,0.30,VWS V14.01,2013-07-08 21:56:00,
2013-07-08 17:57:00,65.6,65.0,30.01,SE,143,0.0,0.0,98,0.00,,CLR,0.30,VWS V14.01,2013-07-08 21:57:00,
2013-07-08 17:58:00,65.6,65.0,30.01,SE,144,0.0,0.0,98,0.00,,CLR,0.30,VWS V14.01,2013-07-08 21:58:00,
2013-07-08 17:59:00,65.6,65.0,30.01,SE,144,0.0,0.0,98,0.00,,CLR,0.30,VWS V14.01,2013-07-08 21:59:00,
2013-07-08 18:00:00,65.5,64.9,30.01,SE,143,0.0,0.0,98,0.00,,CLR,0.30,VWS V14.01,2013-07-08 22:00:00,
2013-07-08 18:01:00,65.5,64.9,30.01,SE,143,0.0,0.0,98,0.00,,CLR,0.30,VWS V14.01,2013-07-08 22:01:00,
2013-07-08 18:02:00,65.6,65.0,30.01,SE,143,0.0,0.0,98,0.00,,CLR,0.30,VWS V14.01,2013-07-08 22:02:00,
2013-07-08 18:03:00,65.6,65.0,30.01,SE,144,0.0,0.0,98,0.00,,CLR,0.30,VWS V14.01,2013-07-08 22:03:00,
2013-07-08 18:04:00,65.6,65.0,30.01,SE,143,0.0,0.0,98,0.00,,CLR,0.30,VWS V14.01,2013-07-08 22:04:00,
2013-07-08 18:05:00,65.6,65.0,30.01,SE,145,0.0,0.0,98,0.00,,CLR,0.30,VWS V14.01,2013-07-08 22:05:00,
2013-07-08 18:06:00,65.6,65.0,30.01,ESE,108,0.0,0.0,98,0.00,,CLR,0.30,VWS V14.01,2013-07-08 22:06:00,
2013-07-08 18:07:00,65.6,65.0,30.01,ESE,109,0.0,0.0,98,0.00,,CLR,0.30,VWS V14.01,2013-07-08 22:07:00,
2013-07-08 18:08:00,65.6,65.0,30.01,NE,49,1.0,1.0,98,0.00,,CLR,0.30,VWS V14.01,2013-07-08 22:08:00,
2013-07-08 18:09:00,65.5,64.9,30.01,ESE,110,0.0,1.0,98,0.00,,CLR,0.30,VWS V14.01,2013-07-08 22:09:00,
2013-07-08 18:10:00,65.5,64.9,30.01,ESE,110,0.0,1.0,98,0.00,,CLR,0.30,VWS V14.01,2013-07-08 22:10:00,
2013-07-08 18:11:00,65.5,64.9,30.01,ESE,110,0.0,1.0,98,0.00,,CLR,0.30,VWS V14.01,2013-07-08 22:11:00,
2013-07-08 18:12:00,65.5,64.9,30.01,ESE,110,0.0,1.0,98,0.00,,CLR,0.30,VWS V14.01,2013-07-08 22:12:00,
2013-07-08 18:13:00,71.2,69.0,29.92,NE,49,1.0,4.0,94,0.11,,,0.25,weatherlink.com 1.10,2013-07-08 22:13:00,
2013-07-08 18:14:00,65.5,64.9,30.01,ESE,110,0.0,1.0,98,0.00,,CLR,0.30,VWS V14.01,2013-07-08 22:14:00,
2013-07-08 18:15:00,65.5,64.9,30.01,ESE,110,0.0,1.0,98,0.00,,CLR,0.30,VWS V14.01,2013-07-08 22:15:00,
2013-07-08 18:16:00,65.4,64.8,30.01,ESE,109,1.0,1.0,98,0.00,,CLR,0.30,VWS V14.01,2013-07-08 22:16:00,
2013-07-08 18:17:00,65.4,64.8,30.01,ESE,109,0.0,1.0,98,0.00,,CLR,0.30,VWS V14.01,2013-07-08 22:17:00,
2013-07-08 18:18:00,65.4,64.8,30.01,ESE,108,0.0,1.0,98,0.00,,CLR,0.30,VWS V14.01,2013-07-08 22:18:00,
2013-07-08 18:19:00,65.4,64.8,30.01,ESE,109,0.0,1.0,98,0.00,,CLR,0.30,VWS V14.01,2013-07-08 22:19:00,
2013-07-08 18:20:00,65.4,64.8,30.01,ESE,108,0.0,1.0,98,0.00,,CLR,0.30,VWS V14.01,2013-07-08 22:20:00,
2013-07-08 18:21:00,65.4,64.8,30.01,ESE,108,0.0,1.0,98,0.00,,CLR,0.30,VWS V14.01,2013-07-08 22:21:00,
2013-07-08 18:22:00,65.4,64.8,30.01,ESE,109,0.0,1.0,98,0.00,,CLR,0.30,VWS V14.01,2013-07-08 22:22:00,
2013-07-08 18:23:00,65.4,64.8,30.01,East,94,1.0,1.0,98,0.00,,CLR,0.30,VWS V14.01,2013-07-08 22:23:00,
2013-07-08 18:24:00,65.4,64.8,30.01,North,355,1.0,2.0,98,0.00,,CLR,0.30,VWS V14.01,2013-07-08 22:24:00,
2013-07-08 18:25:00,65.4,64.8,30.01,North,354,1.0,2.0,98,0.00,,CLR,0.30,VWS V14.01,2013-07-08 22:25:00,
2013-07-08 18:26:00,65.4,64.8,30.01,NNE,20,1.0,2.0,98,0.00,,CLR,0.30,VWS V14.01,2013-07-08 22:26:00,
2013-07-08 18:27:00,65.4,64.8,30.01,NNE,23,0.0,2.0,98,0.00,,CLR,0.30,VWS V14.01,2013-07-08 22:27:00,
2013-07-08 18:28:00,65.4,64.8,30.01,NE,38,3.0,3.0,98,0.00,,CLR,0.30,VWS V14.01,2013-07-08 22:28:00,
2013-07-08 18:29:00,65.4,64.8,30.01,NE,41,4.0,4.0,98,0.00,,CLR,0.30,VWS V14.01,2013-07-08 22:29:00,
2013-07-08 18:30:00,65.3,64.7,30.01,NNE,25,2.0,4.0,98,0.00,,CLR,0.30,VWS V14.01,2013-07-08 22:30:00,
2013-07-08 18:31:00,65.3,64.7,30.01,NNE,32,1.0,4.0,98,0.00,,CLR,0.30,VWS V14.01,2013-07-08 22:31:00,
2013-07-08 18:32:00,65.3,64.7,30.01,NNE,33,0.0,4.0,98,0.00,,CLR,0.30,VWS V14.01,2013-07-08 22:32:00,
2013-07-08 18:33:00,65.3,64.7,30.01,NE,37,1.0,3.0,98,0.00,,CLR,0.30,VWS V14.01,2013-07-08 22:33:00,
2013-07-08 18:34:00,65.3,64.7,30.01,NE,39,3.0,3.0,98,0.00,,CLR,0.30,VWS V14.01,2013-07-08 22:34:00,
2013-07-08 18:35:00,65.3,64.7,30.01,NE,34,0.0,3.0,98,0.00,,CLR,0.30,VWS V14.01,2013-07-08 22:35:00,
2013-07-08 18:36:00,65.3,64.7,30.01,NE,49,2.0,3.0,98,0.00,,CLR,0.30,VWS V14.01,2013-07-08 22:36:00,
2013-07-08 18:37:00,65.3,64.7,30.01,NE,43,1.0,3.0,98,0.00,,CLR,0.30,VWS V14.01,2013-07-08 22:37:00,
2013-07-08 18:38:00,65.3,64.7,30.01,NE,47,0.0,2.0,98,0.00,,CLR,0.30,VWS V14.01,2013-07-08 22:38:00,
2013-07-08 18:39:00,65.3,64.7,30.01,NE,47,0.0,2.0,98,0.00,,CLR,0.30,VWS V14.01,2013-07-08 22:39:00,
2013-07-08 18:40:00,65.3,64.7,30.01,ENE,60,0.0,2.0,98,0.00,,CLR,0.30,VWS V14.01,2013-07-08 22:40:00,
2013-07-08 18:41:00,65.3,64.7,30.00,NE,37,1.0,3.0,98,0.00,,CLR,0.30,VWS V14.01,2013-07-08 22:41:00,
2013-07-08 18:42:00,65.3,64.7,30.00,NE,41,1.0,3.0,98,0.00,,CLR,0.30,VWS V14.01,2013-07-08 22:42:00,
2013-07-08 18:43:00,65.3,64.7,30.00,NE,41,0.0,3.0,98,0.00,,CLR,0.30,VWS V14.01,2013-07-08 22:43:00,
2013-07-08 18:44:00,65.3,64.7,30.00,NE,40,0.0,3.0,98,0.00,,CLR,0.30,VWS V14.01,2013-07-08 22:44:00,
2013-07-08 18:45:00,71.3,70.0,29.92,East,100,0.0,7.0,96,0.15,,,0.30,weatherlink.com 1.10,2013-07-08 22:45:00,
2013-07-08 18:46:00,65.3,64.7,30.00,NNE,25,1.0,3.0,98,0.00,,CLR,0.30,VWS V14.01,2013-07-08 22:46:00,
2013-07-08 18:47:00,65.3,64.7,30.00,NNE,25,0.0,3.0,98,0.00,,CLR,0.30,VWS V14.01,2013-07-08 22:47:00,
2013-07-08 18:48:00,65.2,64.6,30.00,NNE,25,0.0,3.0,98,0.00,,CLR,0.30,VWS V14.01,2013-07-08 22:48:00,
2013-07-08 18:49:00,65.2,64.6,30.00,NNE,27,0.0,3.0,98,0.00,,CLR,0.30,VWS V14.01,2013-07-08 22:49:00,
2013-07-08 18:50:00,65.3,64.7,30.00,NNE,27,0.0,1.0,98,0.00,,CLR,0.30,VWS V14.01,2013-07-08 22:50:00,
2013-07-08 18:51:00,65.3,64.7,30.00,NNE,27,0.0,1.0,98,0.00,,CLR,0.30,VWS V14.01,2013-07-08 22:51:00,
2013-07-08 18:52:00,65.3,64.7,30.00,NNE,27,0.0,1.0,98,0.00,,CLR,0.30,VWS V14.01,2013-07-08 22:52:00,
2013-07-08 18:53:00,65.3,64.7,30.00,NNE,27,0.0,1.0,98,0.00,,CLR,0.30,VWS V14.01,2013-07-08 22:53:00,
2013-07-08 18:54:00,65.4,64.8,30.00,SE,129,1.0,1.0,98,0.00,,CLR,0.30,VWS V14.01,2013-07-08 22:54:00,
2013-07-08 18:55:00,65.4,64.8,30.00,ENE,63,0.0,1.0,98,0.00,,CLR,0.30,VWS V14.01,2013-07-08 22:55:00,
2013-07-08 18:56:00,65.4,64.8,30.00,ENE,63,0.0,1.0,98,0.00,,CLR,0.30,VWS V14.01,2013-07-08 22:56:00,
2013-07-08 18:57:00,65.4,64.8,30.00,ENE,64,0.0,1.0,98,0.00,,CLR,0.30,VWS V14.01,2013-07-08 22:57:00,
2013-07-08 18:58:00,65.4,64.8,30.00,ENE,64,0.0,1.0,98,0.00,,CLR,0.30,VWS V14.01,2013-07-08 22:58:00,
2013-07-08 18:59:00,65.4,64.8,30.00,ENE,64,0.0,0.0,98,0.00,,CLR,0.30,VWS V14.01,2013-07-08 22:59:00,
2013-07-08 19:00:00,65.4,64.8,30.00,ENE,64,0.0,0.0,98,0.00,,CLR,0.30,VWS V14.01,2013-07-08 23:00:00,
2013-07-08 19:01:00,65.4,64.8,30.00,ENE,63,0.0,0.0,98,0.00,,CLR,0.30,VWS V14.01,2013-07-08 23:01:00,
2013-07-08 19:02:00,65.4,64.8,30.00,ENE,68,0.0,0.0,98,0.00,,CLR,0.30,VWS V14.01,2013-07-08 23:02:00,
2013-07-08 19:03:00,65.4,64.8,30.00,ENE,68,0.0,0.0,98,0.00,,CLR,0.30,VWS V14.01,2013-07-08 23:03:00,
2013-07-08 19:04:00,65.4,64.8,30.00,ENE,68,1.0,1.0,98,0.00,,CLR,0.30,VWS V14.01,2013-07-08 23:04:00,
2013-07-08 19:05:00,65.4,64.8,30.00,SE,125,1.0,1.0,98,0.00,,CLR,0.30,VWS V14.01,2013-07-08 23:05:00,
2013-07-08 19:06:00,65.4,64.8,30.00,East,92,0.0,2.0,98,0.00,,CLR,0.30,VWS V14.01,2013-07-08 23:06:00,
2013-07-08 19:07:00,65.4,64.8,30.00,East,91,0.0,2.0,98,0.00,,CLR,0.30,VWS V14.01,2013-07-08 23:07:00,
2013-07-08 19:08:00,65.4,64.8,30.00,East,91,0.0,2.0,98,0.00,,CLR,0.30,VWS V14.01,2013-07-08 23:08:00,
2013-07-08 19:09:00,65.4,64.8,30.00,NNE,22,1.0,2.0,98,0.00,,CLR,0.30,VWS V14.01,2013-07-08 23:09:00,
2013-07-08 19:10:00,65.4,64.8,30.00,NNE,25,0.0,1.0,98,0.00,,CLR,0.30,VWS V14.01,2013-07-08 23:10:00,
2013-07-08 19:11:00,65.4,64.8,30.00,NNE,25,0.0,1.0,98,0.00,,CLR,0.30,VWS V14.01,2013-07-08 23:11:00,
2013-07-08 19:12:00,65.4,64.8,30.00,NNE,25,0.0,1.0,98,0.00,,CLR,0.30,VWS V14.01,2013-07-08 23:12:00,
2013-07-08 19:13:00,65.4,64.8,30.00,NNE,21,1.0,1.0,98,0.00,,CLR,0.30,VWS V14.01,2013-07-08 23:13:00,
2013-07-08 19:14:00,65.4,64.8,30.00,NNE,27,2.0,3.0,98,0.00,,CLR,0.30,VWS V14.01,2013-07-08 23:14:00,
2013-07-08 19:15:00,65.4,64.8,30.00,NE,37,2.0,3.0,98,0.00,,CLR,0.30,VWS V14.01,2013-07-08 23:15:00,
2013-07-08 19:16:00,65.3,64.7,30.00,NE,37,1.0,3.0,98,0.00,,CLR,0.30,VWS V14.01,2013-07-08 23:16:00,
2013-07-08 19:17:00,65.3,64.7,30.00,NE,37,1.0,2.0,98,0.00,,CLR,0.30,VWS V14.01,2013-07-08 23:17:00,
2013-07-08 19:18:00,70.1,69.0,29.94,SSE,152,2.0,8.0,96,0.05,,,0.30,weatherlink.com 1.10,2013-07-08 23:18:00,
2013-07-08 19:19:00,65.4,64.8,30.00,NNE,19,3.0,3.0,98,0.00,,CLR,0.30,VWS V14.01,2013-07-08 23:19:00,
2013-07-08 19:20:00,65.4,64.8,30.00,NNE,25,1.0,3.0,98,0.00,,CLR,0.30,VWS V14.01,2013-07-08 23:20:00,
2013-07-08 19:21:00,65.3,64.7,30.00,NNE,27,2.0,3.0,98,0.00,,CLR,0.30,VWS V14.01,2013-07-08 23:21:00,
2013-07-08 19:22:00,65.3,64.7,30.00,NNE,27,0.0,3.0,98,0.00,,CLR,0.30,VWS V14.01,2013-07-08 23:22:00,
2013-07-08 19:23:00,65.3,64.7,30.00,NNE,25,0.0,3.0,98,0.00,,CLR,0.30,VWS V14.01,2013-07-08 23:23:00,
2013-07-08 19:24:00,65.3,64.7,30.00,NNE,25,1.0,2.0,98,0.00,,CLR,0.30,VWS V14.01,2013-07-08 23:24:00,
2013-07-08 19:25:00,65.2,64.6,30.00,NNE,26,0.0,2.0,98,0.00,,CLR,0.30,VWS V14.01,2013-07-08 23:25:00,
2013-07-08 19:26:00,65.2,64.6,30.00,NNE,26,0.0,2.0,98,0.00,,CLR,0.30,VWS V14.01,2013-07-08 23:26:00,
2013-07-08 19:27:00,65.3,64.7,30.00,NNE,25,0.0,1.0,98,0.00,,CLR,0.30,VWS V14.01,2013-07-08 23:27:00,
2013-07-08 19:28:00,65.3,64.7,30.00,NNE,26,0.0,0.0,98,0.00,,CLR,0.30,VWS V14.01,2013-07-08 23:28:00,
2013-07-08 19:29:00,65.3,64.7,30.00,NNE,26,0.0,0.0,98,0.00,,CLR,0.30,VWS V14.01,2013-07-08 23:29:00,
2013-07-08 19:30:00,65.3,64.7,30.00,NNE,25,0.0,0.0,98,0.00,,CLR,0.30,VWS V14.01,2013-07-08 23:30:00,
2013-07-08 19:31:00,65.3,64.7,30.00,NNE,26,0.0,1.0,98,0.00,,CLR,0.30,VWS V14.01,2013-07-08 23:31:00,
2013-07-08 19:32:00,65.3,64.7,30.00,NNE,26,1.0,1.0,98,0.00,,CLR,0.30,VWS V14.01,2013-07-08 23:32:00,
2013-07-08 19:33:00,65.3,65.0,30.00,NNE,27,1.0,1.0,99,0.00,,CLR,0.30,VWS V14.01,2013-07-08 23:33:00,
2013-07-08 19:34:00,65.3,65.0,30.00,NNE,27,0.0,1.0,99,0.00,,CLR,0.30,VWS V14.01,2013-07-08 23:34:00,
2013-07-08 19:35:00,65.3,65.0,30.00,NNE,27,0.0,1.0,99,0.00,,CLR,0.30,VWS V14.01,2013-07-08 23:35:00,
2013-07-08 19:36:00,65.3,65.0,29.99,NNE,27,0.0,1.0,99,0.00,,CLR,0.30,VWS V14.01,2013-07-08 23:36:00,
2013-07-08 19:37:00,65.3,65.0,30.00,NNE,27,0.0,1.0,99,0.00,,CLR,0.30,VWS V14.01,2013-07-08 23:37:00,
2013-07-08 19:38:00,65.4,65.1,30.00,NNE,25,0.0,1.0,99,0.00,,CLR,0.30,VWS V14.01,2013-07-08 23:38:00,
2013-07-08 19:39:00,65.4,65.1,30.00,NNE,25,0.0,1.0,99,0.00,,CLR,0.30,VWS V14.01,2013-07-08 23:39:00,
2013-07-08 19:40:00,65.4,65.1,30.00,NNE,25,0.0,1.0,99,0.00,,CLR,0.30,VWS V14.01,2013-07-08 23:40:00,
2013-07-08 19:41:00,65.4,65.1,30.00,East,82,1.0,1.0,99,0.00,,CLR,0.30,VWS V14.01,2013-07-08 23:41:00,
2013-07-08 19:42:00,65.4,65.1,30.00,ENE,75,1.0,1.0,99,0.00,,CLR,0.30,VWS V14.01,2013-07-08 23:42:00,
2013-07-08 19:43:00,65.4,65.1,29.99,East,81,0.0,1.0,99,0.00,,CLR,0.30,VWS V14.01,2013-07-08 23:43:00,
2013-07-08 19:44:00,65.4,65.1,30.00,East,79,0.0,1.0,99,0.00,,CLR,0.30,VWS V14.01,2013-07-08 23:44:00,
2013-07-08 19:45:00,65.4,65.1,29.99,East,79,0.0,1.0,99,0.00,,CLR,0.30,VWS V14.01,2013-07-08 23:45:00,
2013-07-08 19:46:00,65.4,65.1,30.00,NE,34,1.0,2.0,99,0.00,,CLR,0.30,VWS V14.01,2013-07-08 23:46:00,
2013-07-08 19:47:00,65.4,65.1,29.99,NE,38,2.0,3.0,99,0.00,,CLR,0.30,VWS V14.01,2013-07-08 23:47:00,
2013-07-08 19:48:00,65.4,65.1,29.99,NNE,30,2.0,3.0,99,0.00,,CLR,0.30,VWS V14.01,2013-07-08 23:48:00,
2013-07-08 19:49:00,65.4,65.1,29.99,NNE,20,2.0,3.0,99,0.00,,CLR,0.30,VWS V14.01,2013-07-08 23:49:00,
2013-07-08 19:50:00,65.3,65.0,29.99,NNE,22,0.0,3.0,99,0.00,,CLR,0.30,VWS V14.01,2013-07-08 23:50:00,
2013-07-08 19:51:00,65.3,65.0,29.99,NNE,22,0.0,3.0,99,0.00,,CLR,0.30,VWS V14.01,2013-07-08 23:51:00,
2013-07-08 19:52:00,69.5,69.0,29.95,NNE,29,2.0,4.0,97,0.00,,,0.30,weatherlink.com 1.10,2013-07-08 23:52:00,
2013-07-08 19:53:00,65.3,65.0,29.99,NNE,20,1.0,1.0,99,0.00,,CLR,0.30,VWS V14.01,2013-07-08 23:53:00,
2013-07-08 19:54:00,65.3,65.0,29.99,NNW,342,1.0,2.0,99,0.00,,CLR,0.30,VWS V14.01,2013-07-08 23:54:00,
2013-07-08 19:55:00,65.3,65.0,29.99,NNW,347,0.0,2.0,99,0.00,,CLR,0.30,VWS V14.01,2013-07-08 23:55:00,
2013-07-08 19:56:00,65.3,65.0,29.99,NNE,13,1.0,2.0,99,0.00,,CLR,0.30,VWS V14.01,2013-07-08 23:56:00,
2013-07-08 19:57:00,65.3,65.0,30.00,NNE,13,0.0,2.0,99,0.00,,CLR,0.30,VWS V14.01,2013-07-08 23:57:00,
2013-07-08 19:58:00,65.3,65.0,30.00,NNE,26,1.0,3.0,99,0.00,,CLR,0.30,VWS V14.01,2013-07-08 23:58:00,
2013-07-08 19:59:00,65.2,64.9,30.00,NNE,30,2.0,3.0,99,0.00,,CLR,0.30,VWS V14.01,2013-07-08 23:59:00,
2013-07-08 20:00:00,65.2,64.9,30.00,NNE,30,1.0,3.0,99,0.00,,CLR,0.30,VWS V14.01,2013-07-09 00:00:00,
2013-07-08 20:01:00,65.2,64.9,30.00,NNE,32,0.0,3.0,99,0.00,,CLR,0.30,VWS V14.01,2013-07-09 00:01:00,
2013-07-08 20:02:00,65.2,64.9,30.00,NNE,14,0.0,2.0,99,0.00,,CLR,0.30,VWS V14.01,2013-07-09 00:02:00,
2013-07-08 20:03:00,65.2,64.9,30.00,NNE,16,1.0,1.0,99,0.00,,CLR,0.30,VWS V14.01,2013-07-09 00:03:00,
2013-07-08 20:04:00,65.2,64.9,30.00,NNE,16,1.0,1.0,99,0.00,,CLR,0.30,VWS V14.01,2013-07-09 00:04:00,
2013-07-08 20:05:00,65.2,64.9,30.00,NNW,342,1.0,1.0,99,0.00,,CLR,0.30,VWS V14.01,2013-07-09 00:05:00,
2013-07-08 20:06:00,65.2,64.9,30.00,NNE,25,1.0,2.0,99,0.00,,CLR,0.30,VWS V14.01,2013-07-09 00:06:00,
2013-07-08 20:07:00,65.2,64.9,30.00,NNE,25,0.0,2.0,99,0.00,,CLR,0.30,VWS V14.01,2013-07-09 00:07:00,
2013-07-08 20:08:00,69.0,69.0,29.96,NE,56,1.0,4.0,98,0.00,,,0.30,weatherlink.com 1.10,2013-07-09 00:08:00,
2013-07-08 20:09:00,65.2,64.9,29.99,NNE,25,0.0,2.0,99,0.00,,CLR,0.30,VWS V14.01,2013-07-09 00:09:00,
2013-07-08 20:10:00,65.2,64.9,29.99,NNE,25,1.0,1.0,99,0.00,,CLR,0.30,VWS V14.01,2013-07-09 00:10:00,
2013-07-08 20:11:00,65.2,64.9,29.99,NNE,27,1.0,2.0,99,0.00,,CLR,0.30,VWS V14.01,2013-07-09 00:11:00,
2013-07-08 20:12:00,65.3,65.0,29.99,NNE,27,0.0,2.0,99,0.00,,CLR,0.30,VWS V14.01,2013-07-09 00:12:00,
2013-07-08 20:13:00,65.3,65.0,29.99,NNE,27,1.0,2.0,99,0.00,,CLR,0.30,VWS V14.01,2013-07-09 00:13:00,
2013-07-08 20:14:00,65.3,65.0,29.99,NNE,27,0.0,2.0,99,0.00,,CLR,0.30,VWS V14.01,2013-07-09 00:14:00,
2013-07-08 20:15:00,65.3,65.0,29.99,NNE,26,0.0,1.0,99,0.00,,CLR,0.30,VWS V14.01,2013-07-09 00:15:00,
2013-07-08 20:16:00,65.3,65.0,30.00,NNE,25,0.0,1.0,99,0.00,,CLR,0.30,VWS V14.01,2013-07-09 00:16:00,
2013-07-08 20:17:00,65.3,65.0,29.99,NNE,26,0.0,0.0,99,0.00,,CLR,0.30,VWS V14.01,2013-07-09 00:17:00,
2013-07-08 20:18:00,65.3,65.0,30.00,NNE,25,0.0,0.0,99,0.00,,CLR,0.30,VWS V14.01,2013-07-09 00:18:00,
2013-07-08 20:19:00,65.3,65.0,29.99,NNE,27,0.0,0.0,99,0.00,,CLR,0.30,VWS V14.01,2013-07-09 00:19:00,
2013-07-08 20:20:00,65.3,65.0,29.99,NNE,25,0.0,0.0,99,0.00,,CLR,0.30,VWS V14.01,2013-07-09 00:20:00,
2013-07-08 20:21:00,65.3,65.0,29.99,NNE,17,0.0,0.0,99,0.00,,CLR,0.30,VWS V14.01,2013-07-09 00:21:00,
2013-07-08 20:22:00,65.3,65.0,29.99,NNE,29,0.0,0.0,99,0.00,,CLR,0.30,VWS V14.01,2013-07-09 00:22:00,
2013-07-08 20:23:00,65.3,65.0,29.99,NE,34,0.0,0.0,99,0.00,,CLR,0.30,VWS V14.01,2013-07-09 00:23:00,
2013-07-08 20:24:00,68.7,68.0,29.96,NE,38,1.0,6.0,98,0.00,,,0.30,weatherlink.com 1.10,2013-07-09 00:24:00,
2013-07-08 20:25:00,65.3,65.0,29.99,NE,40,0.0,0.0,99,0.00,,CLR,0.30,VWS V14.01,2013-07-09 00:25:00,
2013-07-08 20:26:00,65.3,65.0,29.99,NE,40,0.0,0.0,99,0.00,,CLR,0.30,VWS V14.01,2013-07-09 00:26:00,
2013-07-08 20:27:00,65.3,65.0,29.99,NE,50,2.0,3.0,99,0.00,,CLR,0.30,VWS V14.01,2013-07-09 00:27:00,
2013-07-08 20:28:00,65.3,65.0,29.99,NE,41,1.0,3.0,99,0.00,,CLR,0.30,VWS V14.01,2013-07-09 00:28:00,
2013-07-08 20:29:00,65.3,65.0,30.00,NE,41,0.0,3.0,99,0.00,,CLR,0.30,VWS V14.01,2013-07-09 00:29:00,
2013-07-08 20:30:00,65.3,65.0,29.99,NE,41,0.0,3.0,99,0.00,,CLR,0.30,VWS V14.01,2013-07-09 00:30:00,
2013-07-08 20:31:00,65.3,65.0,30.00,NE,41,0.0,2.0,99,0.00,,CLR,0.30,VWS V14.01,2013-07-09 00:31:00,
2013-07-08 20:32:00,65.3,65.0,30.00,NE,44,0.0,2.0,99,0.00,,CLR,0.30,VWS V14.01,2013-07-09 00:32:00,
2013-07-08 20:33:00,65.3,65.0,29.99,NE,44,0.0,2.0,99,0.00,,CLR,0.30,VWS V14.01,2013-07-09 00:33:00,
2013-07-08 20:34:00,65.3,65.0,29.99,NE,46,0.0,2.0,99,0.00,,CLR,0.30,VWS V14.01,2013-07-09 00:34:00,
2013-07-08 20:35:00,65.4,65.1,29.99,NE,46,0.0,0.0,99,0.00,,CLR,0.30,VWS V14.01,2013-07-09 00:35:00,
2013-07-08 20:36:00,65.4,65.1,29.99,NE,47,0.0,0.0,99,0.00,,CLR,0.30,VWS V14.01,2013-07-09 00:36:00,
2013-07-08 20:37:00,65.4,65.1,29.99,NE,47,0.0,0.0,99,0.00,,CLR,0.30,VWS V14.01,2013-07-09 00:37:00,
2013-07-08 20:38:00,65.4,65.1,29.99,NE,39,0.0,0.0,99,0.00,,CLR,0.30,VWS V14.01,2013-07-09 00:38:00,
2013-07-08 20:39:00,65.4,65.1,29.99,NNE,30,1.0,1.0,99,0.00,,CLR,0.30,VWS V14.01,2013-07-09 00:39:00,
2013-07-08 20:40:00,65.4,65.1,29.99,NE,36,0.0,1.0,99,0.00,,CLR,0.30,VWS V14.01,2013-07-09 00:40:00,
2013-07-08 20:41:00,65.4,65.1,29.99,NE,36,0.0,1.0,99,0.00,,CLR,0.30,VWS V14.01,2013-07-09 00:41:00,
2013-07-08 20:42:00,65.4,65.1,29.99,NE,36,1.0,1.0,99,0.00,,CLR,0.30,VWS V14.01,2013-07-09 00:42:00,
2013-07-08 20:43:00,65.4,65.1,29.99,NE,34,1.0,1.0,99,0.00,,CLR,0.30,VWS V14.01,2013-07-09 00:43:00,
2013-07-08 20:44:00,65.4,65.1,29.99,NNE,32,2.0,2.0,99,0.00,,CLR,0.30,VWS V14.01,2013-07-09 00:44:00,
2013-07-08 20:45:00,65.4,65.1,29.99,NE,36,0.0,2.0,99,0.00,,CLR,0.30,VWS V14.01,2013-07-09 00:45:00,
2013-07-08 20:46:00,65.4,65.1,29.99,NE,35,0.0,2.0,99,0.00,,CLR,0.30,VWS V14.01,2013-07-09 00:46:00,
2013-07-08 20:47:00,65.4,65.1,29.99,NE,37,1.0,2.0,99,0.00,,CLR,0.30,VWS V14.01,2013-07-09 00:47:00,
2013-07-08 20:48:00,65.4,65.1,29.99,NE,37,1.0,1.0,99,0.00,,CLR,0.30,VWS V14.01,2013-07-09 00:48:00,
2013-07-08 20:49:00,65.4,65.1,29.99,NNE,30,0.0,1.0,99,0.00,,CLR,0.30,VWS V14.01,2013-07-09 00:49:00,
2013-07-08 20:50:00,65.4,65.1,29.99,NE,39,4.0,6.0,99,0.00,,CLR,0.30,VWS V14.01,2013-07-09 00:50:00,
2013-07-08 20:51:00,65.4,65.1,30.00,NNE,12,1.0,6.0,99,0.00,,CLR,0.30,VWS V14.01,2013-07-09 00:51:00,
2013-07-08 20:52:00,65.4,65.1,30.00,NNE,13,0.0,6.0,99,0.00,,CLR,0.30,VWS V14.01,2013-07-09 00:52:00,
2013-07-08 20:53:00,65.4,65.1,29.99,NNE,32,2.0,6.0,99,0.00,,CLR,0.30,VWS V14.01,2013-07-09 00:53:00,
2013-07-08 20:54:00,65.4,65.1,29.99,NE,42,4.0,4.0,99,0.00,,CLR,0.30,VWS V14.01,2013-07-09 00:54:00,
2013-07-08 20:55:00,65.3,65.0,29.99,NE,40,2.0,4.0,99,0.00,,CLR,0.30,VWS V14.01,2013-07-09 00:55:00,
2013-07-08 20:56:00,65.3,65.0,29.99,NE,34,1.0,4.0,99,0.00,,CLR,0.30,VWS V14.01,2013-07-09 00:56:00,
2013-07-08 20:57:00,65.2,64.9,29.99,NE,37,0.0,4.0,99,0.00,,CLR,0.30,VWS V14.01,2013-07-09 00:57:00,
2013-07-08 20:58:00,65.3,65.0,29.99,NE,47,3.0,3.0,99,0.00,,CLR,0.30,VWS V14.01,2013-07-09 00:58:00,
2013-07-08 20:59:00,65.2,64.9,29.99,NE,46,0.0,3.0,99,0.00,,CLR,0.30,VWS V14.01,2013-07-09 00:59:00,
2013-07-08 21:00:00,65.2,64.9,29.99,East,91,1.0,3.0,99,0.00,,CLR,0.30,VWS V14.01,2013-07-09 01:00:00,
2013-07-08 21:01:00,65.2,64.9,29.99,NNE,30,3.0,5.0,99,0.00,,CLR,0.30,VWS V14.01,2013-07-09 01:01:00,
2013-07-08 21:02:00,65.1,64.8,29.99,NNE,32,1.0,5.0,99,0.00,,CLR,0.30,VWS V14.01,2013-07-09 01:02:00,
2013-07-08 21:03:00,65.1,64.8,29.99,NE,45,0.0,5.0,99,0.00,,CLR,0.30,VWS V14.01,2013-07-09 01:03:00,
2013-07-08 21:04:00,65.1,64.8,29.99,NE,46,0.0,5.0,99,0.00,,CLR,0.30,VWS V14.01,2013-07-09 01:04:00,
2013-07-08 21:05:00,65.1,64.8,29.99,NE,46,0.0,3.0,99,0.00,,CLR,0.30,VWS V14.01,2013-07-09 01:05:00,
2013-07-08 21:06:00,65.0,64.7,29.99,NE,44,1.0,1.0,99,0.00,,CLR,0.30,VWS V14.01,2013-07-09 01:06:00,
2013-07-08 21:07:00,65.0,64.7,29.99,North,1,1.0,2.0,99,0.00,,CLR,0.30,VWS V14.01,2013-07-09 01:07:00,
2013-07-08 21:08:00,65.0,64.7,29.99,NE,37,3.0,3.0,99,0.00,,CLR,0.30,VWS V14.01,2013-07-09 01:08:00,
2013-07-08 21:09:00,65.0,64.7,29.99,NE,40,1.0,3.0,99,0.00,,CLR,0.30,VWS V14.01,2013-07-09 01:09:00,
2013-07-08 21:10:00,65.0,64.7,29.99,NE,36,0.0,3.0,99,0.00,,CLR,0.30,VWS V14.01,2013-07-09 01:10:00,
2013-07-08 21:11:00,65.0,64.7,29.98,NNE,25,1.0,3.0,99,0.00,,CLR,0.30,VWS V14.01,2013-07-09 01:11:00,
2013-07-08 21:12:00,65.0,64.7,29.98,NNE,29,1.0,2.0,99,0.00,,CLR,0.30,VWS V14.01,2013-07-09 01:12:00,
2013-07-08 21:13:00,65.0,64.7,29.99,NNE,13,2.0,2.0,99,0.00,,CLR,0.30,VWS V14.01,2013-07-09 01:13:00,
2013-07-08 21:14:00,67.7,67.0,29.99,NNE,32,0.0,3.0,98,0.00,,,0.30,weatherlink.com 1.10,2013-07-09 01:14:00,
2013-07-08 21:15:00,64.9,64.6,29.99,NE,44,0.0,4.0,99,0.00,,CLR,0.30,VWS V14.01,2013-07-09 01:15:00,
2013-07-08 21:16:00,64.9,64.6,29.99,NE,44,0.0,4.0,99,0.00,,CLR,0.30,VWS V14.01,2013-07-09 01:16:00,
2013-07-08 21:17:00,64.9,64.6,29.99,NE,37,1.0,4.0,99,0.00,,CLR,0.30,VWS V14.01,2013-07-09 01:17:00,
2013-07-08 21:18:00,64.9,64.6,29.99,North,353,0.0,2.0,99,0.00,,CLR,0.30,VWS V14.01,2013-07-09 01:18:00,
2013-07-08 21:19:00,64.9,64.6,29.99,North,352,0.0,2.0,99,0.00,,CLR,0.30,VWS V14.01,2013-07-09 01:19:00,
2013-07-08 21:20:00,64.9,64.6,29.99,North,352,0.0,2.0,99,0.00,,CLR,0.30,VWS V14.01,2013-07-09 01:20:00,
2013-07-08 21:21:00,65.0,64.7,29.99,North,353,0.0,1.0,99,0.00,,CLR,0.30,VWS V14.01,2013-07-09 01:21:00,
2013-07-08 21:22:00,65.0,64.7,29.99,North,352,0.0,1.0,99,0.00,,CLR,0.30,VWS V14.01,2013-07-09 01:22:00,
2013-07-08 21:23:00,65.0,64.7,29.99,North,352,0.0,1.0,99,0.00,,CLR,0.30,VWS V14.01,2013-07-09 01:23:00,
2013-07-08 21:24:00,65.0,64.7,29.99,North,354,0.0,1.0,99,0.00,,CLR,0.30,VWS V14.01,2013-07-09 01:24:00,
2013-07-08 21:25:00,65.0,64.7,29.99,NNE,22,0.0,0.0,99,0.00,,CLR,0.30,VWS V14.01,2013-07-09 01:25:00,
2013-07-08 21:26:00,65.0,64.7,29.99,NNE,17,0.0,0.0,99,0.00,,CLR,0.30,VWS V14.01,2013-07-09 01:26:00,
2013-07-08 21:27:00,65.0,64.7,29.99,ENE,61,0.0,0.0,99,0.00,,CLR,0.30,VWS V14.01,2013-07-09 01:27:00,
2013-07-08 21:28:00,64.9,64.6,29.99,North,9,0.0,1.0,99,0.00,,CLR,0.30,VWS V14.01,2013-07-09 01:28:00,
2013-07-08 21:29:00,64.9,64.6,29.99,NE,56,3.0,3.0,99,0.00,,CLR,0.30,VWS V14.01,2013-07-09 01:29:00,
2013-07-08 21:30:00,67.7,67.0,29.99,ENE,60,0.0,2.0,99,0.00,,,0.30,weatherlink.com 1.10,2013-07-09 01:30:00,
2013-07-08 21:31:00,64.9,64.6,30.00,ENE,60,0.0,3.0,99,0.00,,CLR,0.30,VWS V14.01,2013-07-09 01:31:00,
2013-07-08 21:32:00,64.9,64.6,30.00,North,353,0.0,3.0,99,0.00,,CLR,0.30,VWS V14.01,2013-07-09 01:32:00,
2013-07-08 21:33:00,64.9,64.6,30.00,North,353,0.0,1.0,99,0.00,,CLR,0.30,VWS V14.01,2013-07-09 01:33:00,
2013-07-08 21:34:00,64.9,64.6,30.00,NNE,29,0.0,1.0,99,0.00,,CLR,0.30,VWS V14.01,2013-07-09 01:34:00,
2013-07-08 21:35:00,64.8,64.5,29.99,NNW,337,0.0,1.0,99,0.00,,CLR,0.30,VWS V14.01,2013-07-09 01:35:00,
2013-07-08 21:36:00,64.8,64.5,29.99,NNW,343,0.0,0.0,99,0.00,,CLR,0.30,VWS V14.01,2013-07-09 01:36:00,
2013-07-08 21:37:00,64.8,64.5,29.99,NNW,342,0.0,0.0,99,0.00,,CLR,0.30,VWS V14.01,2013-07-09 01:37:00,
2013-07-08 21:38:00,64.8,64.5,29.99,NNE,17,0.0,0.0,99,0.00,,CLR,0.30,VWS V14.01,2013-07-09 01:38:00,
2013-07-08 21:39:00,64.8,64.5,30.00,NNE,20,0.0,0.0,99,0.00,,CLR,0.30,VWS V14.01,2013-07-09 01:39:00,
2013-07-08 21:40:00,64.7,64.4,30.00,NNE,20,0.0,0.0,99,0.00,,CLR,0.30,VWS V14.01,2013-07-09 01:40:00,
2013-07-08 21:41:00,64.7,64.4,30.00,NNE,20,0.0,0.0,99,0.00,,CLR,0.30,VWS V14.01,2013-07-09 01:41:00,
2013-07-08 21:42:00,64.7,64.4,30.00,NNE,22,0.0,0.0,99,0.00,,CLR,0.30,VWS V14.01,2013-07-09 01:42:00,
2013-07-08 21:43:00,64.7,64.4,30.00,NNE,21,0.0,0.0,99,0.00,,CLR,0.30,VWS V14.01,2013-07-09 01:43:00,
2013-07-08 21:44:00,64.7,64.4,30.00,NNE,20,0.0,0.0,99,0.00,,CLR,0.30,VWS V14.01,2013-07-09 01:44:00,
2013-07-08 21:45:00,64.7,64.4,30.00,NNE,22,0.0,0.0,99,0.00,,CLR,0.30,VWS V14.01,2013-07-09 01:45:00,
2013-07-08 21:46:00,67.6,67.0,29.99,ENE,57,0.0,2.0,99,0.00,,,0.30,weatherlink.com 1.10,2013-07-09 01:46:00,
2013-07-08 21:47:00,64.7,64.4,30.00,NNW,348,0.0,0.0,99,0.00,,CLR,0.30,VWS V14.01,2013-07-09 01:47:00,
2013-07-08 21:48:00,64.7,64.4,30.00,North,3,0.0,0.0,99,0.00,,CLR,0.30,VWS V14.01,2013-07-09 01:48:00,
2013-07-08 21:49:00,64.7,64.4,30.00,NE,46,0.0,0.0,99,0.00,,CLR,0.30,VWS V14.01,2013-07-09 01:49:00,
2013-07-08 21:50:00,64.7,64.4,30.00,NNE,25,2.0,3.0,99,0.00,,CLR,0.30,VWS V14.01,2013-07-09 01:50:00,
2013-07-08 21:51:00,64.7,64.4,30.00,NNE,29,0.0,3.0,99,0.00,,CLR,0.30,VWS V14.01,2013-07-09 01:51:00,
2013-07-08 21:52:00,64.7,64.4,30.00,NNE,33,2.0,3.0,99,0.00,,CLR,0.30,VWS V14.01,2013-07-09 01:52:00,
2013-07-08 21:53:00,64.7,64.4,30.00,NNE,27,2.0,2.0,99,0.00,,CLR,0.30,VWS V14.01,2013-07-09 01:53:00,
2013-07-08 21:54:00,64.7,64.4,30.00,NE,37,1.0,2.0,99,0.00,,CLR,0.30,VWS V14.01,2013-07-09 01:54:00,
2013-07-08 21:55:00,64.7,64.4,30.00,NE,37,2.0,2.0,99,0.00,,CLR,0.30,VWS V14.01,2013-07-09 01:55:00,
2013-07-08 21:56:00,64.7,64.4,30.00,North,352,0.0,3.0,99,0.00,,CLR,0.30,VWS V14.01,2013-07-09 01:56:00,
2013-07-08 21:57:00,64.6,64.3,30.00,North,9,1.0,3.0,99,0.00,,CLR,0.30,VWS V14.01,2013-07-09 01:57:00,
2013-07-08 21:58:00,64.7,64.4,30.00,NNE,20,1.0,3.0,99,0.00,,CLR,0.30,VWS V14.01,2013-07-09 01:58:00,
2013-07-08 21:59:00,64.7,64.4,30.00,NNE,23,0.0,2.0,99,0.00,,CLR,0.30,VWS V14.01,2013-07-09 01:59:00,
2013-07-08 22:00:00,64.6,64.3,30.00,NNE,23,1.0,2.0,99,0.00,,CLR,0.30,VWS V14.01,2013-07-09 02:00:00,
2013-07-08 22:01:00,64.7,64.4,30.00,NNE,23,0.0,2.0,99,0.00,,CLR,0.30,VWS V14.01,2013-07-09 02:01:00,
2013-07-08 22:02:00,67.7,67.0,29.99,NNE,25,1.0,2.0,99,0.00,,,0.30,weatherlink.com 1.10,2013-07-09 02:02:00,
2013-07-08 22:03:00,64.6,64.3,30.00,NNE,32,2.0,3.0,99,0.00,,CLR,0.30,VWS V14.01,2013-07-09 02:03:00,
2013-07-08 22:04:00,64.5,64.2,30.00,NE,39,2.0,3.0,99,0.00,,CLR,0.30,VWS V14.01,2013-07-09 02:04:00,
2013-07-08 22:05:00,64.6,64.3,30.00,NE,39,0.0,3.0,99,0.00,,CLR,0.30,VWS V14.01,2013-07-09 02:05:00,
2013-07-08 22:06:00,64.6,64.3,30.00,NE,39,0.0,3.0,99,0.00,,CLR,0.30,VWS V14.01,2013-07-09 02:06:00,
2013-07-08 22:07:00,64.5,64.2,30.00,NE,39,0.0,2.0,99,0.00,,CLR,0.30,VWS V14.01,2013-07-09 02:07:00,
2013-07-08 22:08:00,64.6,64.3,30.00,NE,39,0.0,1.0,99,0.00,,CLR,0.30,VWS V14.01,2013-07-09 02:08:00,
2013-07-08 22:09:00,64.5,64.2,30.00,NE,39,0.0,0.0,99,0.00,,CLR,0.30,VWS V14.01,2013-07-09 02:09:00,
2013-07-08 22:10:00,64.6,64.3,30.00,NE,39,1.0,1.0,99,0.00,,CLR,0.30,VWS V14.01,2013-07-09 02:10:00,
2013-07-08 22:11:00,64.5,64.2,30.00,NE,39,1.0,2.0,99,0.00,,CLR,0.30,VWS V14.01,2013-07-09 02:11:00,
2013-07-08 22:12:00,64.5,64.2,30.00,NE,39,1.0,2.0,99,0.00,,CLR,0.30,VWS V14.01,2013-07-09 02:12:00,
2013-07-08 22:15:00,64.6,64.3,30.00,NE,39,0.0,1.0,99,0.00,,CLR,0.30,VWS V14.01,2013-07-09 02:15:00,
2013-07-08 22:16:00,64.6,64.3,29.99,NNE,32,2.0,2.0,99,0.00,,CLR,0.30,VWS V14.01,2013-07-09 02:16:00,
2013-07-08 22:17:00,64.6,64.3,29.99,NNE,32,3.0,3.0,99,0.00,,CLR,0.30,VWS V14.01,2013-07-09 02:17:00,
2013-07-08 22:18:00,64.6,64.3,30.00,NNE,30,2.0,3.0,99,0.00,,CLR,0.30,VWS V14.01,2013-07-09 02:18:00,
2013-07-08 22:19:00,64.5,64.2,29.99,NE,39,1.0,3.0,99,0.00,,CLR,0.30,VWS V14.01,2013-07-09 02:19:00,
2013-07-08 22:20:00,64.6,64.3,29.99,NE,37,0.0,3.0,99,0.00,,CLR,0.30,VWS V14.01,2013-07-09 02:20:00,
2013-07-08 22:21:00,64.5,64.2,29.99,NE,39,0.0,2.0,99,0.00,,CLR,0.30,VWS V14.01,2013-07-09 02:21:00,
2013-07-08 22:22:00,64.6,64.3,29.99,NE,37,0.0,1.0,99,0.00,,CLR,0.30,VWS V14.01,2013-07-09 02:22:00,
2013-07-08 22:23:00,64.6,64.3,29.99,NE,39,0.0,1.0,99,0.00,,CLR,0.30,VWS V14.01,2013-07-09 02:23:00,
2013-07-08 22:24:00,64.6,64.3,29.99,NNE,25,0.0,2.0,99,0.00,,CLR,0.30,VWS V14.01,2013-07-09 02:24:00,
2013-07-08 22:25:00,64.6,64.3,29.99,NNE,23,1.0,2.0,99,0.00,,CLR,0.30,VWS V14.01,2013-07-09 02:25:00,
2013-07-08 22:26:00,64.6,64.3,29.99,NNE,23,1.0,2.0,99,0.00,,CLR,0.30,VWS V14.01,2013-07-09 02:26:00,
2013-07-08 22:27:00,64.6,64.3,29.99,NNE,23,0.0,1.0,99,0.00,,CLR,0.30,VWS V14.01,2013-07-09 02:27:00,
2013-07-08 22:28:00,64.6,64.3,30.00,NNE,23,0.0,1.0,99,0.00,,CLR,0.30,VWS V14.01,2013-07-09 02:28:00,
2013-07-08 22:29:00,64.6,64.3,30.00,NNE,23,0.0,1.0,99,0.00,,CLR,0.30,VWS V14.01,2013-07-09 02:29:00,
2013-07-08 22:30:00,64.6,64.3,30.00,NNE,23,0.0,0.0,99,0.00,,CLR,0.30,VWS V14.01,2013-07-09 02:30:00,
2013-07-08 22:31:00,64.6,64.3,30.00,NNE,23,0.0,1.0,99,0.00,,CLR,0.30,VWS V14.01,2013-07-09 02:31:00,
2013-07-08 22:32:00,64.6,64.3,30.00,NNE,23,0.0,1.0,99,0.00,,CLR,0.30,VWS V14.01,2013-07-09 02:32:00,
2013-07-08 22:33:00,64.6,64.3,30.00,NNE,23,0.0,1.0,99,0.00,,CLR,0.30,VWS V14.01,2013-07-09 02:33:00,
2013-07-08 22:34:00,64.6,64.3,30.00,NNE,23,0.0,1.0,99,0.00,,CLR,0.30,VWS V14.01,2013-07-09 02:34:00,
2013-07-08 22:35:00,64.6,64.3,30.00,NNE,23,0.0,0.0,99,0.00,,CLR,0.30,VWS V14.01,2013-07-09 02:35:00,
2013-07-08 22:36:00,67.0,67.0,29.99,SE,128,1.0,1.0,98,0.00,,,0.30,weatherlink.com 1.10,2013-07-09 02:36:00,
2013-07-08 22:37:00,64.5,64.2,30.00,NNE,23,0.0,0.0,99,0.00,,CLR,0.30,VWS V14.01,2013-07-09 02:37:00,
2013-07-08 22:38:00,64.5,64.2,30.00,NNE,23,0.0,0.0,99,0.00,,CLR,0.30,VWS V14.01,2013-07-09 02:38:00,
2013-07-08 22:39:00,64.5,64.2,30.00,NNE,23,0.0,0.0,99,0.00,,CLR,0.30,VWS V14.01,2013-07-09 02:39:00,
2013-07-08 22:40:00,64.5,64.2,30.00,NNE,23,0.0,0.0,99,0.00,,CLR,0.30,VWS V14.01,2013-07-09 02:40:00,
2013-07-08 22:41:00,64.5,64.2,30.00,NNE,23,0.0,0.0,99,0.00,,CLR,0.30,VWS V14.01,2013-07-09 02:41:00,
2013-07-08 22:42:00,64.5,64.2,30.00,NNE,23,0.0,0.0,99,0.00,,CLR,0.30,VWS V14.01,2013-07-09 02:42:00,
2013-07-08 22:43:00,64.4,64.1,30.00,NNE,23,0.0,0.0,99,0.00,,CLR,0.30,VWS V14.01,2013-07-09 02:43:00,
2013-07-08 22:44:00,64.5,64.2,30.00,NNE,23,0.0,0.0,99,0.00,,CLR,0.30,VWS V14.01,2013-07-09 02:44:00,
2013-07-08 22:45:00,64.4,64.1,30.00,NNE,25,0.0,0.0,99,0.00,,CLR,0.30,VWS V14.01,2013-07-09 02:45:00,
2013-07-08 22:46:00,64.5,64.2,30.00,NNE,25,0.0,0.0,99,0.00,,CLR,0.30,VWS V14.01,2013-07-09 02:46:00,
2013-07-08 22:47:00,64.5,64.2,30.00,NNE,25,0.0,0.0,99,0.00,,CLR,0.30,VWS V14.01,2013-07-09 02:47:00,
2013-07-08 22:48:00,64.5,64.2,30.00,NNE,25,0.0,0.0,99,0.00,,CLR,0.30,VWS V14.01,2013-07-09 02:48:00,
2013-07-08 22:49:00,64.5,64.2,30.00,NNE,23,0.0,0.0,99,0.00,,CLR,0.30,VWS V14.01,2013-07-09 02:49:00,
2013-07-08 22:50:00,64.5,64.2,30.00,NNE,23,0.0,0.0,99,0.00,,CLR,0.30,VWS V14.01,2013-07-09 02:50:00,
2013-07-08 22:51:00,64.5,64.2,30.00,NNE,23,0.0,0.0,99,0.00,,CLR,0.30,VWS V14.01,2013-07-09 02:51:00,
2013-07-08 22:52:00,64.5,64.2,30.00,NNE,23,0.0,0.0,99,0.00,,CLR,0.30,VWS V14.01,2013-07-09 02:52:00,
2013-07-08 22:53:00,64.5,64.2,30.00,NNE,23,0.0,0.0,99,0.00,,CLR,0.30,VWS V14.01,2013-07-09 02:53:00,
2013-07-08 22:54:00,64.5,64.2,30.00,NNE,23,0.0,0.0,99,0.00,,CLR,0.30,VWS V14.01,2013-07-09 02:54:00,
2013-07-08 22:55:00,64.5,64.2,30.00,NNE,23,0.0,0.0,99,0.00,,CLR,0.30,VWS V14.01,2013-07-09 02:55:00,
2013-07-08 22:56:00,64.5,64.2,30.00,NNE,27,0.0,0.0,99,0.00,,CLR,0.30,VWS V14.01,2013-07-09 02:56:00,
2013-07-08 22:57:00,64.5,64.2,30.00,NNE,25,0.0,0.0,99,0.00,,CLR,0.30,VWS V14.01,2013-07-09 02:57:00,
2013-07-08 22:58:00,64.5,64.2,30.00,NE,53,0.0,1.0,99,0.00,,CLR,0.30,VWS V14.01,2013-07-09 02:58:00,
2013-07-08 22:59:00,64.5,64.2,30.00,NE,49,1.0,1.0,99,0.00,,CLR,0.30,VWS V14.01,2013-07-09 02:59:00,
2013-07-08 23:00:00,64.5,64.2,30.00,NE,49,0.0,1.0,99,0.00,,CLR,0.30,VWS V14.01,2013-07-09 03:00:00,
2013-07-08 23:01:00,64.5,64.2,30.00,NE,42,1.0,1.0,99,0.00,,CLR,0.30,VWS V14.01,2013-07-09 03:01:00,
2013-07-08 23:02:00,64.5,64.2,30.00,NE,40,0.0,1.0,99,0.00,,CLR,0.30,VWS V14.01,2013-07-09 03:02:00,
2013-07-08 23:03:00,64.5,64.2,30.00,NNW,328,0.0,1.0,99,0.00,,CLR,0.30,VWS V14.01,2013-07-09 03:03:00,
2013-07-08 23:04:00,64.5,64.2,30.00,NNW,328,0.0,1.0,99,0.00,,CLR,0.30,VWS V14.01,2013-07-09 03:04:00,
2013-07-08 23:05:00,64.5,64.2,30.00,NNE,33,1.0,1.0,99,0.00,,CLR,0.30,VWS V14.01,2013-07-09 03:05:00,
2013-07-08 23:06:00,64.5,64.2,30.00,NNE,33,0.0,1.0,99,0.00,,CLR,0.30,VWS V14.01,2013-07-09 03:06:00,
2013-07-08 23:07:00,64.5,64.2,30.00,NNE,33,0.0,1.0,99,0.00,,CLR,0.30,VWS V14.01,2013-07-09 03:07:00,
2013-07-08 23:08:00,64.5,64.2,30.00,NNE,31,0.0,1.0,99,0.00,,CLR,0.30,VWS V14.01,2013-07-09 03:08:00,
2013-07-08 23:09:00,64.5,64.2,30.00,NE,39,0.0,1.0,99,0.00,,CLR,0.30,VWS V14.01,2013-07-09 03:09:00,
2013-07-08 23:10:00,64.5,64.2,30.00,NE,35,0.0,1.0,99,0.00,,CLR,0.30,VWS V14.01,2013-07-09 03:10:00,
2013-07-08 23:11:00,64.5,64.2,30.00,NE,35,1.0,1.0,99,0.00,,CLR,0.30,VWS V14.01,2013-07-09 03:11:00,
2013-07-08 23:12:00,64.5,64.2,30.00,NE,41,2.0,2.0,99,0.00,,CLR,0.30,VWS V14.01,2013-07-09 03:12:00,
2013-07-08 23:13:00,64.5,64.2,30.00,NNE,26,2.0,3.0,99,0.00,,CLR,0.30,VWS V14.01,2013-07-09 03:13:00,
2013-07-08 23:14:00,64.5,64.2,30.00,North,10,1.0,3.0,99,0.00,,CLR,0.30,VWS V14.01,2013-07-09 03:14:00,
2013-07-08 23:15:00,64.4,64.1,30.00,NE,35,1.0,3.0,99,0.00,,CLR,0.30,VWS V14.01,2013-07-09 03:15:00,
2013-07-08 23:16:00,64.4,64.1,30.00,NE,38,1.0,2.0,99,0.00,,CLR,0.30,VWS V14.01,2013-07-09 03:16:00,
2013-07-08 23:17:00,64.4,64.1,30.00,NE,39,1.0,2.0,99,0.00,,CLR,0.30,VWS V14.01,2013-07-09 03:17:00,
2013-07-08 23:18:00,64.4,64.1,30.00,NNE,32,3.0,3.0,99,0.00,,CLR,0.30,VWS V14.01,2013-07-09 03:18:00,
2013-07-08 23:19:00,64.4,64.1,30.00,NE,43,0.0,3.0,99,0.00,,CLR,0.30,VWS V14.01,2013-07-09 03:19:00,
2013-07-08 23:20:00,64.4,64.1,30.00,NNE,29,1.0,3.0,99,0.00,,CLR,0.30,VWS V14.01,2013-07-09 03:20:00,
2013-07-08 23:21:00,64.4,64.1,30.00,NNE,28,0.0,3.0,99,0.00,,CLR,0.30,VWS V14.01,2013-07-09 03:21:00,
2013-07-08 23:22:00,64.4,64.1,30.00,NNE,29,0.0,2.0,99,0.00,,CLR,0.30,VWS V14.01,2013-07-09 03:22:00,
2013-07-08 23:23:00,64.4,64.1,30.00,NNE,28,1.0,2.0,99,0.00,,CLR,0.30,VWS V14.01,2013-07-09 03:23:00,
2013-07-08 23:24:00,64.4,64.1,30.00,NNE,28,0.0,1.0,99,0.00,,CLR,0.30,VWS V14.01,2013-07-09 03:24:00,
2013-07-08 23:25:00,64.4,64.1,30.00,NNE,28,0.0,1.0,99,0.00,,CLR,0.30,VWS V14.01,2013-07-09 03:25:00,
2013-07-08 23:26:00,64.4,64.1,30.00,NNE,29,0.0,1.0,99,0.00,,CLR,0.30,VWS V14.01,2013-07-09 03:26:00,
2013-07-08 23:27:00,64.5,64.2,30.00,NNE,29,0.0,1.0,99,0.00,,CLR,0.30,VWS V14.01,2013-07-09 03:27:00,
2013-07-08 23:28:00,64.5,64.2,30.00,NNE,30,0.0,1.0,99,0.00,,CLR,0.30,VWS V14.01,2013-07-09 03:28:00,
2013-07-08 23:29:00,64.5,64.2,30.00,NNE,30,0.0,0.0,99,0.00,,CLR,0.30,VWS V14.01,2013-07-09 03:29:00,
2013-07-08 23:30:00,64.5,64.2,30.00,NNE,30,0.0,0.0,99,0.00,,CLR,0.30,VWS V14.01,2013-07-09 03:30:00,
2013-07-08 23:31:00,64.5,64.2,30.00,ENE,65,0.0,0.0,99,0.00,,CLR,0.30,VWS V14.01,2013-07-09 03:31:00,
2013-07-08 23:32:00,64.5,64.2,30.00,East,86,0.0,0.0,99,0.00,,CLR,0.30,VWS V14.01,2013-07-09 03:32:00,
2013-07-08 23:33:00,64.5,64.2,30.01,East,96,0.0,0.0,99,0.00,,CLR,0.30,VWS V14.01,2013-07-09 03:33:00,
2013-07-08 23:34:00,64.5,64.2,30.01,ESE,103,0.0,0.0,99,0.00,,CLR,0.30,VWS V14.01,2013-07-09 03:34:00,
2013-07-08 23:35:00,64.5,64.2,30.01,ESE,105,0.0,0.0,99,0.00,,CLR,0.30,VWS V14.01,2013-07-09 03:35:00,
2013-07-08 23:36:00,64.5,64.2,30.01,ESE,104,0.0,0.0,99,0.00,,CLR,0.30,VWS V14.01,2013-07-09 03:36:00,
2013-07-08 23:37:00,64.5,64.2,30.01,ESE,103,0.0,0.0,99,0.00,,CLR,0.30,VWS V14.01,2013-07-09 03:37:00,
2013-07-08 23:38:00,64.5,64.2,30.01,ESE,103,0.0,0.0,99,0.00,,CLR,0.30,VWS V14.01,2013-07-09 03:38:00,
2013-07-08 23:39:00,64.5,64.2,30.01,ESE,103,0.0,0.0,99,0.00,,CLR,0.30,VWS V14.01,2013-07-09 03:39:00,
2013-07-08 23:40:00,64.5,64.2,30.01,ESE,103,0.0,0.0,99,0.00,,CLR,0.30,VWS V14.01,2013-07-09 03:40:00,
2013-07-08 23:41:00,64.5,64.2,30.01,ESE,103,0.0,0.0,99,0.00,,CLR,0.30,VWS V14.01,2013-07-09 03:41:00,
2013-07-08 23:42:00,65.6,65.0,30.01,ESE,109,0.0,0.0,98,0.00,,,0.30,weatherlink.com 1.10,2013-07-09 03:42:00,
2013-07-08 23:43:00,64.5,64.2,30.01,ESE,107,0.0,0.0,99,0.00,,CLR,0.30,VWS V14.01,2013-07-09 03:43:00,
2013-07-08 23:44:00,64.5,64.2,30.01,ESE,105,0.0,0.0,99,0.00,,CLR,0.30,VWS V14.01,2013-07-09 03:44:00,
2013-07-08 23:45:00,64.5,64.2,30.01,ESE,105,0.0,0.0,99,0.00,,CLR,0.30,VWS V14.01,2013-07-09 03:45:00,
2013-07-08 23:46:00,64.5,64.2,30.01,ESE,105,0.0,0.0,99,0.00,,CLR,0.30,VWS V14.01,2013-07-09 03:46:00,
2013-07-08 23:47:00,64.5,64.2,30.01,ESE,105,0.0,0.0,99,0.00,,CLR,0.30,VWS V14.01,2013-07-09 03:47:00,
2013-07-08 23:48:00,64.5,64.2,30.01,ESE,105,0.0,0.0,99,0.00,,CLR,0.30,VWS V14.01,2013-07-09 03:48:00,
2013-07-08 23:49:00,64.5,64.2,30.01,ESE,105,0.0,0.0,99,0.00,,CLR,0.30,VWS V14.01,2013-07-09 03:49:00,
2013-07-08 23:50:00,64.5,64.2,30.01,ESE,105,0.0,0.0,99,0.00,,CLR,0.30,VWS V14.01,2013-07-09 03:50:00,
2013-07-08 23:51:00,64.6,64.3,30.01,ESE,105,0.0,0.0,99,0.00,,CLR,0.30,VWS V14.01,2013-07-09 03:51:00,
2013-07-08 23:52:00,64.6,64.3,30.01,ESE,105,0.0,0.0,99,0.00,,CLR,0.30,VWS V14.01,2013-07-09 03:52:00,
2013-07-08 23:53:00,64.6,64.3,30.01,ESE,105,0.0,0.0,99,0.00,,CLR,0.30,VWS V14.01,2013-07-09 03:53:00,
2013-07-08 23:54:00,64.6,64.3,30.01,ESE,106,0.0,0.0,99,0.00,,CLR,0.30,VWS V14.01,2013-07-09 03:54:00,
2013-07-08 23:55:00,64.6,64.3,30.01,ESE,105,0.0,0.0,99,0.00,,CLR,0.30,VWS V14.01,2013-07-09 03:55:00,
2013-07-08 23:56:00,64.6,64.3,30.01,East,100,0.0,0.0,99,0.00,,CLR,0.30,VWS V14.01,2013-07-09 03:56:00,
2013-07-08 23:57:00,64.6,64.3,30.01,East,100,0.0,0.0,99,0.00,,CLR,0.30,VWS V14.01,2013-07-09 03:57:00,
2013-07-08 23:58:00,65.4,65.0,30.01,ESE,108,0.0,1.0,98,0.00,,,0.30,weatherlink.com 1.10,2013-07-09 03:58:00,
2013-07-08 23:59:00,64.6,64.3,30.01,East,100,0.0,0.0,99,0.00,,CLR,0.30,VWS V14.01,2013-07-09 03:59:00,